DAL6606 VABB-KATL
Flight info
| Callsign | DAL6606 |
|---|---|
| Flight time | N/A |
| Altitude | 34000 |
| Route | ANOLI2A ISRIS G208 APANO G451 AAE Z8 VIKIT P628 RK G202 ZB/N0502F350 G325 SAJAN/N0501F340 A466 SITAX M875 AMDAR/K0917F340 M161 OFDAF/K0911F360 M161 ODIVA L162 URUSU N984 RULEN T822 UNANI T173 ALOPU T822 ARPOT/K0928F380 T822 SOTIS P35 KUMEL L93 KELEK/N0491F380 DCT LUVED DCT ELRES DCT 71N000E/M085F380 70N015W/M085F400 69N029W 66N041W 63N050W DCT SAVRY N912B IRBIM/N0486F400 N918B MT N844B REEDO Q844 SYR/N0493F430 J59 PSB Q71 KONGO DCT HLRRY ONDRE1 |
| Aircraft | A359/H-SDE2E3GHIJ3J4J5LM1ORWXY/LB1D1 |
Departure
| Time | 2026-04-28 19:42 |
|---|---|
| Airport | Chhatrapati Shivaji Maharaj International Airport (VABB) |
Arrival
| Time | N/A |
|---|---|
| Airport | Hartsfield Jackson Atlanta International Airport (KATL) |
| Time | Latitude | Longitude | Altitude | Speed | Heading |
|---|---|---|---|---|---|
| 2026-04-28 19:34 | 19.09327 | 72.86915 | 55 ft | 0 kts | 133° |
| 2026-04-28 19:36 | 19.09327 | 72.86916 | 55 ft | 1 kts | 132° |
| 2026-04-28 19:36 | 19.09303 | 72.86943 | 48 ft | 9 kts | 133° |
| 2026-04-28 19:36 | 19.09249 | 72.87001 | 51 ft | 13 kts | 130° |
| 2026-04-28 19:36 | 19.09192 | 72.87077 | 49 ft | 14 kts | 170° |
| 2026-04-28 19:37 | 19.09139 | 72.87133 | 49 ft | 15 kts | 99° |
| 2026-04-28 19:37 | 19.09136 | 72.87210 | 55 ft | 16 kts | 93° |
| 2026-04-28 19:37 | 19.09057 | 72.87284 | 49 ft | 10 kts | 123° |
| 2026-04-28 19:37 | 19.09051 | 72.87360 | 51 ft | 11 kts | 89° |
| 2026-04-28 19:38 | 19.09052 | 72.87441 | 50 ft | 11 kts | 89° |
| 2026-04-28 19:38 | 19.09053 | 72.87527 | 50 ft | 12 kts | 89° |
| 2026-04-28 19:38 | 19.09054 | 72.87617 | 49 ft | 12 kts | 89° |
| 2026-04-28 19:38 | 19.09055 | 72.87708 | 49 ft | 13 kts | 89° |
| 2026-04-28 19:39 | 19.09056 | 72.87801 | 49 ft | 13 kts | 89° |
| 2026-04-28 19:39 | 19.09058 | 72.87896 | 49 ft | 13 kts | 89° |
| 2026-04-28 19:39 | 19.09059 | 72.87989 | 50 ft | 10 kts | 89° |
| 2026-04-28 19:39 | 19.09034 | 72.88044 | 50 ft | 8 kts | 153° |
| 2026-04-28 19:40 | 19.09018 | 72.88047 | 49 ft | 0 kts | 171° |
| 2026-04-28 19:40 | 19.08977 | 72.88054 | 47 ft | 11 kts | 174° |
| 2026-04-28 19:40 | 19.08896 | 72.88020 | 49 ft | 13 kts | 243° |
| 2026-04-28 19:41 | 19.08887 | 72.87903 | 54 ft | 29 kts | 268° |
| 2026-04-28 19:41 | 19.08879 | 72.87424 | 56 ft | 101 kts | 269° |
| 2026-04-28 19:41 | 19.08867 | 72.86448 | 49 ft | 163 kts | 269° |
| 2026-04-28 19:41 | 19.08845 | 72.85086 | 332 ft | 195 kts | 267° |
| 2026-04-28 19:42 | 19.08840 | 72.83681 | 1203 ft | 190 kts | 270° |
| 2026-04-28 19:42 | 19.08834 | 72.82267 | 1782 ft | 195 kts | 270° |
| 2026-04-28 19:42 | 19.08814 | 72.80788 | 1950 ft | 208 kts | 270° |
| 2026-04-28 19:42 | 19.08797 | 72.79752 | 2065 ft | 217 kts | 270° |
| 2026-04-28 19:43 | 19.08812 | 72.77507 | 2248 ft | 240 kts | 278° |
| 2026-04-28 19:43 | 19.09478 | 72.75861 | 2390 ft | 253 kts | 312° |
| 2026-04-28 19:43 | 19.10990 | 72.74915 | 2728 ft | 259 kts | 347° |
| 2026-04-28 19:43 | 19.12789 | 72.74738 | 3226 ft | 262 kts | 357° |
| 2026-04-28 19:44 | 19.14592 | 72.74693 | 3708 ft | 263 kts | 357° |
| 2026-04-28 19:44 | 19.16420 | 72.74636 | 4224 ft | 263 kts | 356° |
| 2026-04-28 19:44 | 19.18248 | 72.74561 | 4734 ft | 263 kts | 356° |
| 2026-04-28 19:44 | 19.20086 | 72.74473 | 5149 ft | 266 kts | 355° |
| 2026-04-28 19:45 | 19.21942 | 72.74377 | 5575 ft | 269 kts | 355° |
| 2026-04-28 19:45 | 19.23824 | 72.74277 | 6001 ft | 272 kts | 355° |
| 2026-04-28 19:45 | 19.25720 | 72.74173 | 6412 ft | 274 kts | 355° |
| 2026-04-28 19:45 | 19.27635 | 72.74068 | 6803 ft | 277 kts | 355° |
| 2026-04-28 19:46 | 19.29576 | 72.73979 | 7204 ft | 282 kts | 358° |
| 2026-04-28 19:46 | 19.31546 | 72.74137 | 7607 ft | 287 kts | 5° |
| 2026-04-28 19:46 | 19.33508 | 72.74428 | 8007 ft | 290 kts | 6° |
| 2026-04-28 19:46 | 19.35520 | 72.74744 | 8424 ft | 294 kts | 6° |
| 2026-04-28 19:47 | 19.37557 | 72.75063 | 8866 ft | 297 kts | 6° |
| 2026-04-28 19:47 | 19.39616 | 72.75383 | 9300 ft | 301 kts | 6° |
| 2026-04-28 19:47 | 19.41701 | 72.75705 | 9732 ft | 305 kts | 6° |
| 2026-04-28 19:47 | 19.43815 | 72.76031 | 10122 ft | 309 kts | 6° |
| 2026-04-28 19:48 | 19.45961 | 72.76361 | 10478 ft | 316 kts | 6° |
| 2026-04-28 19:48 | 19.48175 | 72.76701 | 10672 ft | 328 kts | 7° |
| 2026-04-28 19:48 | 19.50448 | 72.77050 | 10856 ft | 340 kts | 7° |
| 2026-04-28 19:48 | 19.52828 | 72.77416 | 11024 ft | 351 kts | 7° |
| 2026-04-28 19:49 | 19.55285 | 72.77793 | 11201 ft | 362 kts | 7° |
| 2026-04-28 19:49 | 19.57813 | 72.78183 | 11362 ft | 372 kts | 7° |
| 2026-04-28 19:49 | 19.60411 | 72.78583 | 11533 ft | 382 kts | 7° |
| 2026-04-28 19:49 | 19.63070 | 72.78993 | 11692 ft | 391 kts | 7° |
| 2026-04-28 19:50 | 19.68547 | 72.79837 | 12080 ft | 403 kts | 7° |
| 2026-04-28 19:50 | 19.71333 | 72.80267 | 12405 ft | 405 kts | 7° |
| 2026-04-28 19:50 | 19.73181 | 72.80552 | 12638 ft | 406 kts | 7° |
| 2026-04-28 19:51 | 19.76880 | 72.81123 | 13082 ft | 407 kts | 7° |
| 2026-04-28 19:51 | 19.79696 | 72.81557 | 13442 ft | 408 kts | 7° |
| 2026-04-28 19:51 | 19.82510 | 72.81992 | 13765 ft | 410 kts | 7° |
| 2026-04-28 19:51 | 19.85338 | 72.82429 | 14036 ft | 412 kts | 7° |
| 2026-04-28 19:52 | 19.88180 | 72.82868 | 14316 ft | 413 kts | 7° |
| 2026-04-28 19:52 | 19.90061 | 72.83158 | 14497 ft | 414 kts | 7° |
| 2026-04-28 19:52 | 19.92918 | 72.83599 | 14765 ft | 415 kts | 7° |
| 2026-04-28 19:52 | 19.95784 | 72.84043 | 15051 ft | 417 kts | 7° |
| 2026-04-28 19:53 | 19.98656 | 72.84488 | 15356 ft | 417 kts | 7° |
| 2026-04-28 19:53 | 20.01534 | 72.84933 | 15635 ft | 419 kts | 7° |
| 2026-04-28 19:53 | 20.05364 | 72.85526 | 15989 ft | 421 kts | 7° |
| 2026-04-28 19:53 | 20.08267 | 72.85977 | 16282 ft | 422 kts | 7° |
| 2026-04-28 19:54 | 20.10234 | 72.86271 | 16458 ft | 423 kts | 6° |
| 2026-04-28 19:54 | 20.13123 | 72.86640 | 16713 ft | 425 kts | 5° |
| 2026-04-28 19:54 | 20.16065 | 72.87000 | 17003 ft | 426 kts | 6° |
| 2026-04-28 19:54 | 20.19013 | 72.87366 | 17305 ft | 427 kts | 6° |
| 2026-04-28 19:55 | 20.21970 | 72.87737 | 17560 ft | 429 kts | 6° |
| 2026-04-28 19:55 | 20.24944 | 72.88114 | 17824 ft | 431 kts | 6° |
| 2026-04-28 19:55 | 20.27923 | 72.88493 | 18114 ft | 432 kts | 6° |
| 2026-04-28 19:55 | 20.30907 | 72.88874 | 18394 ft | 432 kts | 5° |
| 2026-04-28 19:56 | 20.33900 | 72.89256 | 18602 ft | 434 kts | 6° |
| 2026-04-28 19:56 | 20.36905 | 72.89641 | 18824 ft | 436 kts | 5° |
| 2026-04-28 19:56 | 20.39876 | 72.90021 | 19095 ft | 436 kts | 5° |
| 2026-04-28 19:56 | 20.42899 | 72.90409 | 19298 ft | 438 kts | 6° |
| 2026-04-28 19:57 | 20.45936 | 72.90798 | 19510 ft | 440 kts | 5° |
| 2026-04-28 19:57 | 20.48979 | 72.91189 | 19762 ft | 441 kts | 5° |
| 2026-04-28 19:57 | 20.52030 | 72.91580 | 20007 ft | 443 kts | 5° |
| 2026-04-28 19:57 | 20.55097 | 72.91973 | 20200 ft | 445 kts | 5° |
| 2026-04-28 19:58 | 20.58172 | 72.92369 | 20456 ft | 446 kts | 5° |
| 2026-04-28 19:58 | 20.61257 | 72.92765 | 20722 ft | 447 kts | 5° |
| 2026-04-28 19:58 | 20.64354 | 72.93163 | 20937 ft | 450 kts | 5° |
| 2026-04-28 19:58 | 20.67430 | 72.93559 | 21163 ft | 451 kts | 5° |
| 2026-04-28 19:59 | 20.70552 | 72.93961 | 21448 ft | 452 kts | 5° |
| 2026-04-28 19:59 | 20.73683 | 72.94364 | 21681 ft | 455 kts | 5° |
| 2026-04-28 19:59 | 20.76832 | 72.94768 | 21922 ft | 457 kts | 5° |
| 2026-04-28 19:59 | 20.79992 | 72.95036 | 22184 ft | 457 kts | 1° |
| 2026-04-28 20:00 | 20.83185 | 72.95150 | 22454 ft | 459 kts | 0° |
| 2026-04-28 20:00 | 20.86387 | 72.95212 | 22701 ft | 461 kts | 359° |
| 2026-04-28 20:00 | 20.89599 | 72.95257 | 22956 ft | 463 kts | 359° |
| 2026-04-28 20:00 | 20.92783 | 72.95315 | 23217 ft | 464 kts | 360° |
| 2026-04-28 20:01 | 20.96020 | 72.95392 | 23417 ft | 467 kts | 0° |
| 2026-04-28 20:01 | 20.99276 | 72.95489 | 23615 ft | 469 kts | 0° |
| 2026-04-28 20:01 | 21.02539 | 72.95601 | 23853 ft | 470 kts | 0° |
| 2026-04-28 20:01 | 21.05808 | 72.95721 | 24091 ft | 470 kts | 0° |
| 2026-04-28 20:02 | 21.09080 | 72.95844 | 24326 ft | 471 kts | 0° |
| 2026-04-28 20:02 | 21.12367 | 72.95967 | 24562 ft | 473 kts | 0° |
| 2026-04-28 20:02 | 21.15653 | 72.96090 | 24813 ft | 474 kts | 360° |
| 2026-04-28 20:02 | 21.18952 | 72.96213 | 25074 ft | 475 kts | 360° |
| 2026-04-28 20:03 | 21.22216 | 72.96356 | 25355 ft | 476 kts | 0° |
| 2026-04-28 20:03 | 21.25527 | 72.96527 | 25625 ft | 478 kts | 0° |
| 2026-04-28 20:03 | 21.28852 | 72.96709 | 25905 ft | 479 kts | 0° |
| 2026-04-28 20:03 | 21.32184 | 72.96893 | 26186 ft | 480 kts | 0° |
| 2026-04-28 20:04 | 21.35527 | 72.97075 | 26461 ft | 482 kts | 0° |
| 2026-04-28 20:04 | 21.38879 | 72.97255 | 26739 ft | 483 kts | 0° |
| 2026-04-28 20:04 | 21.42239 | 72.97433 | 27013 ft | 484 kts | 360° |
| 2026-04-28 20:04 | 21.45608 | 72.97610 | 27271 ft | 486 kts | 360° |
| 2026-04-28 20:05 | 21.48994 | 72.97786 | 27533 ft | 487 kts | 360° |
| 2026-04-28 20:05 | 21.52335 | 72.97960 | 27783 ft | 488 kts | 359° |
| 2026-04-28 20:05 | 21.55733 | 72.98104 | 28037 ft | 489 kts | 357° |
| 2026-04-28 20:05 | 21.59115 | 72.97892 | 28286 ft | 486 kts | 349° |
| 2026-04-28 20:06 | 21.62443 | 72.97297 | 28549 ft | 485 kts | 346° |
| 2026-04-28 20:06 | 21.65752 | 72.96590 | 28861 ft | 484 kts | 345° |
| 2026-04-28 20:06 | 21.69031 | 72.95833 | 29254 ft | 481 kts | 345° |
| 2026-04-28 20:06 | 21.72289 | 72.95053 | 29632 ft | 478 kts | 344° |
| 2026-04-28 20:07 | 21.75536 | 72.94268 | 29925 ft | 478 kts | 344° |
| 2026-04-28 20:07 | 21.77686 | 72.93748 | 30060 ft | 478 kts | 344° |
| 2026-04-28 20:07 | 21.81992 | 72.92713 | 30330 ft | 479 kts | 344° |
| 2026-04-28 20:07 | 21.85241 | 72.91937 | 30553 ft | 479 kts | 344° |
| 2026-04-28 20:08 | 21.88497 | 72.91163 | 30785 ft | 478 kts | 344° |
| 2026-04-28 20:08 | 21.91737 | 72.90395 | 31066 ft | 477 kts | 344° |
| 2026-04-28 20:08 | 21.94975 | 72.89628 | 31261 ft | 477 kts | 344° |
| 2026-04-28 20:08 | 21.98219 | 72.88859 | 31440 ft | 477 kts | 343° |
| 2026-04-28 20:09 | 22.01461 | 72.88090 | 31617 ft | 477 kts | 343° |
| 2026-04-28 20:09 | 22.04708 | 72.87320 | 31815 ft | 478 kts | 343° |
| 2026-04-28 20:09 | 22.07953 | 72.86549 | 31987 ft | 478 kts | 343° |
| 2026-04-28 20:09 | 22.11199 | 72.85778 | 32172 ft | 478 kts | 343° |
| 2026-04-28 20:10 | 22.14397 | 72.85018 | 32343 ft | 478 kts | 343° |
| 2026-04-28 20:10 | 22.17651 | 72.84244 | 32521 ft | 478 kts | 343° |
| 2026-04-28 20:10 | 22.20898 | 72.83471 | 32684 ft | 478 kts | 343° |
| 2026-04-28 20:10 | 22.24151 | 72.82696 | 32842 ft | 479 kts | 343° |
| 2026-04-28 20:11 | 22.27402 | 72.81922 | 32987 ft | 479 kts | 343° |
| 2026-04-28 20:11 | 22.30655 | 72.81147 | 33141 ft | 479 kts | 343° |
| 2026-04-28 20:11 | 22.33912 | 72.80371 | 33289 ft | 479 kts | 343° |
| 2026-04-28 20:11 | 22.37169 | 72.79594 | 33428 ft | 479 kts | 343° |
| 2026-04-28 20:12 | 22.40425 | 72.78817 | 33582 ft | 479 kts | 343° |
| 2026-04-28 20:12 | 22.43638 | 72.78050 | 33699 ft | 480 kts | 343° |
| 2026-04-28 20:12 | 22.46906 | 72.77269 | 33742 ft | 482 kts | 343° |
| 2026-04-28 20:13 | 22.53500 | 72.75691 | 33738 ft | 487 kts | 343° |
| 2026-04-28 20:13 | 22.60123 | 72.74107 | 33742 ft | 487 kts | 343° |
| 2026-04-28 20:14 | 22.66742 | 72.72524 | 33739 ft | 487 kts | 343° |
| 2026-04-28 20:14 | 22.73313 | 72.70949 | 33736 ft | 487 kts | 343° |
| 2026-04-28 20:15 | 22.79926 | 72.69363 | 33738 ft | 487 kts | 343° |
| 2026-04-28 20:15 | 22.86538 | 72.67775 | 33731 ft | 486 kts | 343° |
| 2026-04-28 20:16 | 22.93147 | 72.66186 | 33724 ft | 486 kts | 343° |
| 2026-04-28 20:16 | 22.99756 | 72.64595 | 33720 ft | 486 kts | 343° |
| 2026-04-28 20:17 | 23.06313 | 72.63015 | 33721 ft | 486 kts | 343° |
| 2026-04-28 20:17 | 23.12930 | 72.61485 | 33721 ft | 486 kts | 345° |
| 2026-04-28 20:18 | 23.19561 | 72.60050 | 33709 ft | 486 kts | 345° |
| 2026-04-28 20:18 | 23.26183 | 72.58615 | 33730 ft | 484 kts | 345° |
| 2026-04-28 20:19 | 23.32740 | 72.57174 | 33733 ft | 484 kts | 345° |
| 2026-04-28 20:19 | 23.39337 | 72.55714 | 33754 ft | 484 kts | 345° |
| 2026-04-28 20:20 | 23.45907 | 72.54259 | 33730 ft | 479 kts | 345° |
| 2026-04-28 20:20 | 23.52427 | 72.52814 | 33730 ft | 478 kts | 345° |
| 2026-04-28 20:21 | 23.58941 | 72.51367 | 33730 ft | 478 kts | 345° |
| 2026-04-28 20:21 | 23.65412 | 72.49930 | 33730 ft | 478 kts | 345° |
| 2026-04-28 20:22 | 23.71930 | 72.48481 | 33733 ft | 478 kts | 345° |
| 2026-04-28 20:22 | 23.78445 | 72.47030 | 33737 ft | 478 kts | 345° |
| 2026-04-28 20:23 | 23.84962 | 72.45579 | 33731 ft | 478 kts | 345° |
| 2026-04-28 20:23 | 23.91433 | 72.44136 | 33736 ft | 478 kts | 345° |
| 2026-04-28 20:24 | 23.97950 | 72.42681 | 33736 ft | 478 kts | 345° |
| 2026-04-28 20:24 | 24.04471 | 72.41226 | 33737 ft | 478 kts | 345° |
| 2026-04-28 20:25 | 24.10999 | 72.39781 | 33747 ft | 479 kts | 345° |
| 2026-04-28 20:25 | 24.17481 | 72.38350 | 33736 ft | 478 kts | 345° |
| 2026-04-28 20:26 | 24.24007 | 72.36906 | 33732 ft | 478 kts | 345° |
| 2026-04-28 20:26 | 24.30532 | 72.35460 | 33734 ft | 478 kts | 345° |
| 2026-04-28 20:27 | 24.37058 | 72.34011 | 33735 ft | 478 kts | 345° |
| 2026-04-28 20:27 | 24.43538 | 72.32571 | 33739 ft | 478 kts | 345° |
| 2026-04-28 20:28 | 24.50065 | 72.31119 | 33735 ft | 478 kts | 345° |
| 2026-04-28 20:28 | 24.56590 | 72.29666 | 33738 ft | 478 kts | 345° |
| 2026-04-28 20:29 | 24.63108 | 72.28213 | 33733 ft | 478 kts | 345° |
| 2026-04-28 20:29 | 24.69575 | 72.26770 | 33724 ft | 477 kts | 345° |
| 2026-04-28 20:30 | 24.76083 | 72.25316 | 33718 ft | 477 kts | 345° |
| 2026-04-28 20:30 | 24.82581 | 72.23871 | 33720 ft | 476 kts | 345° |
| 2026-04-28 20:31 | 24.89071 | 72.22432 | 33715 ft | 476 kts | 345° |
| 2026-04-28 20:31 | 24.95564 | 72.20990 | 33710 ft | 476 kts | 345° |
| 2026-04-28 20:32 | 25.02069 | 72.19802 | 33707 ft | 479 kts | 349° |
| 2026-04-28 20:32 | 25.08695 | 72.18992 | 33706 ft | 479 kts | 350° |
| 2026-04-28 20:33 | 25.15328 | 72.18245 | 33706 ft | 479 kts | 350° |
| 2026-04-28 20:33 | 25.21959 | 72.17503 | 33700 ft | 478 kts | 350° |
| 2026-04-28 20:34 | 25.28531 | 72.16760 | 33695 ft | 478 kts | 350° |
| 2026-04-28 20:34 | 25.35139 | 72.16006 | 33694 ft | 478 kts | 350° |
| 2026-04-28 20:35 | 25.41751 | 72.15251 | 33689 ft | 478 kts | 350° |
| 2026-04-28 20:35 | 25.48362 | 72.14495 | 33694 ft | 478 kts | 350° |
| 2026-04-28 20:36 | 25.54976 | 72.13738 | 33688 ft | 478 kts | 350° |
| 2026-04-28 20:36 | 25.61543 | 72.12987 | 33683 ft | 478 kts | 350° |
| 2026-04-28 20:37 | 25.68166 | 72.12228 | 33681 ft | 478 kts | 350° |
| 2026-04-28 20:37 | 25.74781 | 72.11484 | 33692 ft | 478 kts | 350° |
| 2026-04-28 20:38 | 25.81413 | 72.10740 | 33677 ft | 479 kts | 350° |
| 2026-04-28 20:38 | 25.88044 | 72.09995 | 33676 ft | 479 kts | 350° |
| 2026-04-28 20:39 | 25.94636 | 72.09254 | 33675 ft | 479 kts | 350° |
| 2026-04-28 20:39 | 26.01273 | 72.08507 | 33677 ft | 479 kts | 350° |
| 2026-04-28 20:40 | 26.07908 | 72.07758 | 33681 ft | 480 kts | 350° |
| 2026-04-28 20:40 | 26.14554 | 72.07008 | 33680 ft | 480 kts | 350° |
| 2026-04-28 20:41 | 26.21194 | 72.06257 | 33682 ft | 480 kts | 350° |
| 2026-04-28 20:41 | 26.27793 | 72.05511 | 33681 ft | 480 kts | 350° |
| 2026-04-28 20:42 | 26.34436 | 72.04758 | 33685 ft | 480 kts | 350° |
| 2026-04-28 20:42 | 26.41068 | 72.04006 | 33680 ft | 479 kts | 350° |
| 2026-04-28 20:43 | 26.47697 | 72.03254 | 33680 ft | 479 kts | 350° |
| 2026-04-28 20:43 | 26.54282 | 72.02505 | 33680 ft | 479 kts | 350° |
| 2026-04-28 20:44 | 26.60915 | 72.01750 | 33699 ft | 479 kts | 350° |
| 2026-04-28 20:44 | 26.67541 | 72.00996 | 33677 ft | 478 kts | 350° |
| 2026-04-28 20:45 | 26.74158 | 72.00241 | 33675 ft | 478 kts | 350° |
| 2026-04-28 20:45 | 26.80734 | 71.99490 | 33676 ft | 478 kts | 350° |
| 2026-04-28 20:46 | 26.87349 | 71.98733 | 33674 ft | 478 kts | 350° |
| 2026-04-28 20:46 | 26.93966 | 71.97976 | 33673 ft | 478 kts | 350° |
| 2026-04-28 20:47 | 27.00584 | 71.97217 | 33672 ft | 478 kts | 350° |
| 2026-04-28 20:47 | 27.07153 | 71.96464 | 33672 ft | 478 kts | 350° |
| 2026-04-28 20:48 | 27.13785 | 71.95702 | 33672 ft | 478 kts | 350° |
| 2026-04-28 20:48 | 27.20408 | 71.94941 | 33672 ft | 478 kts | 350° |
| 2026-04-28 20:49 | 27.27027 | 71.94179 | 33667 ft | 478 kts | 350° |
| 2026-04-28 20:49 | 27.33598 | 71.93421 | 33667 ft | 478 kts | 350° |
| 2026-04-28 20:50 | 27.40216 | 71.92657 | 33669 ft | 478 kts | 350° |
| 2026-04-28 20:50 | 27.46835 | 71.91892 | 33674 ft | 478 kts | 350° |
| 2026-04-28 20:51 | 27.53448 | 71.91121 | 33660 ft | 477 kts | 349° |
| 2026-04-28 20:51 | 27.59797 | 71.89306 | 33656 ft | 466 kts | 334° |
| 2026-04-28 20:52 | 27.65223 | 71.85599 | 33658 ft | 458 kts | 318° |
| 2026-04-28 20:52 | 27.69350 | 71.80171 | 33650 ft | 457 kts | 301° |
| 2026-04-28 20:53 | 27.73936 | 71.70712 | 33651 ft | 458 kts | 298° |
| 2026-04-28 20:53 | 27.76874 | 71.64328 | 33649 ft | 458 kts | 298° |
| 2026-04-28 20:54 | 27.79814 | 71.57997 | 33649 ft | 458 kts | 298° |
| 2026-04-28 20:54 | 27.82789 | 71.51637 | 33646 ft | 457 kts | 299° |
| 2026-04-28 20:55 | 27.85753 | 71.45304 | 33648 ft | 456 kts | 299° |
| 2026-04-28 20:55 | 27.88691 | 71.38959 | 33647 ft | 456 kts | 298° |
| 2026-04-28 20:56 | 27.91465 | 71.32568 | 33647 ft | 456 kts | 297° |
| 2026-04-28 20:56 | 27.94227 | 71.26118 | 33652 ft | 456 kts | 296° |
| 2026-04-28 20:57 | 27.97013 | 71.19662 | 33644 ft | 457 kts | 297° |
| 2026-04-28 20:57 | 27.99817 | 71.13194 | 33647 ft | 458 kts | 297° |
| 2026-04-28 20:58 | 28.02606 | 71.06762 | 33644 ft | 458 kts | 297° |
| 2026-04-28 20:58 | 28.05408 | 71.00287 | 33644 ft | 458 kts | 297° |
| 2026-04-28 20:59 | 28.08205 | 70.93812 | 33645 ft | 458 kts | 296° |
| 2026-04-28 20:59 | 28.10997 | 70.87334 | 33631 ft | 458 kts | 297° |
| 2026-04-28 21:00 | 28.13782 | 70.80862 | 33644 ft | 456 kts | 297° |
| 2026-04-28 21:00 | 28.16546 | 70.74433 | 33647 ft | 457 kts | 296° |
| 2026-04-28 21:01 | 28.19335 | 70.67935 | 33638 ft | 460 kts | 296° |
| 2026-04-28 21:01 | 28.22133 | 70.61402 | 33638 ft | 460 kts | 296° |
| 2026-04-28 21:02 | 28.24928 | 70.54869 | 33643 ft | 460 kts | 296° |
| 2026-04-28 21:02 | 28.27696 | 70.48386 | 33642 ft | 458 kts | 297° |
| 2026-04-28 21:03 | 28.30467 | 70.41886 | 33641 ft | 457 kts | 297° |
| 2026-04-28 21:03 | 28.33349 | 70.35462 | 33642 ft | 457 kts | 302° |
| 2026-04-28 21:04 | 28.37369 | 70.29913 | 33649 ft | 457 kts | 317° |
| 2026-04-28 21:04 | 28.42694 | 70.25976 | 33636 ft | 462 kts | 333° |
| 2026-04-28 21:05 | 28.48827 | 70.23777 | 33648 ft | 467 kts | 341° |
| 2026-04-28 21:05 | 28.55149 | 70.22015 | 33645 ft | 468 kts | 342° |
| 2026-04-28 21:06 | 28.61490 | 70.20290 | 33648 ft | 468 kts | 342° |
| 2026-04-28 21:06 | 28.67799 | 70.18537 | 33654 ft | 464 kts | 342° |
| 2026-04-28 21:07 | 28.74013 | 70.16781 | 33651 ft | 463 kts | 342° |
| 2026-04-28 21:07 | 28.80259 | 70.15005 | 33654 ft | 463 kts | 342° |
| 2026-04-28 21:08 | 28.86504 | 70.13229 | 33660 ft | 463 kts | 342° |
| 2026-04-28 21:08 | 28.92755 | 70.11453 | 33668 ft | 463 kts | 341° |
| 2026-04-28 21:09 | 28.98977 | 70.09682 | 33663 ft | 464 kts | 341° |
| 2026-04-28 21:09 | 29.05248 | 70.07895 | 33672 ft | 464 kts | 341° |
| 2026-04-28 21:10 | 29.11518 | 70.06107 | 33683 ft | 464 kts | 341° |
| 2026-04-28 21:10 | 29.17786 | 70.04317 | 33687 ft | 464 kts | 341° |
| 2026-04-28 21:11 | 29.24018 | 70.02534 | 33694 ft | 465 kts | 341° |
| 2026-04-28 21:11 | 29.30292 | 70.00738 | 33694 ft | 465 kts | 341° |
| 2026-04-28 21:12 | 29.36566 | 69.98939 | 33699 ft | 465 kts | 341° |
| 2026-04-28 21:12 | 29.42841 | 69.97138 | 33718 ft | 466 kts | 341° |
| 2026-04-28 21:13 | 29.49173 | 69.95314 | 33708 ft | 473 kts | 341° |
| 2026-04-28 21:13 | 29.55523 | 69.93486 | 33711 ft | 473 kts | 341° |
| 2026-04-28 21:14 | 29.61909 | 69.91650 | 33718 ft | 473 kts | 341° |
| 2026-04-28 21:14 | 29.68296 | 69.89809 | 33727 ft | 473 kts | 341° |
| 2026-04-28 21:15 | 29.74685 | 69.87962 | 33738 ft | 473 kts | 341° |
| 2026-04-28 21:15 | 29.81072 | 69.86113 | 33719 ft | 473 kts | 341° |
| 2026-04-28 21:16 | 29.87391 | 69.84282 | 33747 ft | 470 kts | 341° |
| 2026-04-28 21:16 | 29.93727 | 69.82443 | 33770 ft | 469 kts | 341° |
| 2026-04-28 21:17 | 30.00089 | 69.80594 | 33758 ft | 474 kts | 341° |
| 2026-04-28 21:17 | 30.06490 | 69.78732 | 33774 ft | 474 kts | 341° |
| 2026-04-28 21:18 | 30.12887 | 69.76870 | 33770 ft | 474 kts | 341° |
| 2026-04-28 21:18 | 30.19246 | 69.75016 | 33800 ft | 474 kts | 341° |
| 2026-04-28 21:19 | 30.25655 | 69.73146 | 33779 ft | 476 kts | 341° |
| 2026-04-28 21:19 | 30.32128 | 69.71470 | 33783 ft | 477 kts | 343° |
| 2026-04-28 21:20 | 30.38640 | 69.69945 | 33775 ft | 477 kts | 343° |
| 2026-04-28 21:20 | 30.45107 | 69.68407 | 33797 ft | 478 kts | 343° |
| 2026-04-28 21:21 | 30.51614 | 69.66819 | 33785 ft | 478 kts | 343° |
| 2026-04-28 21:21 | 30.58124 | 69.65216 | 33787 ft | 478 kts | 343° |
| 2026-04-28 21:22 | 30.64628 | 69.63612 | 33783 ft | 478 kts | 343° |
| 2026-04-28 21:22 | 30.70040 | 69.62278 | 33816 ft | 478 kts | 343° |
| 2026-04-28 21:23 | 30.77610 | 69.60409 | 33795 ft | 479 kts | 343° |
| 2026-04-28 21:23 | 30.84137 | 69.58796 | 33795 ft | 479 kts | 343° |
| 2026-04-28 21:24 | 30.90657 | 69.57182 | 33803 ft | 479 kts | 343° |
| 2026-04-28 21:24 | 30.97177 | 69.55566 | 33811 ft | 479 kts | 343° |
| 2026-04-28 21:25 | 31.03695 | 69.53946 | 33810 ft | 479 kts | 343° |
| 2026-04-28 21:25 | 31.10165 | 69.52337 | 33807 ft | 478 kts | 343° |
| 2026-04-28 21:26 | 31.16671 | 69.50718 | 33812 ft | 478 kts | 343° |
| 2026-04-28 21:26 | 31.23179 | 69.49096 | 33820 ft | 479 kts | 343° |
| 2026-04-28 21:27 | 31.29759 | 69.47662 | 33818 ft | 486 kts | 350° |
| 2026-04-28 21:27 | 31.36501 | 69.48120 | 34191 ft | 494 kts | 7° |
| 2026-04-28 21:28 | 31.39795 | 69.49310 | 34450 ft | 500 kts | 17° |
| 2026-04-28 21:28 | 31.42935 | 69.51107 | 34614 ft | 505 kts | 22° |
| 2026-04-28 21:28 | 31.45997 | 69.53146 | 34752 ft | 507 kts | 25° |
| 2026-04-28 21:28 | 31.49027 | 69.55280 | 34832 ft | 510 kts | 25° |
| 2026-04-28 21:29 | 31.55108 | 69.59665 | 34831 ft | 516 kts | 26° |
| 2026-04-28 21:29 | 31.61236 | 69.64065 | 34832 ft | 516 kts | 25° |
| 2026-04-28 21:30 | 31.67332 | 69.68413 | 34838 ft | 516 kts | 25° |
| 2026-04-28 21:30 | 31.73469 | 69.72773 | 34832 ft | 516 kts | 25° |
| 2026-04-28 21:31 | 31.79613 | 69.77139 | 34835 ft | 516 kts | 25° |
| 2026-04-28 21:31 | 31.85755 | 69.81513 | 34825 ft | 516 kts | 25° |
| 2026-04-28 21:32 | 31.91867 | 69.85868 | 34824 ft | 517 kts | 25° |
| 2026-04-28 21:32 | 31.98001 | 69.90252 | 34823 ft | 515 kts | 25° |
| 2026-04-28 21:33 | 32.04117 | 69.94638 | 34788 ft | 515 kts | 26° |
| 2026-04-28 21:33 | 32.10223 | 69.99040 | 34819 ft | 514 kts | 25° |
| 2026-04-28 21:34 | 32.16334 | 70.03416 | 34814 ft | 514 kts | 25° |
| 2026-04-28 21:34 | 32.22403 | 70.07772 | 34801 ft | 514 kts | 25° |
| 2026-04-28 21:35 | 32.28510 | 70.12169 | 34800 ft | 514 kts | 25° |
| 2026-04-28 21:35 | 32.34613 | 70.16576 | 34811 ft | 514 kts | 26° |
| 2026-04-28 21:36 | 32.40732 | 70.20958 | 34791 ft | 513 kts | 25° |
| 2026-04-28 21:36 | 32.46825 | 70.25173 | 34801 ft | 509 kts | 25° |
| 2026-04-28 21:37 | 32.52942 | 70.29364 | 34803 ft | 507 kts | 24° |
| 2026-04-28 21:37 | 32.59409 | 70.32345 | 34808 ft | 493 kts | 6° |
| 2026-04-28 21:38 | 32.66116 | 70.32803 | 34816 ft | 477 kts | 348° |
| 2026-04-28 21:38 | 32.72379 | 70.30711 | 34814 ft | 463 kts | 330° |
| 2026-04-28 21:39 | 32.77949 | 70.27013 | 34818 ft | 462 kts | 326° |
| 2026-04-28 21:39 | 32.83425 | 70.23029 | 34825 ft | 462 kts | 325° |
| 2026-04-28 21:40 | 32.88896 | 70.19027 | 34851 ft | 462 kts | 324° |
| 2026-04-28 21:40 | 32.94381 | 70.15054 | 34846 ft | 461 kts | 324° |
| 2026-04-28 21:41 | 32.99834 | 70.11120 | 34838 ft | 461 kts | 325° |
| 2026-04-28 21:41 | 33.05319 | 70.07162 | 34844 ft | 461 kts | 324° |
| 2026-04-28 21:42 | 33.10830 | 70.03235 | 34857 ft | 462 kts | 327° |
| 2026-04-28 21:42 | 33.16530 | 69.99647 | 34854 ft | 464 kts | 329° |
| 2026-04-28 21:43 | 33.22242 | 69.96161 | 34860 ft | 464 kts | 329° |
| 2026-04-28 21:43 | 33.27962 | 69.92605 | 34868 ft | 464 kts | 328° |
| 2026-04-28 21:44 | 33.33669 | 69.89003 | 34868 ft | 464 kts | 328° |
| 2026-04-28 21:44 | 33.39371 | 69.85386 | 34880 ft | 464 kts | 328° |
| 2026-04-28 21:45 | 33.45048 | 69.81781 | 34868 ft | 466 kts | 328° |
| 2026-04-28 21:45 | 33.50772 | 69.78143 | 34879 ft | 466 kts | 328° |
| 2026-04-28 21:46 | 33.56514 | 69.74522 | 34899 ft | 466 kts | 328° |
| 2026-04-28 21:46 | 33.62278 | 69.70962 | 34896 ft | 466 kts | 329° |
| 2026-04-28 21:47 | 33.68002 | 69.67428 | 34902 ft | 466 kts | 329° |
| 2026-04-28 21:47 | 33.73756 | 69.63859 | 34919 ft | 466 kts | 328° |
| 2026-04-28 21:48 | 33.79509 | 69.60281 | 34923 ft | 465 kts | 329° |
| 2026-04-28 21:48 | 33.85238 | 69.56707 | 34933 ft | 463 kts | 329° |
| 2026-04-28 21:49 | 33.90960 | 69.53132 | 34931 ft | 463 kts | 329° |
| 2026-04-28 21:49 | 33.96649 | 69.49583 | 34937 ft | 465 kts | 328° |
| 2026-04-28 21:50 | 34.02389 | 69.45982 | 34939 ft | 465 kts | 328° |
| 2026-04-28 21:50 | 34.08113 | 69.42389 | 34932 ft | 464 kts | 328° |
| 2026-04-28 21:51 | 34.13848 | 69.38791 | 34934 ft | 464 kts | 329° |
| 2026-04-28 21:51 | 34.19545 | 69.35227 | 34926 ft | 464 kts | 329° |
| 2026-04-28 21:52 | 34.25275 | 69.31634 | 34926 ft | 464 kts | 329° |
| 2026-04-28 21:52 | 34.31006 | 69.28033 | 34926 ft | 464 kts | 329° |
| 2026-04-28 21:53 | 34.36729 | 69.24432 | 34921 ft | 464 kts | 329° |
| 2026-04-28 21:53 | 34.42415 | 69.20849 | 34923 ft | 464 kts | 329° |
| 2026-04-28 21:54 | 34.48141 | 69.17239 | 34917 ft | 465 kts | 328° |
| 2026-04-28 21:54 | 34.53876 | 69.13610 | 34912 ft | 465 kts | 328° |
| 2026-04-28 21:55 | 34.59591 | 69.09928 | 34932 ft | 465 kts | 328° |
| 2026-04-28 21:55 | 34.65303 | 69.06223 | 34930 ft | 465 kts | 328° |
| 2026-04-28 21:56 | 34.70974 | 69.02544 | 34935 ft | 465 kts | 328° |
| 2026-04-28 21:56 | 34.76688 | 68.98840 | 34947 ft | 465 kts | 328° |
| 2026-04-28 21:57 | 34.82401 | 68.95129 | 34959 ft | 465 kts | 328° |
| 2026-04-28 21:57 | 34.88110 | 68.91418 | 34971 ft | 465 kts | 328° |
| 2026-04-28 21:58 | 34.93770 | 68.87736 | 34963 ft | 464 kts | 328° |
| 2026-04-28 21:58 | 34.99469 | 68.84021 | 35014 ft | 465 kts | 328° |
| 2026-04-28 21:59 | 35.05178 | 68.80292 | 35031 ft | 466 kts | 328° |
| 2026-04-28 22:00 | 35.13739 | 68.74683 | 35059 ft | 465 kts | 328° |
| 2026-04-28 22:00 | 35.19386 | 68.70980 | 35070 ft | 463 kts | 328° |
| 2026-04-28 22:01 | 35.25063 | 68.67253 | 35083 ft | 463 kts | 328° |
| 2026-04-28 22:01 | 35.30743 | 68.63519 | 35070 ft | 463 kts | 328° |
| 2026-04-28 22:02 | 35.36443 | 68.59774 | 35094 ft | 468 kts | 328° |
| 2026-04-28 22:02 | 35.42183 | 68.55984 | 35093 ft | 468 kts | 328° |
| 2026-04-28 22:03 | 35.47878 | 68.52214 | 35079 ft | 468 kts | 328° |
| 2026-04-28 22:03 | 35.53613 | 68.48411 | 35089 ft | 469 kts | 328° |
| 2026-04-28 22:04 | 35.59356 | 68.44602 | 35081 ft | 469 kts | 328° |
| 2026-04-28 22:04 | 35.65104 | 68.40781 | 35069 ft | 470 kts | 328° |
| 2026-04-28 22:05 | 35.70849 | 68.36935 | 35070 ft | 470 kts | 328° |
| 2026-04-28 22:05 | 35.76556 | 68.33095 | 35058 ft | 471 kts | 328° |
| 2026-04-28 22:06 | 35.82308 | 68.29223 | 35068 ft | 471 kts | 328° |
| 2026-04-28 22:06 | 35.88059 | 68.25353 | 35056 ft | 471 kts | 328° |
| 2026-04-28 22:07 | 35.93813 | 68.21474 | 35068 ft | 471 kts | 328° |
| 2026-04-28 22:07 | 35.99534 | 68.17610 | 35057 ft | 472 kts | 328° |
| 2026-04-28 22:08 | 36.05291 | 68.13718 | 35038 ft | 471 kts | 328° |
| 2026-04-28 22:08 | 36.11042 | 68.09821 | 35045 ft | 471 kts | 328° |
| 2026-04-28 22:09 | 36.16793 | 68.05919 | 35033 ft | 472 kts | 328° |
| 2026-04-28 22:09 | 36.22516 | 68.02031 | 35016 ft | 472 kts | 328° |
| 2026-04-28 22:10 | 36.28270 | 67.98111 | 35016 ft | 472 kts | 328° |
| 2026-04-28 22:10 | 36.34027 | 67.94183 | 35015 ft | 472 kts | 328° |
| 2026-04-28 22:11 | 36.39791 | 67.90243 | 34993 ft | 473 kts | 328° |
| 2026-04-28 22:11 | 36.45555 | 67.86298 | 34983 ft | 473 kts | 328° |
| 2026-04-28 22:12 | 36.51287 | 67.82369 | 34984 ft | 474 kts | 328° |
| 2026-04-28 22:12 | 36.57057 | 67.78407 | 34980 ft | 474 kts | 328° |
| 2026-04-28 22:13 | 36.62839 | 67.74431 | 34981 ft | 475 kts | 328° |
| 2026-04-28 22:13 | 36.68615 | 67.70450 | 34981 ft | 474 kts | 328° |
| 2026-04-28 22:14 | 36.74350 | 67.66498 | 34976 ft | 474 kts | 328° |
| 2026-04-28 22:14 | 36.80130 | 67.62524 | 34966 ft | 474 kts | 328° |
| 2026-04-28 22:15 | 36.85909 | 67.58546 | 34958 ft | 474 kts | 328° |
| 2026-04-28 22:15 | 36.90708 | 67.55235 | 34958 ft | 474 kts | 328° |
| 2026-04-28 22:16 | 36.97421 | 67.50597 | 34956 ft | 475 kts | 328° |
| 2026-04-28 22:16 | 37.02267 | 67.47241 | 34951 ft | 475 kts | 328° |
| 2026-04-28 22:17 | 37.08012 | 67.43258 | 34949 ft | 475 kts | 328° |
| 2026-04-28 22:17 | 37.13796 | 67.39240 | 34957 ft | 475 kts | 328° |
| 2026-04-28 22:18 | 37.20530 | 67.34631 | 34950 ft | 475 kts | 332° |
| 2026-04-28 22:18 | 37.25583 | 67.31760 | 34955 ft | 476 kts | 333° |
| 2026-04-28 22:19 | 37.31619 | 67.28465 | 34938 ft | 476 kts | 334° |
| 2026-04-28 22:19 | 37.37703 | 67.25176 | 34940 ft | 475 kts | 334° |
| 2026-04-28 22:20 | 37.43775 | 67.21881 | 34943 ft | 475 kts | 334° |
| 2026-04-28 22:20 | 37.49856 | 67.18567 | 34953 ft | 478 kts | 333° |
| 2026-04-28 22:21 | 37.55917 | 67.15255 | 34957 ft | 478 kts | 333° |
| 2026-04-28 22:21 | 37.62022 | 67.11914 | 34968 ft | 478 kts | 333° |
| 2026-04-28 22:22 | 37.68123 | 67.08569 | 34976 ft | 478 kts | 333° |
| 2026-04-28 22:22 | 37.74223 | 67.05218 | 34987 ft | 478 kts | 334° |
| 2026-04-28 22:23 | 37.80317 | 67.01865 | 34984 ft | 477 kts | 333° |
| 2026-04-28 22:23 | 37.86359 | 66.98534 | 34995 ft | 477 kts | 333° |
| 2026-04-28 22:24 | 37.92443 | 66.95175 | 35016 ft | 477 kts | 333° |
| 2026-04-28 22:24 | 37.98518 | 66.91813 | 35011 ft | 476 kts | 334° |
| 2026-04-28 22:25 | 38.04585 | 66.88453 | 35008 ft | 476 kts | 333° |
| 2026-04-28 22:25 | 38.10639 | 66.85089 | 35012 ft | 480 kts | 333° |
| 2026-04-28 22:26 | 38.16747 | 66.81691 | 35016 ft | 479 kts | 333° |
| 2026-04-28 22:26 | 38.22841 | 66.78295 | 35018 ft | 478 kts | 333° |
| 2026-04-28 22:27 | 38.28935 | 66.74893 | 35000 ft | 478 kts | 333° |
| 2026-04-28 22:27 | 38.34980 | 66.71511 | 35003 ft | 478 kts | 333° |
| 2026-04-28 22:28 | 38.41065 | 66.68102 | 34998 ft | 478 kts | 333° |
| 2026-04-28 22:28 | 38.47146 | 66.64688 | 34987 ft | 478 kts | 333° |
| 2026-04-28 22:29 | 38.53227 | 66.61268 | 34972 ft | 478 kts | 333° |
| 2026-04-28 22:29 | 38.59268 | 66.57865 | 34970 ft | 478 kts | 333° |
| 2026-04-28 22:30 | 38.65359 | 66.54425 | 34968 ft | 479 kts | 332° |
| 2026-04-28 22:30 | 38.71466 | 66.50971 | 34968 ft | 480 kts | 332° |
| 2026-04-28 22:30 | 38.74510 | 66.49248 | 35169 ft | 477 kts | 332° |
| 2026-04-28 22:31 | 38.77534 | 66.47535 | 35473 ft | 473 kts | 332° |
| 2026-04-28 22:31 | 38.80530 | 66.45823 | 35671 ft | 472 kts | 332° |
| 2026-04-28 22:31 | 38.83525 | 66.44102 | 35824 ft | 471 kts | 332° |
| 2026-04-28 22:32 | 38.89421 | 66.40708 | 35946 ft | 460 kts | 332° |
| 2026-04-28 22:32 | 38.95211 | 66.37375 | 35934 ft | 454 kts | 331° |
| 2026-04-28 22:33 | 39.00978 | 66.34044 | 35931 ft | 455 kts | 331° |
| 2026-04-28 22:33 | 39.06749 | 66.30708 | 35931 ft | 455 kts | 331° |
| 2026-04-28 22:34 | 39.12474 | 66.27395 | 35937 ft | 455 kts | 331° |
| 2026-04-28 22:34 | 39.18250 | 66.24049 | 35930 ft | 455 kts | 331° |
| 2026-04-28 22:35 | 39.24033 | 66.20691 | 35935 ft | 456 kts | 331° |
| 2026-04-28 22:35 | 39.29820 | 66.17325 | 35939 ft | 456 kts | 331° |
| 2026-04-28 22:36 | 39.35562 | 66.13980 | 35939 ft | 456 kts | 331° |
| 2026-04-28 22:36 | 39.41346 | 66.10603 | 35942 ft | 456 kts | 331° |
| 2026-04-28 22:37 | 39.47126 | 66.07223 | 35945 ft | 455 kts | 331° |
| 2026-04-28 22:37 | 39.52897 | 66.03843 | 35942 ft | 455 kts | 331° |
| 2026-04-28 22:38 | 39.58618 | 66.00485 | 35945 ft | 455 kts | 331° |
| 2026-04-28 22:38 | 39.64382 | 65.97099 | 35959 ft | 455 kts | 331° |
| 2026-04-28 22:39 | 39.70128 | 65.93719 | 35956 ft | 453 kts | 331° |
| 2026-04-28 22:39 | 39.75864 | 65.90332 | 35958 ft | 454 kts | 331° |
| 2026-04-28 22:40 | 39.81583 | 65.86949 | 35969 ft | 455 kts | 331° |
| 2026-04-28 22:40 | 39.87338 | 65.83543 | 35960 ft | 454 kts | 331° |
| 2026-04-28 22:41 | 39.93077 | 65.80139 | 35968 ft | 453 kts | 331° |
| 2026-04-28 22:41 | 39.98819 | 65.76727 | 35969 ft | 453 kts | 331° |
| 2026-04-28 22:42 | 40.04513 | 65.73338 | 35964 ft | 453 kts | 331° |
| 2026-04-28 22:42 | 40.10241 | 65.69922 | 35968 ft | 452 kts | 330° |
| 2026-04-28 22:43 | 40.15964 | 65.66502 | 35973 ft | 452 kts | 330° |
| 2026-04-28 22:43 | 40.21684 | 65.63079 | 35979 ft | 451 kts | 330° |
| 2026-04-28 22:44 | 40.27389 | 65.59658 | 35978 ft | 452 kts | 330° |
| 2026-04-28 22:44 | 40.33073 | 65.56241 | 35979 ft | 453 kts | 330° |
| 2026-04-28 22:45 | 40.38806 | 65.52792 | 35981 ft | 452 kts | 330° |
| 2026-04-28 22:45 | 40.44519 | 65.49349 | 35983 ft | 452 kts | 330° |
| 2026-04-28 22:46 | 40.50232 | 65.45900 | 35982 ft | 452 kts | 330° |
| 2026-04-28 22:46 | 40.55903 | 65.42469 | 35983 ft | 452 kts | 330° |
| 2026-04-28 22:47 | 40.61611 | 65.39010 | 35981 ft | 452 kts | 330° |
| 2026-04-28 22:47 | 40.67320 | 65.35543 | 35977 ft | 452 kts | 330° |
| 2026-04-28 22:48 | 40.73024 | 65.32073 | 35976 ft | 451 kts | 330° |
| 2026-04-28 22:48 | 40.78685 | 65.28623 | 35972 ft | 451 kts | 330° |
| 2026-04-28 22:49 | 40.84397 | 65.25135 | 35970 ft | 453 kts | 330° |
| 2026-04-28 22:49 | 40.90109 | 65.21639 | 35973 ft | 453 kts | 330° |
| 2026-04-28 22:50 | 40.95832 | 65.18132 | 35968 ft | 453 kts | 330° |
| 2026-04-28 22:50 | 41.01552 | 65.14619 | 35963 ft | 453 kts | 330° |
| 2026-04-28 22:51 | 41.07233 | 65.11123 | 35965 ft | 453 kts | 331° |
| 2026-04-28 22:51 | 41.12961 | 65.07591 | 35963 ft | 454 kts | 331° |
| 2026-04-28 22:52 | 41.18695 | 65.04050 | 35963 ft | 454 kts | 331° |
| 2026-04-28 22:52 | 41.24424 | 65.00503 | 35965 ft | 455 kts | 331° |
| 2026-04-28 22:53 | 41.30166 | 64.96920 | 35962 ft | 456 kts | 331° |
| 2026-04-28 22:53 | 41.35876 | 64.93352 | 35968 ft | 456 kts | 331° |
| 2026-04-28 22:54 | 41.41625 | 64.89756 | 35969 ft | 457 kts | 331° |
| 2026-04-28 22:54 | 41.47389 | 64.86144 | 35966 ft | 458 kts | 331° |
| 2026-04-28 22:55 | 41.53164 | 64.82520 | 35965 ft | 459 kts | 331° |
| 2026-04-28 22:55 | 41.58899 | 64.78913 | 35969 ft | 459 kts | 332° |
| 2026-04-28 22:56 | 41.64684 | 64.75268 | 35963 ft | 460 kts | 331° |
| 2026-04-28 22:56 | 41.70466 | 64.71618 | 35967 ft | 461 kts | 331° |
| 2026-04-28 22:57 | 41.76306 | 64.67920 | 35964 ft | 468 kts | 331° |
| 2026-04-28 22:57 | 41.82186 | 64.64190 | 35961 ft | 474 kts | 332° |
| 2026-04-28 22:58 | 41.88185 | 64.60379 | 35963 ft | 480 kts | 332° |
| 2026-04-28 22:58 | 41.94231 | 64.56533 | 35966 ft | 481 kts | 331° |
| 2026-04-28 22:59 | 42.00274 | 64.52681 | 35965 ft | 480 kts | 331° |
| 2026-04-28 22:59 | 42.06304 | 64.48826 | 35966 ft | 480 kts | 331° |
| 2026-04-28 23:00 | 42.12299 | 64.44986 | 35998 ft | 480 kts | 330° |
| 2026-04-28 23:00 | 42.18329 | 64.41115 | 35969 ft | 480 kts | 331° |
| 2026-04-28 23:01 | 42.24352 | 64.37239 | 35968 ft | 480 kts | 331° |
| 2026-04-28 23:01 | 42.30377 | 64.33354 | 35968 ft | 480 kts | 331° |
| 2026-04-28 23:02 | 42.36358 | 64.29490 | 35972 ft | 480 kts | 331° |
| 2026-04-28 23:02 | 42.42380 | 64.25591 | 35967 ft | 480 kts | 331° |
| 2026-04-28 23:03 | 42.48398 | 64.21686 | 35976 ft | 480 kts | 331° |
| 2026-04-28 23:03 | 42.54415 | 64.17773 | 35971 ft | 480 kts | 331° |
| 2026-04-28 23:04 | 42.60433 | 64.13859 | 35980 ft | 480 kts | 331° |
| 2026-04-28 23:04 | 42.69589 | 64.08452 | 35978 ft | 481 kts | 333° |
| 2026-04-28 23:05 | 42.75747 | 64.04905 | 35976 ft | 480 kts | 333° |
| 2026-04-28 23:05 | 42.81884 | 64.01314 | 35975 ft | 480 kts | 333° |
| 2026-04-28 23:06 | 42.88002 | 63.97697 | 35979 ft | 479 kts | 333° |
| 2026-04-28 23:06 | 42.94078 | 63.94092 | 35980 ft | 479 kts | 333° |
| 2026-04-28 23:07 | 43.00192 | 63.90459 | 35977 ft | 479 kts | 333° |
| 2026-04-28 23:07 | 43.06300 | 63.86822 | 35978 ft | 479 kts | 333° |
| 2026-04-28 23:08 | 43.12410 | 63.83178 | 35983 ft | 479 kts | 332° |
| 2026-04-28 23:08 | 43.18467 | 63.79556 | 35983 ft | 479 kts | 332° |
| 2026-04-28 23:09 | 43.24579 | 63.75894 | 35983 ft | 479 kts | 332° |
| 2026-04-28 23:09 | 43.30684 | 63.72228 | 35974 ft | 479 kts | 332° |
| 2026-04-28 23:10 | 43.36783 | 63.68558 | 35979 ft | 479 kts | 332° |
| 2026-04-28 23:10 | 43.42844 | 63.64903 | 36007 ft | 479 kts | 332° |
| 2026-04-28 23:11 | 43.48942 | 63.61217 | 35982 ft | 479 kts | 332° |
| 2026-04-28 23:11 | 43.55035 | 63.57532 | 35984 ft | 478 kts | 332° |
| 2026-04-28 23:12 | 43.61125 | 63.53825 | 35993 ft | 479 kts | 332° |
| 2026-04-28 23:12 | 43.67171 | 63.50134 | 35991 ft | 478 kts | 332° |
| 2026-04-28 23:13 | 43.73261 | 63.46418 | 35988 ft | 478 kts | 332° |
| 2026-04-28 23:13 | 43.79348 | 63.42696 | 36004 ft | 478 kts | 332° |
| 2026-04-28 23:14 | 43.85432 | 63.38970 | 35992 ft | 478 kts | 332° |
| 2026-04-28 23:14 | 43.91508 | 63.35238 | 35993 ft | 478 kts | 332° |
| 2026-04-28 23:15 | 43.97546 | 63.31526 | 35996 ft | 478 kts | 332° |
| 2026-04-28 23:15 | 44.03615 | 63.27767 | 35996 ft | 478 kts | 332° |
| 2026-04-28 23:16 | 44.09681 | 63.24000 | 35999 ft | 478 kts | 332° |
| 2026-04-28 23:16 | 44.15757 | 63.20224 | 36008 ft | 478 kts | 332° |
| 2026-04-28 23:17 | 44.21778 | 63.16475 | 36008 ft | 477 kts | 332° |
| 2026-04-28 23:17 | 44.27837 | 63.12691 | 36000 ft | 477 kts | 332° |
| 2026-04-28 23:18 | 44.33896 | 63.08904 | 36009 ft | 477 kts | 332° |
| 2026-04-28 23:18 | 44.39957 | 63.05108 | 36006 ft | 477 kts | 332° |
| 2026-04-28 23:19 | 44.45966 | 63.01335 | 36010 ft | 477 kts | 331° |
| 2026-04-28 23:19 | 44.52022 | 62.97523 | 36016 ft | 477 kts | 331° |
| 2026-04-28 23:20 | 44.58070 | 62.93707 | 36015 ft | 477 kts | 331° |
| 2026-04-28 23:20 | 44.64121 | 62.89880 | 36014 ft | 477 kts | 331° |
| 2026-04-28 23:21 | 44.70169 | 62.86046 | 36013 ft | 477 kts | 330° |
| 2026-04-28 23:21 | 44.76170 | 62.82234 | 36015 ft | 476 kts | 330° |
| 2026-04-28 23:22 | 44.82208 | 62.78389 | 36018 ft | 476 kts | 330° |
| 2026-04-28 23:22 | 44.88250 | 62.74532 | 36026 ft | 476 kts | 330° |
| 2026-04-28 23:23 | 44.94273 | 62.70679 | 36023 ft | 475 kts | 330° |
| 2026-04-28 23:23 | 45.00259 | 62.66842 | 36023 ft | 475 kts | 330° |
| 2026-04-28 23:24 | 45.06282 | 62.62971 | 36039 ft | 476 kts | 330° |
| 2026-04-28 23:24 | 45.12304 | 62.59093 | 36023 ft | 475 kts | 330° |
| 2026-04-28 23:25 | 45.18324 | 62.55206 | 36027 ft | 476 kts | 330° |
| 2026-04-28 23:25 | 45.24306 | 62.51340 | 36038 ft | 476 kts | 330° |
| 2026-04-28 23:26 | 45.30318 | 62.47433 | 36029 ft | 475 kts | 330° |
| 2026-04-28 23:26 | 45.36327 | 62.43520 | 36031 ft | 475 kts | 330° |
| 2026-04-28 23:27 | 45.42334 | 62.39601 | 36049 ft | 475 kts | 330° |
| 2026-04-28 23:27 | 45.48345 | 62.35672 | 36037 ft | 475 kts | 330° |
| 2026-04-28 23:28 | 45.54310 | 62.31764 | 36039 ft | 475 kts | 330° |
| 2026-04-28 23:28 | 45.60314 | 62.27820 | 36039 ft | 475 kts | 330° |
| 2026-04-28 23:29 | 45.66328 | 62.23861 | 36042 ft | 477 kts | 329° |
| 2026-04-28 23:29 | 45.72367 | 62.19875 | 36042 ft | 478 kts | 329° |
| 2026-04-28 23:30 | 45.78365 | 62.15909 | 36042 ft | 478 kts | 329° |
| 2026-04-28 23:30 | 45.84407 | 62.11912 | 36045 ft | 479 kts | 330° |
| 2026-04-28 23:31 | 45.90562 | 62.08213 | 36045 ft | 481 kts | 332° |
| 2026-04-28 23:31 | 45.96775 | 62.04659 | 36047 ft | 481 kts | 333° |
| 2026-04-28 23:32 | 46.02972 | 62.01065 | 36058 ft | 480 kts | 332° |
| 2026-04-28 23:32 | 46.09110 | 61.97446 | 36053 ft | 480 kts | 332° |
| 2026-04-28 23:33 | 46.15281 | 61.93783 | 36058 ft | 480 kts | 332° |
| 2026-04-28 23:33 | 46.21453 | 61.90110 | 36055 ft | 480 kts | 332° |
| 2026-04-28 23:34 | 46.27624 | 61.86430 | 36056 ft | 480 kts | 332° |
| 2026-04-28 23:34 | 46.33753 | 61.82758 | 36056 ft | 480 kts | 332° |
| 2026-04-28 23:35 | 46.39916 | 61.79054 | 36064 ft | 480 kts | 331° |
| 2026-04-28 23:35 | 46.46081 | 61.75341 | 36064 ft | 480 kts | 331° |
| 2026-04-28 23:36 | 46.52243 | 61.71623 | 36064 ft | 480 kts | 331° |
| 2026-04-28 23:36 | 46.58409 | 61.67893 | 36067 ft | 480 kts | 331° |
| 2026-04-28 23:37 | 46.64526 | 61.64184 | 36077 ft | 480 kts | 331° |
| 2026-04-28 23:37 | 46.70684 | 61.60439 | 36067 ft | 480 kts | 331° |
| 2026-04-28 23:38 | 46.76845 | 61.56685 | 36065 ft | 480 kts | 331° |
| 2026-04-28 23:38 | 46.83007 | 61.52921 | 36071 ft | 480 kts | 331° |
| 2026-04-28 23:39 | 46.89130 | 61.49175 | 36073 ft | 481 kts | 331° |
| 2026-04-28 23:39 | 46.95294 | 61.45382 | 36079 ft | 480 kts | 331° |
| 2026-04-28 23:40 | 47.01445 | 61.41590 | 36084 ft | 480 kts | 331° |
| 2026-04-28 23:40 | 47.07601 | 61.37787 | 36083 ft | 480 kts | 331° |
| 2026-04-28 23:41 | 47.13719 | 61.33999 | 36089 ft | 480 kts | 331° |
| 2026-04-28 23:41 | 47.19874 | 61.30178 | 36094 ft | 481 kts | 331° |
| 2026-04-28 23:42 | 47.26039 | 61.26341 | 36095 ft | 481 kts | 331° |
| 2026-04-28 23:42 | 47.32210 | 61.22492 | 36093 ft | 481 kts | 331° |
| 2026-04-28 23:43 | 47.38331 | 61.18665 | 36112 ft | 482 kts | 331° |
| 2026-04-28 23:43 | 47.44505 | 61.14793 | 36099 ft | 482 kts | 331° |
| 2026-04-28 23:44 | 47.50677 | 61.10914 | 36115 ft | 482 kts | 331° |
| 2026-04-28 23:44 | 47.56849 | 61.07024 | 36099 ft | 482 kts | 331° |
| 2026-04-28 23:45 | 47.62984 | 61.03147 | 36115 ft | 483 kts | 331° |
| 2026-04-28 23:45 | 47.69169 | 60.99229 | 36113 ft | 484 kts | 331° |
| 2026-04-28 23:46 | 47.75356 | 60.95300 | 36114 ft | 484 kts | 331° |
| 2026-04-28 23:46 | 47.81541 | 60.91362 | 36121 ft | 484 kts | 331° |
| 2026-04-28 23:47 | 47.87684 | 60.87440 | 36117 ft | 483 kts | 331° |
| 2026-04-28 23:47 | 47.93863 | 60.83485 | 36122 ft | 483 kts | 331° |
| 2026-04-28 23:48 | 48.00039 | 60.79522 | 36134 ft | 483 kts | 331° |
| 2026-04-28 23:48 | 48.06223 | 60.75542 | 36127 ft | 484 kts | 331° |
| 2026-04-28 23:49 | 48.12411 | 60.71550 | 36129 ft | 485 kts | 331° |
| 2026-04-28 23:49 | 48.18561 | 60.67581 | 36161 ft | 485 kts | 332° |
| 2026-04-28 23:50 | 48.24758 | 60.63559 | 36137 ft | 486 kts | 332° |
| 2026-04-28 23:50 | 48.30971 | 60.59513 | 36141 ft | 487 kts | 332° |
| 2026-04-28 23:51 | 48.37186 | 60.55459 | 36140 ft | 487 kts | 332° |
| 2026-04-28 23:51 | 48.43355 | 60.51425 | 36145 ft | 487 kts | 332° |
| 2026-04-28 23:52 | 48.49575 | 60.47348 | 36150 ft | 487 kts | 332° |
| 2026-04-28 23:52 | 48.55789 | 60.43264 | 36150 ft | 487 kts | 332° |
| 2026-04-28 23:53 | 48.62006 | 60.39167 | 36160 ft | 487 kts | 332° |
| 2026-04-28 23:53 | 48.68183 | 60.35085 | 36153 ft | 488 kts | 332° |
| 2026-04-28 23:54 | 48.74399 | 60.30966 | 36154 ft | 488 kts | 332° |
| 2026-04-28 23:54 | 48.80615 | 60.26837 | 36153 ft | 488 kts | 332° |
| 2026-04-28 23:55 | 48.86832 | 60.22694 | 36155 ft | 488 kts | 332° |
| 2026-04-28 23:55 | 48.93013 | 60.18565 | 36165 ft | 489 kts | 332° |
| 2026-04-28 23:56 | 48.99234 | 60.14398 | 36167 ft | 488 kts | 332° |
| 2026-04-28 23:56 | 49.05451 | 60.10223 | 36160 ft | 488 kts | 332° |
| 2026-04-28 23:57 | 49.11673 | 60.06032 | 36180 ft | 489 kts | 332° |
| 2026-04-28 23:57 | 49.17853 | 60.01859 | 36161 ft | 489 kts | 332° |
| 2026-04-28 23:58 | 49.24074 | 59.97646 | 36175 ft | 489 kts | 332° |
| 2026-04-28 23:58 | 49.30300 | 59.93417 | 36171 ft | 490 kts | 332° |
| 2026-04-28 23:59 | 49.36486 | 59.89204 | 36173 ft | 490 kts | 332° |
| 2026-04-28 23:59 | 49.42710 | 59.84954 | 36175 ft | 490 kts | 332° |
| 2026-04-29 00:00 | 49.48938 | 59.80690 | 36182 ft | 490 kts | 331° |
| 2026-04-29 00:00 | 49.55172 | 59.76412 | 36181 ft | 491 kts | 332° |
| 2026-04-29 00:01 | 49.61368 | 59.72151 | 36181 ft | 491 kts | 331° |
| 2026-04-29 00:01 | 49.67598 | 59.67843 | 36189 ft | 491 kts | 331° |
| 2026-04-29 00:02 | 49.73829 | 59.63523 | 36181 ft | 491 kts | 331° |
| 2026-04-29 00:02 | 49.80065 | 59.59189 | 36181 ft | 491 kts | 331° |
| 2026-04-29 00:03 | 49.86259 | 59.54875 | 36181 ft | 491 kts | 331° |
| 2026-04-29 00:03 | 49.92488 | 59.50524 | 36184 ft | 491 kts | 331° |
| 2026-04-29 00:04 | 49.98714 | 59.46162 | 36179 ft | 491 kts | 331° |
| 2026-04-29 00:04 | 50.04942 | 59.41786 | 36181 ft | 491 kts | 331° |
| 2026-04-29 00:05 | 50.11123 | 59.37433 | 36187 ft | 491 kts | 330° |
| 2026-04-29 00:05 | 50.17349 | 59.33033 | 36181 ft | 492 kts | 330° |
| 2026-04-29 00:06 | 50.23579 | 59.28618 | 36181 ft | 492 kts | 330° |
| 2026-04-29 00:06 | 50.29809 | 59.24191 | 36181 ft | 492 kts | 330° |
| 2026-04-29 00:07 | 50.35990 | 59.19788 | 36186 ft | 492 kts | 330° |
| 2026-04-29 00:07 | 50.42224 | 59.15330 | 36185 ft | 493 kts | 330° |
| 2026-04-29 00:08 | 50.48464 | 59.10857 | 36186 ft | 493 kts | 330° |
| 2026-04-29 00:08 | 50.54693 | 59.06379 | 36190 ft | 493 kts | 329° |
| 2026-04-29 00:09 | 50.60888 | 59.01912 | 36180 ft | 493 kts | 329° |
| 2026-04-29 00:09 | 50.67126 | 58.97402 | 36182 ft | 493 kts | 329° |
| 2026-04-29 00:10 | 50.73362 | 58.92882 | 36180 ft | 493 kts | 329° |
| 2026-04-29 00:10 | 50.79588 | 58.88356 | 36184 ft | 494 kts | 329° |
| 2026-04-29 00:11 | 50.85837 | 58.83801 | 36183 ft | 494 kts | 329° |
| 2026-04-29 00:12 | 50.95149 | 58.76990 | 36185 ft | 494 kts | 329° |
| 2026-04-29 00:12 | 51.01387 | 58.72409 | 36184 ft | 494 kts | 328° |
| 2026-04-29 00:13 | 51.07630 | 58.67810 | 36182 ft | 495 kts | 328° |
| 2026-04-29 00:13 | 51.13835 | 58.63227 | 36184 ft | 495 kts | 328° |
| 2026-04-29 00:14 | 51.20073 | 58.58606 | 36199 ft | 495 kts | 328° |
| 2026-04-29 00:14 | 51.26318 | 58.53965 | 36187 ft | 496 kts | 328° |
| 2026-04-29 00:15 | 51.32572 | 58.49303 | 36185 ft | 496 kts | 328° |
| 2026-04-29 00:15 | 51.38818 | 58.44634 | 36184 ft | 496 kts | 328° |
| 2026-04-29 00:16 | 51.45027 | 58.39978 | 36187 ft | 496 kts | 328° |
| 2026-04-29 00:16 | 51.51281 | 58.35273 | 36186 ft | 497 kts | 328° |
| 2026-04-29 00:17 | 51.57649 | 58.30845 | 36192 ft | 501 kts | 332° |
| 2026-04-29 00:17 | 51.64194 | 58.26932 | 36228 ft | 502 kts | 333° |
| 2026-04-29 00:18 | 51.70689 | 58.23039 | 36187 ft | 501 kts | 332° |
| 2026-04-29 00:18 | 51.77204 | 58.19014 | 36186 ft | 501 kts | 332° |
| 2026-04-29 00:19 | 51.83697 | 58.14936 | 36188 ft | 501 kts | 332° |
| 2026-04-29 00:19 | 51.90190 | 58.10837 | 36203 ft | 500 kts | 332° |
| 2026-04-29 00:20 | 51.96636 | 58.06761 | 36189 ft | 501 kts | 332° |
| 2026-04-29 00:20 | 52.03123 | 58.02653 | 36174 ft | 500 kts | 332° |
| 2026-04-29 00:21 | 52.09617 | 57.98524 | 36192 ft | 501 kts | 332° |
| 2026-04-29 00:21 | 52.16110 | 57.94375 | 36188 ft | 501 kts | 332° |
| 2026-04-29 00:22 | 52.22604 | 57.90216 | 36193 ft | 501 kts | 332° |
| 2026-04-29 00:22 | 52.29053 | 57.86075 | 36191 ft | 501 kts | 332° |
| 2026-04-29 00:23 | 52.35543 | 57.81901 | 36197 ft | 502 kts | 332° |
| 2026-04-29 00:23 | 52.42033 | 57.77706 | 36185 ft | 502 kts | 332° |
| 2026-04-29 00:24 | 52.46036 | 57.75108 | 36181 ft | 501 kts | 332° |
| 2026-04-29 00:24 | 52.52478 | 57.70919 | 36181 ft | 501 kts | 332° |
| 2026-04-29 00:25 | 52.58965 | 57.66690 | 36209 ft | 502 kts | 332° |
| 2026-04-29 00:25 | 52.65456 | 57.62445 | 36183 ft | 502 kts | 332° |
| 2026-04-29 00:26 | 52.71954 | 57.58185 | 36182 ft | 503 kts | 332° |
| 2026-04-29 00:26 | 52.78404 | 57.53943 | 36185 ft | 503 kts | 332° |
| 2026-04-29 00:27 | 52.84895 | 57.49665 | 36186 ft | 502 kts | 332° |
| 2026-04-29 00:27 | 52.91396 | 57.45358 | 36185 ft | 503 kts | 331° |
| 2026-04-29 00:28 | 52.97889 | 57.41035 | 36185 ft | 503 kts | 331° |
| 2026-04-29 00:28 | 53.04334 | 57.36733 | 36179 ft | 503 kts | 331° |
| 2026-04-29 00:29 | 53.10824 | 57.32388 | 36177 ft | 503 kts | 331° |
| 2026-04-29 00:29 | 53.17319 | 57.28029 | 36174 ft | 503 kts | 331° |
| 2026-04-29 00:30 | 53.23810 | 57.23663 | 36174 ft | 503 kts | 331° |
| 2026-04-29 00:30 | 53.30255 | 57.19301 | 36197 ft | 503 kts | 331° |
| 2026-04-29 00:31 | 53.36746 | 57.14895 | 36165 ft | 503 kts | 331° |
| 2026-04-29 00:31 | 53.43242 | 57.10482 | 36160 ft | 504 kts | 331° |
| 2026-04-29 00:32 | 53.49731 | 57.06060 | 36162 ft | 504 kts | 331° |
| 2026-04-29 00:32 | 53.56223 | 57.01620 | 36173 ft | 504 kts | 331° |
| 2026-04-29 00:33 | 53.62680 | 56.97187 | 36156 ft | 505 kts | 331° |
| 2026-04-29 00:33 | 53.69190 | 56.92712 | 36144 ft | 505 kts | 331° |
| 2026-04-29 00:34 | 53.75693 | 56.88217 | 36140 ft | 505 kts | 331° |
| 2026-04-29 00:34 | 53.82194 | 56.83698 | 36132 ft | 505 kts | 330° |
| 2026-04-29 00:35 | 53.88666 | 56.79186 | 36133 ft | 507 kts | 330° |
| 2026-04-29 00:35 | 53.95184 | 56.74629 | 36132 ft | 507 kts | 330° |
| 2026-04-29 00:36 | 54.01707 | 56.70060 | 36122 ft | 507 kts | 330° |
| 2026-04-29 00:36 | 54.08226 | 56.65473 | 36118 ft | 507 kts | 330° |
| 2026-04-29 00:37 | 54.14707 | 56.60897 | 36118 ft | 508 kts | 330° |
| 2026-04-29 00:37 | 54.21236 | 56.56275 | 36114 ft | 508 kts | 330° |
| 2026-04-29 00:38 | 54.27761 | 56.51639 | 36151 ft | 508 kts | 330° |
| 2026-04-29 00:38 | 54.34282 | 56.46990 | 36113 ft | 508 kts | 330° |
| 2026-04-29 00:39 | 54.40759 | 56.42357 | 36110 ft | 508 kts | 330° |
| 2026-04-29 00:39 | 54.46908 | 56.36718 | 36109 ft | 496 kts | 320° |
| 2026-04-29 00:40 | 54.52646 | 56.30142 | 36108 ft | 495 kts | 318° |
| 2026-04-29 00:40 | 54.58311 | 56.23411 | 36103 ft | 495 kts | 318° |
| 2026-04-29 00:41 | 54.63973 | 56.16660 | 36085 ft | 495 kts | 318° |
| 2026-04-29 00:41 | 54.69605 | 56.09952 | 36085 ft | 495 kts | 318° |
| 2026-04-29 00:42 | 54.75270 | 56.03189 | 36099 ft | 495 kts | 318° |
| 2026-04-29 00:42 | 54.80929 | 55.96384 | 36087 ft | 495 kts | 318° |
| 2026-04-29 00:43 | 54.86588 | 55.89561 | 36092 ft | 495 kts | 318° |
| 2026-04-29 00:43 | 54.92210 | 55.82773 | 36084 ft | 495 kts | 318° |
| 2026-04-29 00:44 | 54.97863 | 55.75910 | 36097 ft | 496 kts | 318° |
| 2026-04-29 00:44 | 55.03522 | 55.69022 | 36079 ft | 497 kts | 318° |
| 2026-04-29 00:45 | 55.09148 | 55.62157 | 36073 ft | 497 kts | 318° |
| 2026-04-29 00:45 | 55.14808 | 55.55225 | 36073 ft | 497 kts | 318° |
| 2026-04-29 00:46 | 55.20459 | 55.48279 | 36082 ft | 497 kts | 318° |
| 2026-04-29 00:46 | 55.26121 | 55.41295 | 36067 ft | 498 kts | 318° |
| 2026-04-29 00:47 | 55.31785 | 55.34288 | 36060 ft | 498 kts | 317° |
| 2026-04-29 00:47 | 55.37410 | 55.27304 | 36053 ft | 498 kts | 317° |
| 2026-04-29 00:48 | 55.43070 | 55.20263 | 36061 ft | 499 kts | 317° |
| 2026-04-29 00:48 | 55.48736 | 55.13173 | 36045 ft | 500 kts | 317° |
| 2026-04-29 00:49 | 55.54402 | 55.06058 | 36034 ft | 500 kts | 317° |
| 2026-04-29 00:49 | 55.60025 | 54.98974 | 36034 ft | 500 kts | 317° |
| 2026-04-29 00:50 | 55.65689 | 54.91816 | 36036 ft | 500 kts | 317° |
| 2026-04-29 00:50 | 55.71311 | 54.84684 | 36029 ft | 501 kts | 317° |
| 2026-04-29 00:51 | 55.76973 | 54.77476 | 36018 ft | 501 kts | 317° |
| 2026-04-29 00:51 | 55.82587 | 54.70304 | 36013 ft | 501 kts | 317° |
| 2026-04-29 00:52 | 55.88240 | 54.63053 | 36017 ft | 500 kts | 317° |
| 2026-04-29 00:52 | 55.93890 | 54.55780 | 36004 ft | 501 kts | 317° |
| 2026-04-29 00:53 | 55.99534 | 54.48490 | 36000 ft | 501 kts | 317° |
| 2026-04-29 00:53 | 56.05176 | 54.41174 | 36003 ft | 501 kts | 317° |
| 2026-04-29 00:54 | 56.10771 | 54.33896 | 35990 ft | 501 kts | 317° |
| 2026-04-29 00:54 | 56.16550 | 54.26831 | 35990 ft | 504 kts | 320° |
| 2026-04-29 00:55 | 56.22417 | 54.19946 | 35985 ft | 504 kts | 320° |
| 2026-04-29 00:55 | 56.28270 | 54.13006 | 35977 ft | 504 kts | 320° |
| 2026-04-29 00:56 | 56.34062 | 54.06040 | 35983 ft | 504 kts | 320° |
| 2026-04-29 00:56 | 56.39890 | 53.98977 | 35968 ft | 505 kts | 319° |
| 2026-04-29 00:57 | 56.45729 | 53.91889 | 35957 ft | 505 kts | 319° |
| 2026-04-29 00:57 | 56.51556 | 53.84785 | 35958 ft | 505 kts | 319° |
| 2026-04-29 00:58 | 56.57337 | 53.77709 | 35959 ft | 505 kts | 320° |
| 2026-04-29 00:58 | 56.63159 | 53.70554 | 35950 ft | 506 kts | 320° |
| 2026-04-29 00:59 | 56.68982 | 53.63372 | 35950 ft | 505 kts | 320° |
| 2026-04-29 00:59 | 56.73814 | 53.57395 | 35941 ft | 505 kts | 319° |
| 2026-04-29 01:00 | 56.80565 | 53.49001 | 35947 ft | 504 kts | 319° |
| 2026-04-29 01:00 | 56.85612 | 53.40522 | 35943 ft | 485 kts | 305° |
| 2026-04-29 01:01 | 56.89290 | 53.32822 | 35936 ft | 483 kts | 304° |
| 2026-04-29 01:01 | 56.93607 | 53.23386 | 35928 ft | 484 kts | 303° |
| 2026-04-29 01:02 | 56.98609 | 53.12359 | 35938 ft | 485 kts | 303° |
| 2026-04-29 01:02 | 57.02932 | 53.02836 | 35921 ft | 486 kts | 303° |
| 2026-04-29 01:03 | 57.06535 | 52.94893 | 35913 ft | 487 kts | 303° |
| 2026-04-29 01:03 | 57.10879 | 52.85305 | 35912 ft | 488 kts | 303° |
| 2026-04-29 01:04 | 57.15918 | 52.74118 | 35904 ft | 489 kts | 303° |
| 2026-04-29 01:04 | 57.19555 | 52.66010 | 35911 ft | 490 kts | 304° |
| 2026-04-29 01:05 | 57.23878 | 52.56338 | 35896 ft | 493 kts | 304° |
| 2026-04-29 01:05 | 57.28235 | 52.46553 | 35897 ft | 493 kts | 303° |
| 2026-04-29 01:06 | 57.32591 | 52.36732 | 35892 ft | 494 kts | 303° |
| 2026-04-29 01:06 | 57.36972 | 52.26909 | 35906 ft | 497 kts | 307° |
| 2026-04-29 01:07 | 57.42339 | 52.18728 | 35883 ft | 512 kts | 326° |
| 2026-04-29 01:07 | 57.49031 | 52.13798 | 35875 ft | 522 kts | 338° |
| 2026-04-29 01:08 | 57.56036 | 52.10036 | 35874 ft | 525 kts | 340° |
| 2026-04-29 01:08 | 57.63078 | 52.06426 | 35903 ft | 525 kts | 340° |
| 2026-04-29 01:09 | 57.70106 | 52.02752 | 35854 ft | 524 kts | 340° |
| 2026-04-29 01:09 | 57.77075 | 51.99041 | 35864 ft | 524 kts | 340° |
| 2026-04-29 01:10 | 57.84085 | 51.95275 | 35860 ft | 524 kts | 340° |
| 2026-04-29 01:10 | 57.91092 | 51.91494 | 35845 ft | 524 kts | 340° |
| 2026-04-29 01:11 | 57.98104 | 51.87696 | 35847 ft | 524 kts | 340° |
| 2026-04-29 01:11 | 58.05059 | 51.83918 | 35837 ft | 524 kts | 340° |
| 2026-04-29 01:12 | 58.12065 | 51.80098 | 35841 ft | 524 kts | 340° |
| 2026-04-29 01:12 | 58.19066 | 51.76263 | 35831 ft | 524 kts | 340° |
| 2026-04-29 01:13 | 58.26063 | 51.72412 | 35828 ft | 523 kts | 340° |
| 2026-04-29 01:13 | 58.33007 | 51.68578 | 35824 ft | 523 kts | 340° |
| 2026-04-29 01:14 | 58.39980 | 51.64642 | 35810 ft | 521 kts | 336° |
| 2026-04-29 01:14 | 58.46496 | 51.58837 | 35822 ft | 516 kts | 328° |
| 2026-04-29 01:15 | 58.52812 | 51.52345 | 35819 ft | 515 kts | 327° |
| 2026-04-29 01:15 | 58.59051 | 51.45758 | 35813 ft | 515 kts | 327° |
| 2026-04-29 01:16 | 58.65330 | 51.39126 | 35807 ft | 516 kts | 327° |
| 2026-04-29 01:16 | 58.71622 | 51.32478 | 35795 ft | 516 kts | 327° |
| 2026-04-29 01:17 | 58.77916 | 51.25804 | 35791 ft | 516 kts | 328° |
| 2026-04-29 01:17 | 58.84204 | 51.19116 | 35783 ft | 516 kts | 327° |
| 2026-04-29 01:18 | 58.90446 | 51.12446 | 35783 ft | 516 kts | 327° |
| 2026-04-29 01:18 | 58.99860 | 51.02317 | 35775 ft | 516 kts | 327° |
| 2026-04-29 01:19 | 59.06130 | 50.95543 | 35766 ft | 515 kts | 328° |
| 2026-04-29 01:19 | 59.12386 | 50.88768 | 35766 ft | 515 kts | 328° |
| 2026-04-29 01:20 | 59.18598 | 50.82007 | 35766 ft | 515 kts | 328° |
| 2026-04-29 01:20 | 59.24844 | 50.75181 | 35755 ft | 515 kts | 328° |
| 2026-04-29 01:21 | 59.31065 | 50.68259 | 35753 ft | 514 kts | 327° |
| 2026-04-29 01:21 | 59.37239 | 50.61183 | 35744 ft | 514 kts | 326° |
| 2026-04-29 01:22 | 59.43406 | 50.54089 | 35735 ft | 514 kts | 327° |
| 2026-04-29 01:22 | 59.49541 | 50.47033 | 35736 ft | 514 kts | 327° |
| 2026-04-29 01:23 | 59.55713 | 50.39929 | 35729 ft | 514 kts | 327° |
| 2026-04-29 01:23 | 59.61878 | 50.32802 | 35724 ft | 513 kts | 327° |
| 2026-04-29 01:24 | 59.68007 | 50.25568 | 35711 ft | 513 kts | 326° |
| 2026-04-29 01:24 | 59.74073 | 50.18306 | 35714 ft | 513 kts | 326° |
| 2026-04-29 01:25 | 59.80177 | 50.10985 | 35717 ft | 513 kts | 326° |
| 2026-04-29 01:25 | 59.86283 | 50.03650 | 35697 ft | 512 kts | 326° |
| 2026-04-29 01:26 | 59.92392 | 49.96336 | 35697 ft | 512 kts | 327° |
| 2026-04-29 01:26 | 59.98460 | 49.89081 | 35688 ft | 512 kts | 327° |
| 2026-04-29 01:27 | 60.04566 | 49.81749 | 35689 ft | 512 kts | 327° |
| 2026-04-29 01:27 | 60.10590 | 49.74158 | 35683 ft | 511 kts | 324° |
| 2026-04-29 01:28 | 60.16501 | 49.66248 | 35677 ft | 511 kts | 324° |
| 2026-04-29 01:28 | 60.22413 | 49.58325 | 35677 ft | 511 kts | 324° |
| 2026-04-29 01:29 | 60.28297 | 49.50487 | 35672 ft | 511 kts | 324° |
| 2026-04-29 01:29 | 60.34223 | 49.42593 | 35673 ft | 510 kts | 325° |
| 2026-04-29 01:30 | 60.40138 | 49.34683 | 35667 ft | 510 kts | 325° |
| 2026-04-29 01:30 | 60.46045 | 49.26746 | 35667 ft | 509 kts | 325° |
| 2026-04-29 01:31 | 60.51941 | 49.18785 | 35661 ft | 509 kts | 324° |
| 2026-04-29 01:31 | 60.57798 | 49.10841 | 35664 ft | 509 kts | 325° |
| 2026-04-29 01:32 | 60.63678 | 49.02831 | 35657 ft | 508 kts | 325° |
| 2026-04-29 01:32 | 60.69552 | 48.94794 | 35651 ft | 508 kts | 324° |
| 2026-04-29 01:33 | 60.75416 | 48.86733 | 35654 ft | 508 kts | 324° |
| 2026-04-29 01:33 | 60.81283 | 48.78634 | 35651 ft | 508 kts | 324° |
| 2026-04-29 01:34 | 60.87097 | 48.70570 | 35649 ft | 508 kts | 324° |
| 2026-04-29 01:34 | 60.92941 | 48.62430 | 35644 ft | 508 kts | 324° |
| 2026-04-29 01:35 | 60.98776 | 48.54226 | 35640 ft | 508 kts | 324° |
| 2026-04-29 01:35 | 61.04615 | 48.46022 | 35643 ft | 508 kts | 324° |
| 2026-04-29 01:36 | 61.10450 | 48.37804 | 35637 ft | 507 kts | 324° |
| 2026-04-29 01:36 | 61.16241 | 48.29613 | 35635 ft | 508 kts | 324° |
| 2026-04-29 01:37 | 61.22064 | 48.21345 | 35638 ft | 508 kts | 324° |
| 2026-04-29 01:37 | 61.27892 | 48.13037 | 35639 ft | 508 kts | 324° |
| 2026-04-29 01:38 | 61.33707 | 48.04699 | 35646 ft | 508 kts | 324° |
| 2026-04-29 01:38 | 61.39475 | 47.96393 | 35636 ft | 507 kts | 324° |
| 2026-04-29 01:39 | 61.45275 | 47.88006 | 35632 ft | 507 kts | 324° |
| 2026-04-29 01:39 | 61.51067 | 47.79594 | 35632 ft | 507 kts | 324° |
| 2026-04-29 01:40 | 61.56856 | 47.71145 | 35632 ft | 507 kts | 324° |
| 2026-04-29 01:40 | 61.62598 | 47.62727 | 35632 ft | 506 kts | 324° |
| 2026-04-29 01:41 | 61.68367 | 47.54230 | 35633 ft | 506 kts | 324° |
| 2026-04-29 01:41 | 61.74130 | 47.45702 | 35632 ft | 506 kts | 324° |
| 2026-04-29 01:42 | 61.79887 | 47.37146 | 35634 ft | 506 kts | 324° |
| 2026-04-29 01:42 | 61.85642 | 47.28571 | 35634 ft | 506 kts | 324° |
| 2026-04-29 01:43 | 61.91353 | 47.20013 | 35630 ft | 506 kts | 324° |
| 2026-04-29 01:43 | 61.97097 | 47.11372 | 35631 ft | 506 kts | 324° |
| 2026-04-29 01:44 | 62.02836 | 47.02702 | 35633 ft | 506 kts | 324° |
| 2026-04-29 01:44 | 62.08567 | 46.94005 | 35633 ft | 506 kts | 324° |
| 2026-04-29 01:45 | 62.14296 | 46.85268 | 35634 ft | 505 kts | 324° |
| 2026-04-29 01:45 | 62.19971 | 46.76574 | 35634 ft | 505 kts | 324° |
| 2026-04-29 01:46 | 62.25677 | 46.67790 | 35630 ft | 505 kts | 324° |
| 2026-04-29 01:46 | 62.31376 | 46.58976 | 35631 ft | 505 kts | 323° |
| 2026-04-29 01:47 | 62.37069 | 46.50129 | 35636 ft | 505 kts | 323° |
| 2026-04-29 01:47 | 62.42718 | 46.41307 | 35634 ft | 504 kts | 323° |
| 2026-04-29 01:48 | 62.48396 | 46.32398 | 35634 ft | 505 kts | 323° |
| 2026-04-29 01:48 | 62.54074 | 46.23447 | 35633 ft | 505 kts | 323° |
| 2026-04-29 01:49 | 62.59743 | 46.14453 | 35632 ft | 505 kts | 323° |
| 2026-04-29 01:49 | 62.65279 | 46.05101 | 35865 ft | 502 kts | 321° |
| 2026-04-29 01:50 | 62.67960 | 46.00437 | 36150 ft | 499 kts | 321° |
| 2026-04-29 01:50 | 62.70672 | 45.95712 | 36321 ft | 498 kts | 321° |
| 2026-04-29 01:50 | 62.73377 | 45.91004 | 36466 ft | 499 kts | 321° |
| 2026-04-29 01:50 | 62.76096 | 45.86286 | 36599 ft | 499 kts | 321° |
| 2026-04-29 01:51 | 62.78811 | 45.81579 | 36725 ft | 499 kts | 321° |
| 2026-04-29 01:51 | 62.81527 | 45.76869 | 36851 ft | 499 kts | 321° |
| 2026-04-29 01:51 | 62.84247 | 45.72146 | 36968 ft | 499 kts | 321° |
| 2026-04-29 01:51 | 62.86964 | 45.67419 | 37087 ft | 499 kts | 321° |
| 2026-04-29 01:52 | 62.89677 | 45.62686 | 37223 ft | 498 kts | 321° |
| 2026-04-29 01:52 | 62.92352 | 45.58008 | 37352 ft | 498 kts | 321° |
| 2026-04-29 01:52 | 62.95059 | 45.53260 | 37458 ft | 498 kts | 321° |
| 2026-04-29 01:52 | 62.97768 | 45.48499 | 37566 ft | 498 kts | 321° |
| 2026-04-29 01:53 | 63.03121 | 45.39053 | 37644 ft | 483 kts | 321° |
| 2026-04-29 01:53 | 63.08326 | 45.29825 | 37638 ft | 482 kts | 321° |
| 2026-04-29 01:54 | 63.13538 | 45.20538 | 37645 ft | 487 kts | 321° |
| 2026-04-29 01:54 | 63.18832 | 45.11061 | 37649 ft | 492 kts | 321° |
| 2026-04-29 01:55 | 63.24173 | 45.01453 | 37649 ft | 497 kts | 320° |
| 2026-04-29 01:55 | 63.29556 | 44.91724 | 37649 ft | 501 kts | 320° |
| 2026-04-29 01:56 | 63.34982 | 44.81868 | 37651 ft | 505 kts | 320° |
| 2026-04-29 01:56 | 63.40413 | 44.71984 | 37648 ft | 504 kts | 321° |
| 2026-04-29 01:57 | 63.45796 | 44.62134 | 37659 ft | 503 kts | 321° |
| 2026-04-29 01:57 | 63.51202 | 44.52192 | 37655 ft | 503 kts | 320° |
| 2026-04-29 01:58 | 63.56596 | 44.42220 | 37662 ft | 503 kts | 320° |
| 2026-04-29 01:58 | 63.61988 | 44.32205 | 37659 ft | 503 kts | 320° |
| 2026-04-29 01:59 | 63.67331 | 44.22234 | 37663 ft | 502 kts | 321° |
| 2026-04-29 01:59 | 63.72701 | 44.12191 | 37662 ft | 501 kts | 320° |
| 2026-04-29 02:00 | 63.78058 | 44.02108 | 37666 ft | 501 kts | 320° |
| 2026-04-29 02:00 | 63.83410 | 43.91985 | 37675 ft | 502 kts | 320° |
| 2026-04-29 02:01 | 63.88758 | 43.81821 | 37672 ft | 501 kts | 320° |
| 2026-04-29 02:01 | 63.94047 | 43.71717 | 37678 ft | 500 kts | 320° |
| 2026-04-29 02:02 | 63.99358 | 43.61518 | 37679 ft | 500 kts | 320° |
| 2026-04-29 02:02 | 64.04689 | 43.51229 | 37685 ft | 503 kts | 320° |
| 2026-04-29 02:03 | 64.10026 | 43.40875 | 37687 ft | 503 kts | 320° |
| 2026-04-29 02:03 | 64.15317 | 43.30560 | 37695 ft | 501 kts | 320° |
| 2026-04-29 02:04 | 64.20610 | 43.20227 | 37697 ft | 499 kts | 320° |
| 2026-04-29 02:04 | 64.25888 | 43.09868 | 37696 ft | 500 kts | 320° |
| 2026-04-29 02:05 | 64.31169 | 42.99448 | 37690 ft | 499 kts | 320° |
| 2026-04-29 02:05 | 64.36435 | 42.89003 | 37700 ft | 500 kts | 320° |
| 2026-04-29 02:06 | 64.41671 | 42.78565 | 37703 ft | 501 kts | 319° |
| 2026-04-29 02:06 | 64.46929 | 42.68021 | 37702 ft | 500 kts | 320° |
| 2026-04-29 02:07 | 64.52179 | 42.57453 | 37715 ft | 500 kts | 319° |
| 2026-04-29 02:07 | 64.57421 | 42.46845 | 37712 ft | 499 kts | 319° |
| 2026-04-29 02:08 | 64.62646 | 42.36213 | 37720 ft | 499 kts | 319° |
| 2026-04-29 02:08 | 64.67830 | 42.25607 | 37723 ft | 499 kts | 319° |
| 2026-04-29 02:09 | 64.73048 | 42.14876 | 37730 ft | 499 kts | 319° |
| 2026-04-29 02:09 | 64.78252 | 42.04113 | 37731 ft | 500 kts | 319° |
| 2026-04-29 02:10 | 64.83437 | 41.93260 | 37742 ft | 500 kts | 317° |
| 2026-04-29 02:10 | 64.88429 | 41.82027 | 37739 ft | 499 kts | 317° |
| 2026-04-29 02:11 | 64.93392 | 41.70613 | 37751 ft | 498 kts | 317° |
| 2026-04-29 02:11 | 64.98398 | 41.59320 | 37750 ft | 497 kts | 320° |
| 2026-04-29 02:12 | 65.03640 | 41.48732 | 37760 ft | 496 kts | 321° |
| 2026-04-29 02:12 | 65.08945 | 41.38235 | 37760 ft | 497 kts | 321° |
| 2026-04-29 02:13 | 65.14177 | 41.27669 | 37769 ft | 496 kts | 321° |
| 2026-04-29 02:13 | 65.19392 | 41.16962 | 37777 ft | 495 kts | 320° |
| 2026-04-29 02:14 | 65.24608 | 41.06165 | 37789 ft | 497 kts | 320° |
| 2026-04-29 02:14 | 65.29815 | 40.95299 | 37786 ft | 497 kts | 320° |
| 2026-04-29 02:15 | 65.35002 | 40.84416 | 37808 ft | 495 kts | 320° |
| 2026-04-29 02:15 | 65.40139 | 40.73582 | 37810 ft | 495 kts | 321° |
| 2026-04-29 02:16 | 65.45287 | 40.62676 | 37817 ft | 493 kts | 320° |
| 2026-04-29 02:16 | 65.50432 | 40.51715 | 37813 ft | 494 kts | 321° |
| 2026-04-29 02:17 | 65.55575 | 40.40702 | 37837 ft | 495 kts | 320° |
| 2026-04-29 02:17 | 65.60692 | 40.29682 | 37830 ft | 496 kts | 321° |
| 2026-04-29 02:18 | 65.65791 | 40.18489 | 37841 ft | 495 kts | 316° |
| 2026-04-29 02:18 | 65.69876 | 40.05033 | 37857 ft | 499 kts | 301° |
| 2026-04-29 02:19 | 65.73056 | 39.90009 | 37853 ft | 501 kts | 299° |
| 2026-04-29 02:19 | 65.76070 | 39.74720 | 37869 ft | 501 kts | 297° |
| 2026-04-29 02:20 | 65.79037 | 39.59491 | 37857 ft | 501 kts | 298° |
| 2026-04-29 02:20 | 65.82028 | 39.44131 | 37887 ft | 501 kts | 298° |
| 2026-04-29 02:21 | 65.85008 | 39.28819 | 37888 ft | 499 kts | 297° |
| 2026-04-29 02:21 | 65.87913 | 39.13408 | 37898 ft | 499 kts | 297° |
| 2026-04-29 02:22 | 65.90754 | 38.98047 | 37896 ft | 499 kts | 296° |
| 2026-04-29 02:22 | 65.93609 | 38.82561 | 37892 ft | 499 kts | 296° |
| 2026-04-29 02:23 | 65.96458 | 38.67033 | 37908 ft | 499 kts | 296° |
| 2026-04-29 02:23 | 65.99290 | 38.51491 | 37908 ft | 499 kts | 296° |
| 2026-04-29 02:24 | 66.02122 | 38.35925 | 37922 ft | 499 kts | 296° |
| 2026-04-29 02:25 | 66.06342 | 38.12640 | 37933 ft | 499 kts | 296° |
| 2026-04-29 02:25 | 66.09144 | 37.97014 | 37930 ft | 499 kts | 296° |
| 2026-04-29 02:26 | 66.11929 | 37.81361 | 37948 ft | 498 kts | 296° |
| 2026-04-29 02:26 | 66.14698 | 37.65661 | 37950 ft | 498 kts | 295° |
| 2026-04-29 02:27 | 66.17434 | 37.50032 | 37963 ft | 499 kts | 295° |
| 2026-04-29 02:27 | 66.20169 | 37.34282 | 37965 ft | 499 kts | 295° |
| 2026-04-29 02:28 | 66.22894 | 37.18467 | 37961 ft | 498 kts | 295° |
| 2026-04-29 02:28 | 66.25594 | 37.02663 | 37971 ft | 497 kts | 295° |
| 2026-04-29 02:29 | 66.28468 | 36.87213 | 37974 ft | 495 kts | 303° |
| 2026-04-29 02:29 | 66.32433 | 36.73323 | 37971 ft | 492 kts | 309° |
| 2026-04-29 02:30 | 66.36631 | 36.59844 | 37981 ft | 492 kts | 310° |
| 2026-04-29 02:30 | 66.40856 | 36.46404 | 37982 ft | 492 kts | 310° |
| 2026-04-29 02:31 | 66.45059 | 36.32895 | 37991 ft | 492 kts | 309° |
| 2026-04-29 02:31 | 66.49208 | 36.19396 | 37991 ft | 493 kts | 309° |
| 2026-04-29 02:32 | 66.53315 | 36.05649 | 37998 ft | 493 kts | 308° |
| 2026-04-29 02:32 | 66.57403 | 35.91812 | 37998 ft | 493 kts | 308° |
| 2026-04-29 02:33 | 66.61482 | 35.77969 | 38007 ft | 492 kts | 308° |
| 2026-04-29 02:33 | 66.65519 | 35.64209 | 38012 ft | 491 kts | 308° |
| 2026-04-29 02:34 | 66.69569 | 35.50334 | 38026 ft | 491 kts | 308° |
| 2026-04-29 02:34 | 66.73604 | 35.36419 | 38023 ft | 491 kts | 308° |
| 2026-04-29 02:35 | 66.77627 | 35.22456 | 38034 ft | 491 kts | 308° |
| 2026-04-29 02:35 | 66.81643 | 35.08428 | 38027 ft | 491 kts | 308° |
| 2026-04-29 02:36 | 66.85634 | 34.94397 | 38047 ft | 490 kts | 308° |
| 2026-04-29 02:36 | 66.89583 | 34.80425 | 38045 ft | 490 kts | 308° |
| 2026-04-29 02:37 | 66.93549 | 34.66306 | 38059 ft | 490 kts | 308° |
| 2026-04-29 02:37 | 66.97501 | 34.52144 | 38059 ft | 490 kts | 307° |
| 2026-04-29 02:38 | 67.01442 | 34.37931 | 38063 ft | 490 kts | 307° |
| 2026-04-29 02:38 | 67.05344 | 34.23764 | 38067 ft | 490 kts | 307° |
| 2026-04-29 02:39 | 67.09264 | 34.09446 | 38072 ft | 490 kts | 307° |
| 2026-04-29 02:39 | 67.13174 | 33.95094 | 38072 ft | 490 kts | 307° |
| 2026-04-29 02:40 | 67.17178 | 33.80896 | 38086 ft | 490 kts | 308° |
| 2026-04-29 02:40 | 67.21180 | 33.66829 | 38079 ft | 490 kts | 308° |
| 2026-04-29 02:41 | 67.25171 | 33.52637 | 38103 ft | 488 kts | 308° |
| 2026-04-29 02:41 | 67.29136 | 33.38375 | 38103 ft | 488 kts | 308° |
| 2026-04-29 02:42 | 67.33081 | 33.24074 | 38119 ft | 488 kts | 308° |
| 2026-04-29 02:42 | 67.37013 | 33.09727 | 38111 ft | 488 kts | 308° |
| 2026-04-29 02:43 | 67.40935 | 32.95325 | 38118 ft | 488 kts | 308° |
| 2026-04-29 02:43 | 67.44811 | 32.80999 | 38130 ft | 487 kts | 307° |
| 2026-04-29 02:44 | 67.48690 | 32.66545 | 38142 ft | 487 kts | 307° |
| 2026-04-29 02:44 | 67.52536 | 32.51995 | 38147 ft | 487 kts | 307° |
| 2026-04-29 02:45 | 67.56368 | 32.37394 | 38145 ft | 487 kts | 307° |
| 2026-04-29 02:45 | 67.60167 | 32.22848 | 38130 ft | 487 kts | 307° |
| 2026-04-29 02:46 | 67.63977 | 32.08174 | 38170 ft | 486 kts | 307° |
| 2026-04-29 02:46 | 67.67768 | 31.93473 | 38166 ft | 486 kts | 307° |
| 2026-04-29 02:47 | 67.71545 | 31.78733 | 38179 ft | 486 kts | 306° |
| 2026-04-29 02:47 | 67.75283 | 31.64043 | 38181 ft | 486 kts | 306° |
| 2026-04-29 02:48 | 67.79035 | 31.49195 | 38165 ft | 486 kts | 306° |
| 2026-04-29 02:48 | 67.82771 | 31.34313 | 38191 ft | 485 kts | 306° |
| 2026-04-29 02:49 | 67.86484 | 31.19416 | 38193 ft | 484 kts | 306° |
| 2026-04-29 02:49 | 67.90184 | 31.04477 | 38204 ft | 485 kts | 306° |
| 2026-04-29 02:50 | 67.93846 | 30.89587 | 38202 ft | 485 kts | 306° |
| 2026-04-29 02:50 | 67.97520 | 30.74541 | 38214 ft | 485 kts | 306° |
| 2026-04-29 02:51 | 68.01183 | 30.59444 | 38214 ft | 485 kts | 306° |
| 2026-04-29 02:51 | 68.04828 | 30.44310 | 38221 ft | 484 kts | 306° |
| 2026-04-29 02:52 | 68.08459 | 30.29130 | 38222 ft | 484 kts | 306° |
| 2026-04-29 02:52 | 68.12053 | 30.14004 | 38236 ft | 485 kts | 305° |
| 2026-04-29 02:53 | 68.15655 | 29.98732 | 38235 ft | 485 kts | 305° |
| 2026-04-29 02:53 | 68.19241 | 29.83417 | 38247 ft | 483 kts | 305° |
| 2026-04-29 02:54 | 68.22794 | 29.68136 | 38248 ft | 481 kts | 305° |
| 2026-04-29 02:54 | 68.26306 | 29.52932 | 38248 ft | 481 kts | 305° |
| 2026-04-29 02:55 | 68.29829 | 29.37574 | 38247 ft | 481 kts | 305° |
| 2026-04-29 02:55 | 68.33334 | 29.22181 | 38253 ft | 481 kts | 305° |
| 2026-04-29 02:56 | 68.36828 | 29.06730 | 38255 ft | 481 kts | 305° |
| 2026-04-29 02:56 | 68.40306 | 28.91232 | 38265 ft | 481 kts | 304° |
| 2026-04-29 02:57 | 68.43749 | 28.75785 | 38263 ft | 481 kts | 304° |
| 2026-04-29 02:57 | 68.47200 | 28.60190 | 38258 ft | 481 kts | 304° |
| 2026-04-29 02:58 | 68.50635 | 28.44553 | 38271 ft | 481 kts | 304° |
| 2026-04-29 02:58 | 68.53960 | 28.28671 | 38265 ft | 482 kts | 302° |
| 2026-04-29 02:59 | 68.57175 | 28.12683 | 38279 ft | 479 kts | 302° |
| 2026-04-29 02:59 | 68.60358 | 27.96804 | 38274 ft | 479 kts | 302° |
| 2026-04-29 03:00 | 68.63562 | 27.80818 | 38269 ft | 479 kts | 302° |
| 2026-04-29 03:00 | 68.66762 | 27.64774 | 38266 ft | 479 kts | 302° |
| 2026-04-29 03:01 | 68.69944 | 27.48697 | 38229 ft | 479 kts | 302° |
| 2026-04-29 03:01 | 68.73087 | 27.32687 | 38270 ft | 477 kts | 302° |
| 2026-04-29 03:02 | 68.76226 | 27.16577 | 38298 ft | 477 kts | 302° |
| 2026-04-29 03:02 | 68.79347 | 27.00431 | 38298 ft | 477 kts | 302° |
| 2026-04-29 03:03 | 68.82456 | 26.84229 | 38304 ft | 477 kts | 302° |
| 2026-04-29 03:03 | 68.85527 | 26.68099 | 38303 ft | 477 kts | 301° |
| 2026-04-29 03:04 | 68.88601 | 26.51823 | 38313 ft | 476 kts | 301° |
| 2026-04-29 03:04 | 68.91651 | 26.35547 | 38314 ft | 475 kts | 301° |
| 2026-04-29 03:05 | 68.94679 | 26.19261 | 38320 ft | 475 kts | 301° |
| 2026-04-29 03:05 | 68.97696 | 26.02907 | 38319 ft | 475 kts | 301° |
| 2026-04-29 03:06 | 69.00676 | 25.86629 | 38323 ft | 475 kts | 301° |
| 2026-04-29 03:06 | 69.03663 | 25.70178 | 38311 ft | 475 kts | 301° |
| 2026-04-29 03:07 | 69.06624 | 25.53734 | 38315 ft | 473 kts | 301° |
| 2026-04-29 03:07 | 69.09564 | 25.37279 | 38322 ft | 473 kts | 300° |
| 2026-04-29 03:08 | 69.12472 | 25.20880 | 38333 ft | 473 kts | 300° |
| 2026-04-29 03:08 | 69.15383 | 25.04322 | 38313 ft | 473 kts | 300° |
| 2026-04-29 03:09 | 69.18277 | 24.87730 | 38278 ft | 473 kts | 300° |
| 2026-04-29 03:09 | 69.21142 | 24.71159 | 38322 ft | 469 kts | 300° |
| 2026-04-29 03:10 | 69.23979 | 24.54621 | 38323 ft | 468 kts | 300° |
| 2026-04-29 03:10 | 69.26778 | 24.38175 | 38319 ft | 468 kts | 299° |
| 2026-04-29 03:11 | 69.29581 | 24.21572 | 38320 ft | 468 kts | 299° |
| 2026-04-29 03:11 | 69.32367 | 24.04932 | 38322 ft | 468 kts | 299° |
| 2026-04-29 03:12 | 69.35137 | 23.88239 | 38320 ft | 468 kts | 298° |
| 2026-04-29 03:12 | 69.37867 | 23.71649 | 38325 ft | 467 kts | 298° |
| 2026-04-29 03:13 | 69.40599 | 23.54916 | 38327 ft | 467 kts | 298° |
| 2026-04-29 03:13 | 69.43317 | 23.38127 | 38327 ft | 467 kts | 298° |
| 2026-04-29 03:14 | 69.46017 | 23.21301 | 38327 ft | 467 kts | 298° |
| 2026-04-29 03:14 | 69.48684 | 23.04546 | 38302 ft | 467 kts | 298° |
| 2026-04-29 03:15 | 69.51346 | 22.87672 | 38326 ft | 466 kts | 297° |
| 2026-04-29 03:15 | 69.53985 | 22.70795 | 38325 ft | 465 kts | 297° |
| 2026-04-29 03:16 | 69.56609 | 22.53881 | 38318 ft | 465 kts | 297° |
| 2026-04-29 03:16 | 69.58594 | 22.39524 | 38320 ft | 468 kts | 293° |
| 2026-04-29 03:17 | 69.61017 | 22.18972 | 38317 ft | 468 kts | 292° |
| 2026-04-29 03:17 | 69.62756 | 22.04150 | 38311 ft | 467 kts | 292° |
| 2026-04-29 03:18 | 69.64847 | 21.86648 | 38312 ft | 466 kts | 292° |
| 2026-04-29 03:18 | 69.66957 | 21.69063 | 38313 ft | 466 kts | 292° |
| 2026-04-29 03:19 | 69.69395 | 21.48544 | 38273 ft | 466 kts | 292° |
| 2026-04-29 03:19 | 69.71123 | 21.33836 | 38276 ft | 466 kts | 292° |
| 2026-04-29 03:20 | 69.73183 | 21.16116 | 38266 ft | 466 kts | 292° |
| 2026-04-29 03:20 | 69.75223 | 20.98375 | 38265 ft | 465 kts | 291° |
| 2026-04-29 03:21 | 69.77242 | 20.80627 | 38267 ft | 465 kts | 291° |
| 2026-04-29 03:21 | 69.79241 | 20.62862 | 38268 ft | 465 kts | 291° |
| 2026-04-29 03:22 | 69.81209 | 20.45189 | 38291 ft | 465 kts | 291° |
| 2026-04-29 03:22 | 69.83173 | 20.27341 | 38283 ft | 465 kts | 291° |
| 2026-04-29 03:23 | 69.85121 | 20.09450 | 38284 ft | 465 kts | 291° |
| 2026-04-29 03:23 | 69.87051 | 19.91544 | 38277 ft | 465 kts | 291° |
| 2026-04-29 03:24 | 69.88951 | 19.73710 | 38278 ft | 465 kts | 290° |
| 2026-04-29 03:24 | 69.90845 | 19.55728 | 38271 ft | 465 kts | 290° |
| 2026-04-29 03:25 | 69.92720 | 19.37711 | 38262 ft | 465 kts | 290° |
| 2026-04-29 03:25 | 69.94577 | 19.19651 | 38265 ft | 465 kts | 290° |
| 2026-04-29 03:26 | 69.96412 | 19.01612 | 38265 ft | 463 kts | 289° |
| 2026-04-29 03:26 | 69.98212 | 18.83708 | 38263 ft | 463 kts | 289° |
| 2026-04-29 03:27 | 70.00005 | 18.65657 | 38259 ft | 463 kts | 289° |
| 2026-04-29 03:27 | 70.01779 | 18.47589 | 38260 ft | 463 kts | 289° |
| 2026-04-29 03:28 | 70.03535 | 18.29482 | 38248 ft | 463 kts | 289° |
| 2026-04-29 03:28 | 70.05261 | 18.11461 | 38250 ft | 463 kts | 288° |
| 2026-04-29 03:29 | 70.06977 | 17.93328 | 38246 ft | 461 kts | 288° |
| 2026-04-29 03:29 | 70.08670 | 17.75206 | 38245 ft | 461 kts | 288° |
| 2026-04-29 03:30 | 70.10347 | 17.57040 | 38234 ft | 461 kts | 288° |
| 2026-04-29 03:30 | 70.12006 | 17.38845 | 38237 ft | 461 kts | 288° |
| 2026-04-29 03:31 | 70.14448 | 17.11617 | 38217 ft | 461 kts | 287° |
| 2026-04-29 03:31 | 70.16060 | 16.93347 | 38223 ft | 461 kts | 287° |
| 2026-04-29 03:32 | 70.17654 | 16.75046 | 38216 ft | 461 kts | 287° |
| 2026-04-29 03:32 | 70.19219 | 16.56835 | 38217 ft | 461 kts | 287° |
| 2026-04-29 03:33 | 70.20775 | 16.38482 | 38216 ft | 462 kts | 287° |
| 2026-04-29 03:33 | 70.22350 | 16.20108 | 38204 ft | 461 kts | 288° |
| 2026-04-29 03:34 | 70.24095 | 16.01899 | 38206 ft | 460 kts | 288° |
| 2026-04-29 03:34 | 70.25839 | 15.83875 | 38193 ft | 459 kts | 288° |
| 2026-04-29 03:35 | 70.27550 | 15.65675 | 38193 ft | 459 kts | 288° |
| 2026-04-29 03:35 | 70.29228 | 15.47406 | 38177 ft | 459 kts | 288° |
| 2026-04-29 03:36 | 70.30880 | 15.29130 | 38178 ft | 459 kts | 287° |
| 2026-04-29 03:36 | 70.32518 | 15.10794 | 38157 ft | 459 kts | 287° |
| 2026-04-29 03:37 | 70.34119 | 14.92638 | 38171 ft | 457 kts | 287° |
| 2026-04-29 03:37 | 70.35707 | 14.74390 | 38166 ft | 456 kts | 286° |
| 2026-04-29 03:38 | 70.37275 | 14.56144 | 38147 ft | 456 kts | 286° |
| 2026-04-29 03:38 | 70.38826 | 14.37851 | 38152 ft | 456 kts | 286° |
| 2026-04-29 03:39 | 70.40349 | 14.19655 | 38133 ft | 456 kts | 286° |
| 2026-04-29 03:39 | 70.41865 | 14.01296 | 38128 ft | 456 kts | 285° |
| 2026-04-29 03:40 | 70.43361 | 13.82926 | 38114 ft | 456 kts | 285° |
| 2026-04-29 03:40 | 70.44838 | 13.64509 | 38108 ft | 456 kts | 285° |
| 2026-04-29 03:41 | 70.46286 | 13.46203 | 38100 ft | 456 kts | 285° |
| 2026-04-29 03:41 | 70.47726 | 13.27731 | 38101 ft | 456 kts | 284° |
| 2026-04-29 03:42 | 70.49148 | 13.09243 | 38099 ft | 456 kts | 284° |
| 2026-04-29 03:42 | 70.50552 | 12.90739 | 38080 ft | 456 kts | 284° |
| 2026-04-29 03:43 | 70.51923 | 12.72359 | 38083 ft | 455 kts | 284° |
| 2026-04-29 03:43 | 70.53284 | 12.53843 | 38067 ft | 455 kts | 283° |
| 2026-04-29 03:44 | 70.54626 | 12.35301 | 38067 ft | 455 kts | 283° |
| 2026-04-29 03:44 | 70.55950 | 12.16743 | 38051 ft | 455 kts | 283° |
| 2026-04-29 03:45 | 70.57246 | 11.98273 | 38051 ft | 455 kts | 283° |
| 2026-04-29 03:45 | 70.58532 | 11.79682 | 38051 ft | 453 kts | 282° |
| 2026-04-29 03:46 | 70.59793 | 11.61132 | 38033 ft | 453 kts | 282° |
| 2026-04-29 03:46 | 70.61034 | 11.42569 | 38033 ft | 453 kts | 282° |
| 2026-04-29 03:47 | 70.62258 | 11.23969 | 38018 ft | 453 kts | 282° |
| 2026-04-29 03:47 | 70.63454 | 11.05489 | 38017 ft | 453 kts | 282° |
| 2026-04-29 03:48 | 70.64640 | 10.86858 | 38010 ft | 453 kts | 281° |
| 2026-04-29 03:48 | 70.65806 | 10.68215 | 38010 ft | 452 kts | 281° |
| 2026-04-29 03:49 | 70.66952 | 10.49544 | 38007 ft | 452 kts | 281° |
| 2026-04-29 03:49 | 70.68072 | 10.30995 | 38007 ft | 452 kts | 280° |
| 2026-04-29 03:50 | 70.69179 | 10.12315 | 38004 ft | 452 kts | 280° |
| 2026-04-29 03:50 | 70.70268 | 9.93599 | 37993 ft | 452 kts | 280° |
| 2026-04-29 03:51 | 70.71339 | 9.74851 | 37991 ft | 452 kts | 280° |
| 2026-04-29 03:51 | 70.72390 | 9.56091 | 37984 ft | 452 kts | 279° |
| 2026-04-29 03:52 | 70.73415 | 9.37434 | 37982 ft | 452 kts | 279° |
| 2026-04-29 03:52 | 70.74429 | 9.18616 | 37974 ft | 452 kts | 279° |
| 2026-04-29 03:53 | 70.75424 | 8.99787 | 37972 ft | 452 kts | 279° |
| 2026-04-29 03:53 | 70.76398 | 8.80949 | 37969 ft | 452 kts | 279° |
| 2026-04-29 03:54 | 70.77349 | 8.62223 | 37967 ft | 452 kts | 278° |
| 2026-04-29 03:54 | 70.78282 | 8.43399 | 37968 ft | 451 kts | 278° |
| 2026-04-29 03:55 | 70.79196 | 8.24550 | 37959 ft | 451 kts | 278° |
| 2026-04-29 03:55 | 70.80090 | 8.05707 | 37956 ft | 451 kts | 278° |
| 2026-04-29 03:56 | 70.80966 | 7.86823 | 37948 ft | 451 kts | 278° |
| 2026-04-29 03:56 | 70.81817 | 7.68059 | 37960 ft | 451 kts | 277° |
| 2026-04-29 03:57 | 70.82655 | 7.49153 | 37954 ft | 451 kts | 277° |
| 2026-04-29 03:57 | 70.83472 | 7.30238 | 37941 ft | 451 kts | 277° |
| 2026-04-29 03:58 | 70.84270 | 7.11302 | 37947 ft | 451 kts | 276° |
| 2026-04-29 03:58 | 70.85044 | 6.92478 | 37939 ft | 451 kts | 276° |
| 2026-04-29 03:59 | 70.85804 | 6.73504 | 37939 ft | 451 kts | 276° |
| 2026-04-29 03:59 | 70.86545 | 6.54546 | 37927 ft | 451 kts | 276° |
| 2026-04-29 04:00 | 70.87268 | 6.35542 | 37936 ft | 451 kts | 275° |
| 2026-04-29 04:00 | 70.87967 | 6.16520 | 37925 ft | 451 kts | 275° |
| 2026-04-29 04:01 | 70.88649 | 5.97474 | 37925 ft | 451 kts | 275° |
| 2026-04-29 04:01 | 70.89306 | 5.78567 | 37918 ft | 451 kts | 275° |
| 2026-04-29 04:02 | 70.89950 | 5.59491 | 37917 ft | 451 kts | 275° |
| 2026-04-29 04:02 | 70.90576 | 5.40420 | 37914 ft | 452 kts | 274° |
| 2026-04-29 04:03 | 70.91179 | 5.21329 | 37910 ft | 452 kts | 274° |
| 2026-04-29 04:03 | 70.91763 | 5.02228 | 37909 ft | 452 kts | 274° |
| 2026-04-29 04:04 | 70.92323 | 4.83236 | 37904 ft | 452 kts | 274° |
| 2026-04-29 04:04 | 70.92869 | 4.64104 | 37904 ft | 452 kts | 274° |
| 2026-04-29 04:05 | 70.93394 | 4.44977 | 37908 ft | 452 kts | 274° |
| 2026-04-29 04:05 | 70.93898 | 4.25949 | 37896 ft | 452 kts | 273° |
| 2026-04-29 04:06 | 70.94383 | 4.06808 | 37896 ft | 452 kts | 272° |
| 2026-04-29 04:06 | 70.94849 | 3.87639 | 37893 ft | 451 kts | 272° |
| 2026-04-29 04:07 | 70.95295 | 3.68468 | 37896 ft | 451 kts | 272° |
| 2026-04-29 04:07 | 70.95722 | 3.49300 | 37883 ft | 451 kts | 272° |
| 2026-04-29 04:08 | 70.96126 | 3.30239 | 37897 ft | 451 kts | 272° |
| 2026-04-29 04:08 | 70.96517 | 3.11029 | 37885 ft | 452 kts | 271° |
| 2026-04-29 04:09 | 70.96883 | 2.91787 | 37883 ft | 453 kts | 271° |
| 2026-04-29 04:09 | 70.97230 | 2.72549 | 37883 ft | 452 kts | 271° |
| 2026-04-29 04:10 | 70.97558 | 2.53280 | 37877 ft | 453 kts | 271° |
| 2026-04-29 04:10 | 70.97864 | 2.34143 | 37873 ft | 453 kts | 271° |
| 2026-04-29 04:11 | 70.98154 | 2.14861 | 37876 ft | 453 kts | 270° |
| 2026-04-29 04:11 | 70.98423 | 1.95534 | 37866 ft | 455 kts | 270° |
| 2026-04-29 04:12 | 70.98672 | 1.76159 | 37865 ft | 455 kts | 270° |
| 2026-04-29 04:12 | 70.98901 | 1.56783 | 37866 ft | 455 kts | 270° |
| 2026-04-29 04:13 | 70.99109 | 1.37534 | 37864 ft | 455 kts | 270° |
| 2026-04-29 04:13 | 70.99299 | 1.18149 | 37857 ft | 455 kts | 269° |
| 2026-04-29 04:14 | 70.99470 | 0.98760 | 37857 ft | 455 kts | 269° |
| 2026-04-29 04:14 | 70.99618 | 0.79295 | 37850 ft | 456 kts | 269° |
| 2026-04-29 04:15 | 70.99746 | 0.59955 | 37851 ft | 456 kts | 269° |
| 2026-04-29 04:15 | 70.99854 | 0.40490 | 37848 ft | 456 kts | 269° |
| 2026-04-29 04:16 | 70.99942 | 0.21023 | 37848 ft | 456 kts | 268° |
| 2026-04-29 04:16 | 71.00011 | 0.01549 | 37848 ft | 456 kts | 268° |
| 2026-04-29 04:17 | 70.99806 | -0.17761 | 37840 ft | 456 kts | 263° |
| 2026-04-29 04:17 | 70.99213 | -0.37134 | 37840 ft | 456 kts | 262° |
| 2026-04-29 04:18 | 70.98610 | -0.56507 | 37840 ft | 456 kts | 263° |
| 2026-04-29 04:18 | 70.98053 | -0.75895 | 37840 ft | 456 kts | 263° |
| 2026-04-29 04:19 | 70.97505 | -0.95272 | 37832 ft | 456 kts | 263° |
| 2026-04-29 04:19 | 70.96945 | -1.14524 | 37831 ft | 456 kts | 263° |
| 2026-04-29 04:20 | 70.96358 | -1.33874 | 37826 ft | 456 kts | 263° |
| 2026-04-29 04:20 | 70.95749 | -1.53223 | 37826 ft | 456 kts | 262° |
| 2026-04-29 04:21 | 70.95119 | -1.72554 | 37826 ft | 456 kts | 262° |
| 2026-04-29 04:21 | 70.94474 | -1.91737 | 37815 ft | 456 kts | 262° |
| 2026-04-29 04:22 | 70.93805 | -2.11046 | 37815 ft | 456 kts | 262° |
| 2026-04-29 04:22 | 70.93117 | -2.30332 | 37816 ft | 456 kts | 262° |
| 2026-04-29 04:23 | 70.92407 | -2.49626 | 37812 ft | 457 kts | 261° |
| 2026-04-29 04:23 | 70.91680 | -2.68804 | 37805 ft | 457 kts | 261° |
| 2026-04-29 04:24 | 70.90929 | -2.88086 | 37805 ft | 457 kts | 261° |
| 2026-04-29 04:24 | 70.90158 | -3.07360 | 37805 ft | 457 kts | 261° |
| 2026-04-29 04:25 | 70.89373 | -3.26479 | 37798 ft | 457 kts | 261° |
| 2026-04-29 04:25 | 70.88563 | -3.45711 | 37798 ft | 457 kts | 260° |
| 2026-04-29 04:26 | 70.87731 | -3.64961 | 37792 ft | 458 kts | 260° |
| 2026-04-29 04:26 | 70.86879 | -3.84207 | 37792 ft | 458 kts | 260° |
| 2026-04-29 04:27 | 70.86006 | -4.03434 | 37786 ft | 458 kts | 259° |
| 2026-04-29 04:27 | 70.85121 | -4.22503 | 37791 ft | 458 kts | 259° |
| 2026-04-29 04:28 | 70.84209 | -4.41691 | 37807 ft | 458 kts | 259° |
| 2026-04-29 04:28 | 70.83276 | -4.60877 | 37783 ft | 459 kts | 259° |
| 2026-04-29 04:29 | 70.82323 | -4.80064 | 37777 ft | 459 kts | 259° |
| 2026-04-29 04:29 | 70.81349 | -4.99243 | 37782 ft | 459 kts | 258° |
| 2026-04-29 04:30 | 70.80358 | -5.18360 | 37780 ft | 457 kts | 258° |
| 2026-04-29 04:31 | 70.78853 | -5.46657 | 37777 ft | 456 kts | 258° |
| 2026-04-29 04:31 | 70.77816 | -5.65646 | 37770 ft | 457 kts | 258° |
| 2026-04-29 04:32 | 70.76756 | -5.84685 | 37779 ft | 458 kts | 258° |
| 2026-04-29 04:32 | 70.75684 | -6.03588 | 37765 ft | 458 kts | 257° |
| 2026-04-29 04:33 | 70.74585 | -6.22589 | 37765 ft | 458 kts | 257° |
| 2026-04-29 04:33 | 70.73467 | -6.41563 | 37759 ft | 458 kts | 257° |
| 2026-04-29 04:34 | 70.72329 | -6.60519 | 37774 ft | 458 kts | 257° |
| 2026-04-29 04:34 | 70.71179 | -6.79335 | 37760 ft | 458 kts | 257° |
| 2026-04-29 04:35 | 70.70001 | -6.98268 | 37760 ft | 458 kts | 256° |
| 2026-04-29 04:35 | 70.68802 | -7.17193 | 37755 ft | 458 kts | 256° |
| 2026-04-29 04:36 | 70.67586 | -7.36074 | 37755 ft | 458 kts | 256° |
| 2026-04-29 04:36 | 70.66351 | -7.54919 | 37749 ft | 458 kts | 256° |
| 2026-04-29 04:37 | 70.65104 | -7.73629 | 37752 ft | 457 kts | 255° |
| 2026-04-29 04:37 | 70.63832 | -7.92401 | 37746 ft | 457 kts | 255° |
| 2026-04-29 04:38 | 70.62541 | -8.11141 | 37748 ft | 457 kts | 255° |
| 2026-04-29 04:38 | 70.61232 | -8.29847 | 37744 ft | 457 kts | 255° |
| 2026-04-29 04:39 | 70.59904 | -8.48527 | 37744 ft | 457 kts | 255° |
| 2026-04-29 04:39 | 70.58557 | -8.67185 | 37744 ft | 457 kts | 255° |
| 2026-04-29 04:40 | 70.57199 | -8.85697 | 37740 ft | 457 kts | 254° |
| 2026-04-29 04:40 | 70.55815 | -9.04300 | 37740 ft | 457 kts | 254° |
| 2026-04-29 04:41 | 70.54412 | -9.22863 | 37739 ft | 456 kts | 254° |
| 2026-04-29 04:41 | 70.52990 | -9.41416 | 37738 ft | 456 kts | 254° |
| 2026-04-29 04:42 | 70.51560 | -9.59795 | 37737 ft | 456 kts | 253° |
| 2026-04-29 04:42 | 70.50101 | -9.78279 | 37761 ft | 456 kts | 253° |
| 2026-04-29 04:43 | 70.48629 | -9.96686 | 37730 ft | 454 kts | 253° |
| 2026-04-29 04:43 | 70.47139 | -10.15026 | 37736 ft | 454 kts | 253° |
| 2026-04-29 04:44 | 70.45643 | -10.33200 | 37733 ft | 453 kts | 253° |
| 2026-04-29 04:44 | 70.44120 | -10.51450 | 37730 ft | 453 kts | 252° |
| 2026-04-29 04:45 | 70.42576 | -10.69700 | 37737 ft | 453 kts | 252° |
| 2026-04-29 04:45 | 70.41017 | -10.87886 | 37754 ft | 453 kts | 252° |
| 2026-04-29 04:46 | 70.39448 | -11.05958 | 37738 ft | 454 kts | 252° |
| 2026-04-29 04:46 | 70.37849 | -11.24142 | 37738 ft | 454 kts | 252° |
| 2026-04-29 04:47 | 70.36231 | -11.42296 | 37738 ft | 454 kts | 252° |
| 2026-04-29 04:47 | 70.34597 | -11.60404 | 37738 ft | 454 kts | 252° |
| 2026-04-29 04:48 | 70.32943 | -11.78498 | 37735 ft | 454 kts | 251° |
| 2026-04-29 04:48 | 70.31284 | -11.96434 | 37735 ft | 454 kts | 251° |
| 2026-04-29 04:49 | 70.29595 | -12.14461 | 37736 ft | 454 kts | 251° |
| 2026-04-29 04:49 | 70.27889 | -12.32443 | 37735 ft | 454 kts | 251° |
| 2026-04-29 04:50 | 70.26164 | -12.50408 | 37735 ft | 454 kts | 251° |
| 2026-04-29 04:50 | 70.24434 | -12.68221 | 37735 ft | 454 kts | 251° |
| 2026-04-29 04:51 | 70.22675 | -12.86114 | 37780 ft | 454 kts | 251° |
| 2026-04-29 04:51 | 70.20894 | -13.04016 | 37732 ft | 455 kts | 250° |
| 2026-04-29 04:52 | 70.19092 | -13.21918 | 37733 ft | 455 kts | 250° |
| 2026-04-29 04:52 | 70.17272 | -13.39796 | 37730 ft | 455 kts | 250° |
| 2026-04-29 04:53 | 70.15448 | -13.57505 | 37729 ft | 455 kts | 250° |
| 2026-04-29 04:53 | 70.13593 | -13.75314 | 37728 ft | 455 kts | 250° |
| 2026-04-29 04:54 | 70.11722 | -13.93082 | 37745 ft | 455 kts | 249° |
| 2026-04-29 04:54 | 70.09836 | -14.10787 | 37719 ft | 454 kts | 249° |
| 2026-04-29 04:55 | 70.07935 | -14.28434 | 37720 ft | 454 kts | 249° |
| 2026-04-29 04:55 | 70.06030 | -14.45923 | 37725 ft | 453 kts | 249° |
| 2026-04-29 04:56 | 70.04097 | -14.63490 | 37716 ft | 453 kts | 249° |
| 2026-04-29 04:56 | 70.02145 | -14.81033 | 37716 ft | 453 kts | 249° |
| 2026-04-29 04:57 | 70.00296 | -14.98680 | 37719 ft | 458 kts | 255° |
| 2026-04-29 04:57 | 69.99457 | -15.17126 | 37714 ft | 464 kts | 260° |
| 2026-04-29 04:58 | 69.98869 | -15.35901 | 37713 ft | 464 kts | 261° |
| 2026-04-29 04:58 | 69.98304 | -15.54678 | 37714 ft | 464 kts | 261° |
| 2026-04-29 04:59 | 69.97702 | -15.73442 | 37706 ft | 464 kts | 260° |
| 2026-04-29 04:59 | 69.97066 | -15.92179 | 37738 ft | 464 kts | 260° |
| 2026-04-29 05:00 | 69.96412 | -16.10777 | 37707 ft | 464 kts | 259° |
| 2026-04-29 05:00 | 69.95732 | -16.29489 | 37702 ft | 464 kts | 259° |
| 2026-04-29 05:01 | 69.95033 | -16.48174 | 37701 ft | 464 kts | 259° |
| 2026-04-29 05:01 | 69.94315 | -16.66858 | 37695 ft | 464 kts | 259° |
| 2026-04-29 05:02 | 69.93578 | -16.85520 | 37682 ft | 464 kts | 259° |
| 2026-04-29 05:02 | 69.92828 | -17.04038 | 37695 ft | 464 kts | 258° |
| 2026-04-29 05:03 | 69.92053 | -17.22665 | 37683 ft | 463 kts | 258° |
| 2026-04-29 05:03 | 69.91257 | -17.41262 | 37672 ft | 463 kts | 258° |
| 2026-04-29 05:04 | 69.90444 | -17.59830 | 37672 ft | 463 kts | 258° |
| 2026-04-29 05:04 | 69.89610 | -17.78391 | 37672 ft | 463 kts | 258° |
| 2026-04-29 05:05 | 69.88765 | -17.96793 | 37666 ft | 463 kts | 257° |
| 2026-04-29 05:05 | 69.87895 | -18.15319 | 37667 ft | 463 kts | 257° |
| 2026-04-29 05:06 | 69.87004 | -18.33819 | 37658 ft | 463 kts | 257° |
| 2026-04-29 05:06 | 69.86095 | -18.52300 | 37658 ft | 462 kts | 257° |
| 2026-04-29 05:07 | 69.85172 | -18.70642 | 37650 ft | 462 kts | 256° |
| 2026-04-29 05:07 | 69.84225 | -18.89071 | 37649 ft | 462 kts | 256° |
| 2026-04-29 05:08 | 69.83259 | -19.07502 | 37692 ft | 462 kts | 256° |
| 2026-04-29 05:08 | 69.82272 | -19.25917 | 37647 ft | 463 kts | 256° |
| 2026-04-29 05:09 | 69.81273 | -19.44207 | 37645 ft | 463 kts | 256° |
| 2026-04-29 05:09 | 69.80246 | -19.62634 | 37624 ft | 465 kts | 256° |
| 2026-04-29 05:10 | 69.79195 | -19.81125 | 37625 ft | 466 kts | 256° |
| 2026-04-29 05:10 | 69.78124 | -19.99621 | 37617 ft | 466 kts | 255° |
| 2026-04-29 05:11 | 69.77036 | -20.18075 | 37624 ft | 466 kts | 255° |
| 2026-04-29 05:11 | 69.75935 | -20.36391 | 37610 ft | 466 kts | 255° |
| 2026-04-29 05:12 | 69.74806 | -20.54814 | 37610 ft | 466 kts | 255° |
| 2026-04-29 05:12 | 69.73659 | -20.73206 | 37601 ft | 466 kts | 255° |
| 2026-04-29 05:13 | 69.72494 | -20.91565 | 37605 ft | 465 kts | 254° |
| 2026-04-29 05:13 | 69.71318 | -21.09781 | 37605 ft | 465 kts | 254° |
| 2026-04-29 05:14 | 69.70115 | -21.28103 | 37603 ft | 466 kts | 254° |
| 2026-04-29 05:14 | 69.68890 | -21.46438 | 37596 ft | 467 kts | 254° |
| 2026-04-29 05:15 | 69.67645 | -21.64763 | 37594 ft | 466 kts | 253° |
| 2026-04-29 05:15 | 69.66391 | -21.82934 | 37593 ft | 466 kts | 253° |
| 2026-04-29 05:16 | 69.65110 | -22.01198 | 37580 ft | 466 kts | 253° |
| 2026-04-29 05:16 | 69.63810 | -22.19441 | 37586 ft | 466 kts | 253° |
| 2026-04-29 05:17 | 69.62492 | -22.37636 | 37583 ft | 466 kts | 253° |
| 2026-04-29 05:17 | 69.61156 | -22.55817 | 37580 ft | 466 kts | 253° |
| 2026-04-29 05:18 | 69.59810 | -22.73846 | 37579 ft | 466 kts | 253° |
| 2026-04-29 05:18 | 69.58435 | -22.91992 | 37579 ft | 466 kts | 252° |
| 2026-04-29 05:19 | 69.57044 | -23.10077 | 37577 ft | 465 kts | 252° |
| 2026-04-29 05:19 | 69.55632 | -23.28153 | 37569 ft | 466 kts | 252° |
| 2026-04-29 05:20 | 69.54205 | -23.46163 | 37571 ft | 468 kts | 252° |
| 2026-04-29 05:20 | 69.52750 | -23.64295 | 37583 ft | 468 kts | 252° |
| 2026-04-29 05:21 | 69.51277 | -23.82378 | 37567 ft | 468 kts | 252° |
| 2026-04-29 05:21 | 69.49785 | -24.00438 | 37562 ft | 468 kts | 252° |
| 2026-04-29 05:22 | 69.48274 | -24.18469 | 37560 ft | 467 kts | 251° |
| 2026-04-29 05:22 | 69.46751 | -24.36389 | 37567 ft | 470 kts | 251° |
| 2026-04-29 05:23 | 69.45195 | -24.54465 | 37548 ft | 471 kts | 251° |
| 2026-04-29 05:23 | 69.43623 | -24.72516 | 37558 ft | 470 kts | 251° |
| 2026-04-29 05:24 | 69.42029 | -24.90565 | 37549 ft | 470 kts | 251° |
| 2026-04-29 05:24 | 69.40426 | -25.08444 | 37554 ft | 470 kts | 251° |
| 2026-04-29 05:25 | 69.38796 | -25.26404 | 37551 ft | 470 kts | 251° |
| 2026-04-29 05:25 | 69.37143 | -25.44398 | 37549 ft | 472 kts | 251° |
| 2026-04-29 05:26 | 69.35469 | -25.62385 | 37546 ft | 472 kts | 250° |
| 2026-04-29 05:26 | 69.33778 | -25.80327 | 37545 ft | 472 kts | 250° |
| 2026-04-29 05:27 | 69.32080 | -25.98117 | 37537 ft | 471 kts | 250° |
| 2026-04-29 05:27 | 69.29481 | -26.24930 | 37543 ft | 472 kts | 250° |
| 2026-04-29 05:28 | 69.27721 | -26.42815 | 37528 ft | 473 kts | 250° |
| 2026-04-29 05:28 | 69.25938 | -26.60714 | 37523 ft | 473 kts | 250° |
| 2026-04-29 05:29 | 69.24152 | -26.78447 | 37521 ft | 473 kts | 250° |
| 2026-04-29 05:29 | 69.22334 | -26.96278 | 37517 ft | 473 kts | 250° |
| 2026-04-29 05:30 | 69.20496 | -27.14072 | 37521 ft | 473 kts | 249° |
| 2026-04-29 05:30 | 69.18641 | -27.31839 | 37509 ft | 474 kts | 250° |
| 2026-04-29 05:31 | 69.16763 | -27.49626 | 37508 ft | 475 kts | 250° |
| 2026-04-29 05:31 | 69.14864 | -27.67408 | 37505 ft | 475 kts | 249° |
| 2026-04-29 05:32 | 69.12963 | -27.85010 | 37499 ft | 475 kts | 249° |
| 2026-04-29 05:32 | 69.11029 | -28.02710 | 37491 ft | 475 kts | 249° |
| 2026-04-29 05:33 | 69.09079 | -28.20369 | 37496 ft | 475 kts | 249° |
| 2026-04-29 05:33 | 69.07443 | -28.35042 | 37487 ft | 476 kts | 249° |
| 2026-04-29 05:34 | 69.05129 | -28.55547 | 37483 ft | 476 kts | 249° |
| 2026-04-29 05:34 | 69.03119 | -28.73143 | 37482 ft | 476 kts | 249° |
| 2026-04-29 05:35 | 69.01435 | -28.87744 | 37481 ft | 475 kts | 249° |
| 2026-04-29 05:35 | 68.99053 | -29.04850 | 37481 ft | 472 kts | 241° |
| 2026-04-29 05:36 | 68.95592 | -29.23784 | 37470 ft | 472 kts | 239° |
| 2026-04-29 05:36 | 68.92512 | -29.39912 | 37492 ft | 473 kts | 239° |
| 2026-04-29 05:37 | 68.89939 | -29.53296 | 37461 ft | 472 kts | 239° |
| 2026-04-29 05:37 | 68.86843 | -29.69364 | 37459 ft | 473 kts | 239° |
| 2026-04-29 05:38 | 68.83736 | -29.85402 | 37460 ft | 472 kts | 239° |
| 2026-04-29 05:38 | 68.80615 | -30.01398 | 37468 ft | 473 kts | 239° |
| 2026-04-29 05:39 | 68.77474 | -30.17372 | 37462 ft | 474 kts | 239° |
| 2026-04-29 05:39 | 68.74336 | -30.33207 | 37467 ft | 474 kts | 239° |
| 2026-04-29 05:40 | 68.71161 | -30.49109 | 37464 ft | 474 kts | 239° |
| 2026-04-29 05:40 | 68.67975 | -30.64949 | 37465 ft | 473 kts | 239° |
| 2026-04-29 05:41 | 68.64773 | -30.80743 | 37484 ft | 474 kts | 239° |
| 2026-04-29 05:41 | 68.61547 | -30.96536 | 37466 ft | 475 kts | 239° |
| 2026-04-29 05:42 | 68.58330 | -31.12177 | 37464 ft | 475 kts | 239° |
| 2026-04-29 05:42 | 68.55074 | -31.27890 | 37466 ft | 475 kts | 238° |
| 2026-04-29 05:43 | 68.51801 | -31.43566 | 37464 ft | 475 kts | 238° |
| 2026-04-29 05:43 | 68.48516 | -31.59186 | 37458 ft | 475 kts | 238° |
| 2026-04-29 05:44 | 68.45240 | -31.74651 | 37455 ft | 475 kts | 238° |
| 2026-04-29 05:44 | 68.41924 | -31.90187 | 37455 ft | 475 kts | 238° |
| 2026-04-29 05:45 | 68.38596 | -32.05667 | 37458 ft | 475 kts | 238° |
| 2026-04-29 05:45 | 68.35255 | -32.21101 | 37456 ft | 475 kts | 238° |
| 2026-04-29 05:46 | 68.31921 | -32.36386 | 37456 ft | 475 kts | 238° |
| 2026-04-29 05:46 | 68.28548 | -32.51744 | 37458 ft | 475 kts | 238° |
| 2026-04-29 05:47 | 68.25156 | -32.67074 | 37458 ft | 476 kts | 238° |
| 2026-04-29 05:47 | 68.21745 | -32.82386 | 37459 ft | 476 kts | 237° |
| 2026-04-29 05:48 | 68.18321 | -32.97647 | 37460 ft | 476 kts | 237° |
| 2026-04-29 05:48 | 68.14909 | -33.12750 | 37465 ft | 476 kts | 237° |
| 2026-04-29 05:49 | 68.11459 | -33.27918 | 37475 ft | 477 kts | 237° |
| 2026-04-29 05:49 | 68.07986 | -33.43070 | 37466 ft | 478 kts | 237° |
| 2026-04-29 05:50 | 68.04496 | -33.58190 | 37464 ft | 478 kts | 237° |
| 2026-04-29 05:50 | 68.00993 | -33.73264 | 37467 ft | 478 kts | 237° |
| 2026-04-29 05:51 | 67.97499 | -33.88194 | 37468 ft | 478 kts | 237° |
| 2026-04-29 05:51 | 67.93966 | -34.03190 | 37468 ft | 478 kts | 237° |
| 2026-04-29 05:52 | 67.90415 | -34.18155 | 37466 ft | 479 kts | 237° |
| 2026-04-29 05:52 | 67.86868 | -34.33002 | 37467 ft | 480 kts | 237° |
| 2026-04-29 05:53 | 67.83282 | -34.47913 | 37464 ft | 480 kts | 237° |
| 2026-04-29 05:53 | 67.79683 | -34.62778 | 37468 ft | 480 kts | 236° |
| 2026-04-29 05:54 | 67.76071 | -34.77592 | 37479 ft | 480 kts | 236° |
| 2026-04-29 05:54 | 67.72439 | -34.92380 | 37486 ft | 481 kts | 237° |
| 2026-04-29 05:55 | 67.68815 | -35.07047 | 37506 ft | 481 kts | 236° |
| 2026-04-29 05:55 | 67.65150 | -35.21777 | 37504 ft | 481 kts | 236° |
| 2026-04-29 05:56 | 67.61472 | -35.36462 | 37527 ft | 481 kts | 236° |
| 2026-04-29 05:56 | 67.57783 | -35.51089 | 37511 ft | 481 kts | 236° |
| 2026-04-29 05:57 | 67.54102 | -35.65589 | 37517 ft | 482 kts | 236° |
| 2026-04-29 05:57 | 67.50370 | -35.80191 | 37519 ft | 483 kts | 236° |
| 2026-04-29 05:58 | 67.46625 | -35.94749 | 37535 ft | 483 kts | 236° |
| 2026-04-29 05:58 | 67.42867 | -36.09260 | 37535 ft | 483 kts | 236° |
| 2026-04-29 05:59 | 67.39092 | -36.23736 | 37535 ft | 483 kts | 236° |
| 2026-04-29 05:59 | 67.35331 | -36.38070 | 37522 ft | 484 kts | 236° |
| 2026-04-29 06:00 | 67.31526 | -36.52477 | 37526 ft | 485 kts | 236° |
| 2026-04-29 06:00 | 67.27704 | -36.66848 | 37543 ft | 484 kts | 236° |
| 2026-04-29 06:01 | 67.23871 | -36.81172 | 37553 ft | 485 kts | 235° |
| 2026-04-29 06:01 | 67.20026 | -36.95445 | 37552 ft | 485 kts | 235° |
| 2026-04-29 06:02 | 67.16190 | -37.09595 | 37537 ft | 485 kts | 235° |
| 2026-04-29 06:02 | 67.12314 | -37.23798 | 37539 ft | 485 kts | 235° |
| 2026-04-29 06:03 | 67.08423 | -37.37966 | 37556 ft | 485 kts | 235° |
| 2026-04-29 06:03 | 67.04518 | -37.52091 | 37556 ft | 485 kts | 235° |
| 2026-04-29 06:04 | 67.00603 | -37.66165 | 37568 ft | 485 kts | 234° |
| 2026-04-29 06:04 | 66.96703 | -37.80096 | 37559 ft | 486 kts | 235° |
| 2026-04-29 06:05 | 66.92756 | -37.94103 | 37585 ft | 486 kts | 234° |
| 2026-04-29 06:05 | 66.88802 | -38.08049 | 37583 ft | 486 kts | 234° |
| 2026-04-29 06:06 | 66.84832 | -38.21963 | 37621 ft | 486 kts | 234° |
| 2026-04-29 06:06 | 66.80877 | -38.35736 | 37618 ft | 486 kts | 234° |
| 2026-04-29 06:07 | 66.76882 | -38.49557 | 37661 ft | 485 kts | 235° |
| 2026-04-29 06:07 | 66.72918 | -38.63188 | 37669 ft | 478 kts | 235° |
| 2026-04-29 06:08 | 66.68975 | -38.76670 | 37666 ft | 477 kts | 235° |
| 2026-04-29 06:08 | 66.65017 | -38.90122 | 37669 ft | 477 kts | 234° |
| 2026-04-29 06:09 | 66.61076 | -39.03427 | 37727 ft | 478 kts | 234° |
| 2026-04-29 06:09 | 66.57090 | -39.16798 | 37727 ft | 479 kts | 234° |
| 2026-04-29 06:10 | 66.53086 | -39.30153 | 37778 ft | 478 kts | 234° |
| 2026-04-29 06:10 | 66.49078 | -39.43446 | 37776 ft | 478 kts | 234° |
| 2026-04-29 06:11 | 66.45057 | -39.56700 | 37807 ft | 478 kts | 234° |
| 2026-04-29 06:11 | 66.41058 | -39.69803 | 37807 ft | 477 kts | 233° |
| 2026-04-29 06:12 | 66.37024 | -39.82948 | 37821 ft | 477 kts | 234° |
| 2026-04-29 06:12 | 66.32977 | -39.96046 | 37827 ft | 478 kts | 233° |
| 2026-04-29 06:13 | 66.28944 | -40.09028 | 37837 ft | 477 kts | 233° |
| 2026-04-29 06:13 | 66.24873 | -40.22055 | 37839 ft | 478 kts | 233° |
| 2026-04-29 06:14 | 66.20778 | -40.35075 | 37854 ft | 478 kts | 233° |
| 2026-04-29 06:14 | 66.16681 | -40.48030 | 37842 ft | 478 kts | 233° |
| 2026-04-29 06:15 | 66.12567 | -40.60966 | 37871 ft | 478 kts | 233° |
| 2026-04-29 06:15 | 66.08467 | -40.73774 | 37872 ft | 478 kts | 233° |
| 2026-04-29 06:16 | 66.04336 | -40.86612 | 37888 ft | 478 kts | 233° |
| 2026-04-29 06:16 | 66.00198 | -40.99403 | 37888 ft | 478 kts | 233° |
| 2026-04-29 06:17 | 65.96297 | -41.12589 | 37894 ft | 477 kts | 238° |
| 2026-04-29 06:17 | 65.92730 | -41.26182 | 37915 ft | 478 kts | 239° |
| 2026-04-29 06:18 | 65.89111 | -41.39815 | 37918 ft | 478 kts | 238° |
| 2026-04-29 06:18 | 65.85413 | -41.53336 | 37933 ft | 479 kts | 238° |
| 2026-04-29 06:19 | 65.81673 | -41.66784 | 37926 ft | 478 kts | 237° |
| 2026-04-29 06:19 | 65.77927 | -41.80166 | 37944 ft | 478 kts | 238° |
| 2026-04-29 06:20 | 65.74199 | -41.93405 | 37945 ft | 476 kts | 238° |
| 2026-04-29 06:20 | 65.70448 | -42.06664 | 37967 ft | 476 kts | 238° |
| 2026-04-29 06:21 | 65.66688 | -42.19864 | 37970 ft | 476 kts | 238° |
| 2026-04-29 06:21 | 65.62911 | -42.33055 | 37984 ft | 477 kts | 238° |
| 2026-04-29 06:22 | 65.59145 | -42.46128 | 37979 ft | 477 kts | 237° |
| 2026-04-29 06:22 | 65.55341 | -42.59251 | 37996 ft | 476 kts | 238° |
| 2026-04-29 06:23 | 65.51540 | -42.72294 | 38002 ft | 475 kts | 238° |
| 2026-04-29 06:23 | 65.47737 | -42.85270 | 38011 ft | 474 kts | 238° |
| 2026-04-29 06:24 | 65.43932 | -42.98177 | 38011 ft | 474 kts | 238° |
| 2026-04-29 06:24 | 65.40135 | -43.10975 | 38023 ft | 474 kts | 238° |
| 2026-04-29 06:25 | 65.36303 | -43.23825 | 38026 ft | 474 kts | 238° |
| 2026-04-29 06:25 | 65.32457 | -43.36648 | 38016 ft | 475 kts | 237° |
| 2026-04-29 06:26 | 65.28588 | -43.49470 | 38031 ft | 476 kts | 238° |
| 2026-04-29 06:26 | 65.24700 | -43.62276 | 38038 ft | 476 kts | 238° |
| 2026-04-29 06:27 | 65.20829 | -43.74957 | 38038 ft | 476 kts | 238° |
| 2026-04-29 06:27 | 65.16920 | -43.87693 | 38038 ft | 478 kts | 237° |
| 2026-04-29 06:28 | 65.12975 | -44.00484 | 38034 ft | 481 kts | 236° |
| 2026-04-29 06:28 | 65.08995 | -44.13301 | 38049 ft | 483 kts | 236° |
| 2026-04-29 06:29 | 65.05020 | -44.26023 | 38050 ft | 484 kts | 236° |
| 2026-04-29 06:29 | 65.01004 | -44.38804 | 38058 ft | 484 kts | 236° |
| 2026-04-29 06:30 | 64.94962 | -44.57902 | 38070 ft | 483 kts | 236° |
| 2026-04-29 06:31 | 64.90923 | -44.70581 | 38067 ft | 483 kts | 236° |
| 2026-04-29 06:31 | 64.86873 | -44.83222 | 38075 ft | 483 kts | 236° |
| 2026-04-29 06:32 | 64.82842 | -44.95732 | 38075 ft | 483 kts | 236° |
| 2026-04-29 06:32 | 64.78774 | -45.08287 | 38075 ft | 483 kts | 235° |
| 2026-04-29 06:33 | 64.74692 | -45.20811 | 38088 ft | 483 kts | 236° |
| 2026-04-29 06:33 | 64.70598 | -45.33305 | 38086 ft | 483 kts | 235° |
| 2026-04-29 06:34 | 64.66527 | -45.45659 | 38084 ft | 483 kts | 235° |
| 2026-04-29 06:34 | 64.62415 | -45.58070 | 38097 ft | 483 kts | 235° |
| 2026-04-29 06:35 | 64.58290 | -45.70448 | 38096 ft | 484 kts | 235° |
| 2026-04-29 06:35 | 64.54156 | -45.82789 | 38105 ft | 484 kts | 235° |
| 2026-04-29 06:36 | 64.50037 | -45.95014 | 38105 ft | 484 kts | 235° |
| 2026-04-29 06:36 | 64.45885 | -46.07270 | 38113 ft | 483 kts | 235° |
| 2026-04-29 06:37 | 64.41720 | -46.19499 | 38112 ft | 483 kts | 234° |
| 2026-04-29 06:37 | 64.37542 | -46.31696 | 38100 ft | 483 kts | 235° |
| 2026-04-29 06:38 | 64.33389 | -46.43757 | 38125 ft | 483 kts | 234° |
| 2026-04-29 06:38 | 64.29204 | -46.55843 | 38130 ft | 483 kts | 234° |
| 2026-04-29 06:39 | 64.25007 | -46.67901 | 38129 ft | 483 kts | 234° |
| 2026-04-29 06:39 | 64.20801 | -46.79920 | 38137 ft | 483 kts | 234° |
| 2026-04-29 06:40 | 64.16585 | -46.91901 | 38127 ft | 482 kts | 234° |
| 2026-04-29 06:40 | 64.12365 | -47.03830 | 38153 ft | 482 kts | 234° |
| 2026-04-29 06:41 | 64.08165 | -47.15638 | 38153 ft | 482 kts | 234° |
| 2026-04-29 06:41 | 64.03926 | -47.27497 | 38155 ft | 482 kts | 234° |
| 2026-04-29 06:42 | 63.99681 | -47.39309 | 38157 ft | 482 kts | 234° |
| 2026-04-29 06:42 | 63.95423 | -47.51090 | 38139 ft | 482 kts | 234° |
| 2026-04-29 06:43 | 63.91184 | -47.62759 | 38153 ft | 481 kts | 234° |
| 2026-04-29 06:43 | 63.86911 | -47.74461 | 38156 ft | 482 kts | 234° |
| 2026-04-29 06:44 | 63.82626 | -47.86133 | 38175 ft | 482 kts | 234° |
| 2026-04-29 06:44 | 63.78335 | -47.97763 | 38172 ft | 482 kts | 234° |
| 2026-04-29 06:45 | 63.74030 | -48.09367 | 38153 ft | 482 kts | 234° |
| 2026-04-29 06:45 | 63.69743 | -48.20864 | 38166 ft | 482 kts | 234° |
| 2026-04-29 06:46 | 63.65421 | -48.32397 | 38163 ft | 482 kts | 234° |
| 2026-04-29 06:46 | 63.61089 | -48.43895 | 38164 ft | 482 kts | 233° |
| 2026-04-29 06:47 | 63.56745 | -48.55367 | 38163 ft | 482 kts | 233° |
| 2026-04-29 06:47 | 63.52422 | -48.66721 | 38162 ft | 482 kts | 233° |
| 2026-04-29 06:48 | 63.48069 | -48.78098 | 38172 ft | 481 kts | 233° |
| 2026-04-29 06:48 | 63.43702 | -48.89453 | 38177 ft | 481 kts | 233° |
| 2026-04-29 06:49 | 63.39328 | -49.00771 | 38175 ft | 481 kts | 233° |
| 2026-04-29 06:49 | 63.34942 | -49.12061 | 38179 ft | 482 kts | 233° |
| 2026-04-29 06:50 | 63.30582 | -49.23225 | 38188 ft | 481 kts | 233° |
| 2026-04-29 06:50 | 63.26186 | -49.34426 | 38170 ft | 480 kts | 233° |
| 2026-04-29 06:51 | 63.21784 | -49.45586 | 38184 ft | 480 kts | 233° |
| 2026-04-29 06:51 | 63.17379 | -49.56699 | 38146 ft | 480 kts | 233° |
| 2026-04-29 06:52 | 63.12961 | -49.67787 | 38161 ft | 480 kts | 233° |
| 2026-04-29 06:52 | 63.08569 | -49.78761 | 38142 ft | 479 kts | 233° |
| 2026-04-29 06:53 | 63.04151 | -49.89747 | 38149 ft | 478 kts | 233° |
| 2026-04-29 06:53 | 62.99724 | -50.00687 | 38141 ft | 478 kts | 233° |
| 2026-04-29 06:54 | 62.95465 | -50.11852 | 38137 ft | 476 kts | 236° |
| 2026-04-29 06:54 | 62.91345 | -50.23225 | 38139 ft | 476 kts | 236° |
| 2026-04-29 06:55 | 62.87231 | -50.34456 | 38137 ft | 475 kts | 236° |
| 2026-04-29 06:55 | 62.83058 | -50.45659 | 38141 ft | 475 kts | 235° |
| 2026-04-29 06:56 | 62.78866 | -50.56809 | 38145 ft | 475 kts | 235° |
| 2026-04-29 06:56 | 62.74661 | -50.67932 | 38143 ft | 475 kts | 235° |
| 2026-04-29 06:57 | 62.70481 | -50.78942 | 38144 ft | 475 kts | 235° |
| 2026-04-29 06:57 | 62.66267 | -50.89983 | 38147 ft | 473 kts | 235° |
| 2026-04-29 06:58 | 62.62061 | -51.00955 | 38146 ft | 472 kts | 235° |
| 2026-04-29 06:58 | 62.57853 | -51.11883 | 38146 ft | 472 kts | 235° |
| 2026-04-29 06:59 | 62.53666 | -51.22702 | 38146 ft | 472 kts | 235° |
| 2026-04-29 06:59 | 62.49437 | -51.33574 | 38154 ft | 472 kts | 235° |
| 2026-04-29 07:00 | 62.45200 | -51.44415 | 38155 ft | 472 kts | 235° |
| 2026-04-29 07:00 | 62.40955 | -51.55226 | 38157 ft | 472 kts | 234° |
| 2026-04-29 07:01 | 62.36700 | -51.66007 | 38156 ft | 472 kts | 234° |
| 2026-04-29 07:01 | 62.32438 | -51.76758 | 38159 ft | 472 kts | 234° |
| 2026-04-29 07:02 | 62.28193 | -51.87412 | 38160 ft | 472 kts | 234° |
| 2026-04-29 07:02 | 62.23917 | -51.98088 | 38162 ft | 470 kts | 234° |
| 2026-04-29 07:03 | 62.19651 | -52.08690 | 38165 ft | 469 kts | 234° |
| 2026-04-29 07:03 | 62.15382 | -52.19258 | 38164 ft | 469 kts | 234° |
| 2026-04-29 07:04 | 62.11131 | -52.29730 | 38166 ft | 470 kts | 234° |
| 2026-04-29 07:04 | 62.06841 | -52.40247 | 38125 ft | 470 kts | 234° |
| 2026-04-29 07:05 | 62.02551 | -52.50714 | 38174 ft | 468 kts | 234° |
| 2026-04-29 07:05 | 61.98261 | -52.61133 | 38162 ft | 468 kts | 234° |
| 2026-04-29 07:06 | 61.93992 | -52.71456 | 38171 ft | 468 kts | 234° |
| 2026-04-29 07:06 | 61.89684 | -52.81825 | 38172 ft | 468 kts | 234° |
| 2026-04-29 07:07 | 61.85373 | -52.92150 | 38135 ft | 468 kts | 234° |
| 2026-04-29 07:07 | 61.81056 | -53.02441 | 38172 ft | 467 kts | 234° |
| 2026-04-29 07:08 | 61.76732 | -53.12703 | 38170 ft | 467 kts | 234° |
| 2026-04-29 07:08 | 61.72431 | -53.22867 | 38169 ft | 467 kts | 234° |
| 2026-04-29 07:09 | 61.68095 | -53.33064 | 38167 ft | 467 kts | 234° |
| 2026-04-29 07:09 | 61.63748 | -53.43241 | 38134 ft | 467 kts | 234° |
| 2026-04-29 07:10 | 61.59396 | -53.53381 | 38176 ft | 466 kts | 234° |
| 2026-04-29 07:10 | 61.55078 | -53.63399 | 38177 ft | 466 kts | 234° |
| 2026-04-29 07:11 | 61.50719 | -53.73468 | 38179 ft | 466 kts | 234° |
| 2026-04-29 07:11 | 61.46354 | -53.83505 | 38176 ft | 466 kts | 234° |
| 2026-04-29 07:12 | 61.41981 | -53.93516 | 38152 ft | 466 kts | 234° |
| 2026-04-29 07:12 | 61.37604 | -54.03490 | 38179 ft | 466 kts | 234° |
| 2026-04-29 07:13 | 61.33254 | -54.13358 | 38182 ft | 466 kts | 234° |
| 2026-04-29 07:13 | 61.28863 | -54.23276 | 38182 ft | 466 kts | 234° |
| 2026-04-29 07:14 | 61.24466 | -54.33164 | 38187 ft | 466 kts | 233° |
| 2026-04-29 07:14 | 61.20072 | -54.42999 | 38167 ft | 464 kts | 234° |
| 2026-04-29 07:15 | 61.15684 | -54.52775 | 38175 ft | 462 kts | 233° |
| 2026-04-29 07:15 | 61.11329 | -54.62440 | 38176 ft | 462 kts | 233° |
| 2026-04-29 07:16 | 61.06937 | -54.72149 | 38174 ft | 462 kts | 233° |
| 2026-04-29 07:16 | 61.02539 | -54.81825 | 38173 ft | 462 kts | 233° |
| 2026-04-29 07:17 | 60.98132 | -54.91477 | 38153 ft | 462 kts | 233° |
| 2026-04-29 07:17 | 60.93724 | -55.01088 | 38172 ft | 461 kts | 233° |
| 2026-04-29 07:18 | 60.89345 | -55.10599 | 38173 ft | 461 kts | 233° |
| 2026-04-29 07:18 | 60.84926 | -55.20155 | 38169 ft | 461 kts | 233° |
| 2026-04-29 07:19 | 60.80499 | -55.29686 | 38165 ft | 462 kts | 233° |
| 2026-04-29 07:19 | 60.76066 | -55.39190 | 38164 ft | 461 kts | 233° |
| 2026-04-29 07:20 | 60.71638 | -55.48643 | 38165 ft | 460 kts | 233° |
| 2026-04-29 07:20 | 60.67237 | -55.58002 | 38165 ft | 460 kts | 233° |
| 2026-04-29 07:21 | 60.62798 | -55.67398 | 38165 ft | 460 kts | 233° |
| 2026-04-29 07:21 | 60.58350 | -55.76775 | 38157 ft | 460 kts | 233° |
| 2026-04-29 07:22 | 60.53897 | -55.86118 | 38152 ft | 460 kts | 233° |
| 2026-04-29 07:22 | 60.49450 | -55.95407 | 38157 ft | 458 kts | 233° |
| 2026-04-29 07:23 | 60.45030 | -56.04606 | 38157 ft | 458 kts | 233° |
| 2026-04-29 07:23 | 60.40574 | -56.13844 | 38157 ft | 459 kts | 232° |
| 2026-04-29 07:24 | 60.36111 | -56.23056 | 38153 ft | 459 kts | 232° |
| 2026-04-29 07:24 | 60.31639 | -56.32249 | 38154 ft | 459 kts | 232° |
| 2026-04-29 07:25 | 60.27193 | -56.41350 | 38151 ft | 459 kts | 232° |
| 2026-04-29 07:25 | 60.22706 | -56.50497 | 38151 ft | 459 kts | 232° |
| 2026-04-29 07:26 | 60.18215 | -56.59613 | 38148 ft | 459 kts | 232° |
| 2026-04-29 07:26 | 60.13717 | -56.68707 | 38149 ft | 459 kts | 232° |
| 2026-04-29 07:27 | 60.09214 | -56.77773 | 38148 ft | 457 kts | 232° |
| 2026-04-29 07:27 | 60.04753 | -56.86715 | 38151 ft | 457 kts | 232° |
| 2026-04-29 07:28 | 60.00256 | -56.95698 | 38145 ft | 457 kts | 232° |
| 2026-04-29 07:28 | 59.95757 | -57.04650 | 38140 ft | 457 kts | 232° |
| 2026-04-29 07:29 | 59.91243 | -57.13592 | 38137 ft | 457 kts | 232° |
| 2026-04-29 07:29 | 59.86735 | -57.22482 | 38134 ft | 455 kts | 232° |
| 2026-04-29 07:30 | 59.82261 | -57.31274 | 38133 ft | 455 kts | 232° |
| 2026-04-29 07:30 | 59.77750 | -57.40105 | 38129 ft | 455 kts | 232° |
| 2026-04-29 07:31 | 59.70975 | -57.53300 | 38129 ft | 455 kts | 231° |
| 2026-04-29 07:31 | 59.66446 | -57.62075 | 38135 ft | 455 kts | 231° |
| 2026-04-29 07:32 | 59.61926 | -57.70796 | 38129 ft | 453 kts | 231° |
| 2026-04-29 07:32 | 59.57453 | -57.79393 | 38127 ft | 452 kts | 231° |
| 2026-04-29 07:33 | 59.52947 | -57.88024 | 38129 ft | 451 kts | 231° |
| 2026-04-29 07:33 | 59.48440 | -57.96646 | 38121 ft | 450 kts | 232° |
| 2026-04-29 07:34 | 59.44749 | -58.06297 | 38120 ft | 438 kts | 243° |
| 2026-04-29 07:34 | 59.41568 | -58.16475 | 38110 ft | 436 kts | 245° |
| 2026-04-29 07:35 | 59.38485 | -58.26644 | 38109 ft | 436 kts | 245° |
| 2026-04-29 07:35 | 59.35365 | -58.36863 | 38107 ft | 437 kts | 244° |
| 2026-04-29 07:36 | 59.32221 | -58.47043 | 38106 ft | 437 kts | 244° |
| 2026-04-29 07:36 | 59.29061 | -58.57204 | 38073 ft | 437 kts | 244° |
| 2026-04-29 07:37 | 59.25898 | -58.67325 | 38097 ft | 435 kts | 244° |
| 2026-04-29 07:37 | 59.22756 | -58.77338 | 38092 ft | 435 kts | 244° |
| 2026-04-29 07:38 | 59.19588 | -58.87398 | 38087 ft | 435 kts | 244° |
| 2026-04-29 07:38 | 59.16412 | -58.97439 | 38085 ft | 435 kts | 244° |
| 2026-04-29 07:39 | 59.13227 | -59.07464 | 38080 ft | 435 kts | 244° |
| 2026-04-29 07:39 | 59.10057 | -59.17399 | 38074 ft | 435 kts | 243° |
| 2026-04-29 07:40 | 59.06874 | -59.27327 | 38064 ft | 431 kts | 243° |
| 2026-04-29 07:40 | 59.03701 | -59.37186 | 38064 ft | 430 kts | 243° |
| 2026-04-29 07:41 | 59.00522 | -59.47026 | 38059 ft | 430 kts | 243° |
| 2026-04-29 07:41 | 58.97337 | -59.56844 | 38059 ft | 430 kts | 243° |
| 2026-04-29 07:42 | 58.94166 | -59.66578 | 38058 ft | 430 kts | 243° |
| 2026-04-29 07:42 | 58.90968 | -59.76351 | 38042 ft | 429 kts | 243° |
| 2026-04-29 07:43 | 58.87768 | -59.86087 | 38041 ft | 429 kts | 243° |
| 2026-04-29 07:43 | 58.84562 | -59.95807 | 38044 ft | 429 kts | 243° |
| 2026-04-29 07:44 | 58.81892 | -60.03870 | 38041 ft | 429 kts | 243° |
| 2026-04-29 07:44 | 58.78151 | -60.15121 | 38043 ft | 429 kts | 243° |
| 2026-04-29 07:45 | 58.74922 | -60.24787 | 38011 ft | 429 kts | 242° |
| 2026-04-29 07:45 | 58.72239 | -60.32788 | 38031 ft | 427 kts | 242° |
| 2026-04-29 07:46 | 58.68486 | -60.43935 | 38027 ft | 427 kts | 242° |
| 2026-04-29 07:46 | 58.65160 | -60.53376 | 38039 ft | 428 kts | 236° |
| 2026-04-29 07:47 | 58.61966 | -60.60639 | 38031 ft | 428 kts | 234° |
| 2026-04-29 07:47 | 58.58021 | -60.69200 | 38012 ft | 429 kts | 234° |
| 2026-04-29 07:48 | 58.54047 | -60.77713 | 38010 ft | 427 kts | 234° |
| 2026-04-29 07:48 | 58.50103 | -60.86150 | 38016 ft | 424 kts | 234° |
| 2026-04-29 07:49 | 58.46205 | -60.94491 | 38015 ft | 424 kts | 234° |
| 2026-04-29 07:49 | 58.42276 | -61.02879 | 38015 ft | 424 kts | 234° |
| 2026-04-29 07:50 | 58.38341 | -61.11244 | 38009 ft | 424 kts | 234° |
| 2026-04-29 07:50 | 58.34397 | -61.19596 | 38009 ft | 424 kts | 234° |
| 2026-04-29 07:51 | 58.30451 | -61.27923 | 38007 ft | 424 kts | 234° |
| 2026-04-29 07:51 | 58.26525 | -61.36177 | 38007 ft | 424 kts | 233° |
| 2026-04-29 07:52 | 58.22564 | -61.44476 | 38004 ft | 424 kts | 233° |
| 2026-04-29 07:52 | 58.18598 | -61.52754 | 37990 ft | 424 kts | 233° |
| 2026-04-29 07:53 | 58.14627 | -61.61013 | 37990 ft | 424 kts | 233° |
| 2026-04-29 07:53 | 58.10672 | -61.69214 | 37991 ft | 425 kts | 233° |
| 2026-04-29 07:54 | 58.06674 | -61.77472 | 37990 ft | 426 kts | 233° |
| 2026-04-29 07:54 | 58.02665 | -61.85720 | 37991 ft | 426 kts | 233° |
| 2026-04-29 07:55 | 57.98652 | -61.93949 | 37990 ft | 426 kts | 233° |
| 2026-04-29 07:55 | 57.94633 | -62.02160 | 37993 ft | 426 kts | 233° |
| 2026-04-29 07:56 | 57.90633 | -62.10305 | 37993 ft | 428 kts | 232° |
| 2026-04-29 07:56 | 57.86574 | -62.18528 | 37989 ft | 430 kts | 232° |
| 2026-04-29 07:57 | 57.82497 | -62.26777 | 37988 ft | 431 kts | 232° |
| 2026-04-29 07:57 | 57.78409 | -62.35016 | 37994 ft | 431 kts | 232° |
| 2026-04-29 07:58 | 57.74342 | -62.43180 | 37992 ft | 431 kts | 232° |
| 2026-04-29 07:58 | 57.70240 | -62.51385 | 37996 ft | 433 kts | 231° |
| 2026-04-29 07:59 | 57.66115 | -62.59606 | 37995 ft | 434 kts | 231° |
| 2026-04-29 07:59 | 57.61976 | -62.67826 | 38003 ft | 434 kts | 231° |
| 2026-04-29 08:00 | 57.57833 | -62.76022 | 38004 ft | 434 kts | 231° |
| 2026-04-29 08:00 | 57.53715 | -62.84140 | 37998 ft | 434 kts | 231° |
| 2026-04-29 08:01 | 57.49563 | -62.92299 | 37982 ft | 434 kts | 230° |
| 2026-04-29 08:01 | 57.45419 | -63.00409 | 37994 ft | 432 kts | 230° |
| 2026-04-29 08:02 | 57.41307 | -63.08435 | 37992 ft | 432 kts | 230° |
| 2026-04-29 08:02 | 57.37162 | -63.16495 | 37991 ft | 432 kts | 230° |
| 2026-04-29 08:03 | 57.33008 | -63.24543 | 37986 ft | 432 kts | 230° |
| 2026-04-29 08:03 | 57.28858 | -63.32554 | 37985 ft | 431 kts | 230° |
| 2026-04-29 08:04 | 57.24719 | -63.40513 | 37980 ft | 428 kts | 230° |
| 2026-04-29 08:04 | 57.20594 | -63.48423 | 37978 ft | 428 kts | 230° |
| 2026-04-29 08:05 | 57.16492 | -63.56263 | 37975 ft | 428 kts | 230° |
| 2026-04-29 08:05 | 57.12358 | -63.64138 | 37979 ft | 428 kts | 230° |
| 2026-04-29 08:06 | 57.08215 | -63.72000 | 37999 ft | 428 kts | 229° |
| 2026-04-29 08:06 | 57.04079 | -63.79819 | 37985 ft | 425 kts | 229° |
| 2026-04-29 08:07 | 56.99982 | -63.87543 | 37977 ft | 425 kts | 229° |
| 2026-04-29 08:07 | 56.95856 | -63.95294 | 37982 ft | 425 kts | 229° |
| 2026-04-29 08:08 | 56.91721 | -64.03037 | 37967 ft | 425 kts | 229° |
| 2026-04-29 08:08 | 56.87582 | -64.10761 | 37947 ft | 425 kts | 228° |
| 2026-04-29 08:09 | 56.83466 | -64.18415 | 37965 ft | 425 kts | 228° |
| 2026-04-29 08:09 | 56.79315 | -64.26108 | 37967 ft | 425 kts | 228° |
| 2026-04-29 08:10 | 56.75160 | -64.33784 | 37963 ft | 425 kts | 228° |
| 2026-04-29 08:10 | 56.71002 | -64.41439 | 37968 ft | 425 kts | 228° |
| 2026-04-29 08:11 | 56.66833 | -64.49088 | 37944 ft | 425 kts | 227° |
| 2026-04-29 08:11 | 56.62667 | -64.56706 | 37969 ft | 425 kts | 227° |
| 2026-04-29 08:12 | 56.58529 | -64.64249 | 37945 ft | 424 kts | 227° |
| 2026-04-29 08:12 | 56.54357 | -64.71828 | 37943 ft | 424 kts | 227° |
| 2026-04-29 08:13 | 56.50187 | -64.79381 | 37940 ft | 424 kts | 227° |
| 2026-04-29 08:13 | 56.46007 | -64.86925 | 37938 ft | 424 kts | 227° |
| 2026-04-29 08:14 | 56.41855 | -64.94395 | 37944 ft | 424 kts | 227° |
| 2026-04-29 08:14 | 56.37674 | -65.01892 | 37939 ft | 423 kts | 227° |
| 2026-04-29 08:15 | 56.33491 | -65.09367 | 37937 ft | 423 kts | 227° |
| 2026-04-29 08:15 | 56.29304 | -65.16826 | 37937 ft | 423 kts | 226° |
| 2026-04-29 08:16 | 56.25108 | -65.24274 | 37927 ft | 423 kts | 226° |
| 2026-04-29 08:16 | 56.20952 | -65.31628 | 37926 ft | 421 kts | 226° |
| 2026-04-29 08:17 | 56.16775 | -65.38998 | 37924 ft | 421 kts | 226° |
| 2026-04-29 08:17 | 56.12593 | -65.46353 | 37926 ft | 421 kts | 226° |
| 2026-04-29 08:18 | 56.08402 | -65.53699 | 37927 ft | 421 kts | 226° |
| 2026-04-29 08:18 | 56.04240 | -65.60972 | 37926 ft | 421 kts | 226° |
| 2026-04-29 08:19 | 56.00041 | -65.68285 | 37925 ft | 421 kts | 225° |
| 2026-04-29 08:19 | 55.95838 | -65.75582 | 37922 ft | 421 kts | 225° |
| 2026-04-29 08:20 | 55.91631 | -65.82862 | 37916 ft | 421 kts | 225° |
| 2026-04-29 08:20 | 55.87418 | -65.90130 | 37915 ft | 421 kts | 225° |
| 2026-04-29 08:21 | 55.83232 | -65.97327 | 37912 ft | 421 kts | 225° |
| 2026-04-29 08:21 | 55.79005 | -66.04575 | 37915 ft | 422 kts | 225° |
| 2026-04-29 08:22 | 55.74774 | -66.11802 | 37908 ft | 422 kts | 225° |
| 2026-04-29 08:22 | 55.70535 | -66.19022 | 37910 ft | 422 kts | 225° |
| 2026-04-29 08:23 | 55.66292 | -66.26226 | 37912 ft | 422 kts | 224° |
| 2026-04-29 08:23 | 55.62075 | -66.33362 | 37901 ft | 422 kts | 224° |
| 2026-04-29 08:24 | 55.57820 | -66.40542 | 37894 ft | 423 kts | 224° |
| 2026-04-29 08:24 | 55.53558 | -66.47710 | 37913 ft | 423 kts | 224° |
| 2026-04-29 08:25 | 55.49287 | -66.54872 | 37915 ft | 423 kts | 224° |
| 2026-04-29 08:25 | 55.45050 | -66.61952 | 37919 ft | 423 kts | 224° |
| 2026-04-29 08:26 | 55.40768 | -66.69088 | 37915 ft | 423 kts | 224° |
| 2026-04-29 08:26 | 55.36508 | -66.76165 | 37918 ft | 425 kts | 223° |
| 2026-04-29 08:27 | 55.32204 | -66.83288 | 37894 ft | 425 kts | 223° |
| 2026-04-29 08:27 | 55.27894 | -66.90402 | 37880 ft | 425 kts | 223° |
| 2026-04-29 08:28 | 55.23582 | -66.97499 | 37880 ft | 425 kts | 223° |
| 2026-04-29 08:28 | 55.19264 | -67.04582 | 37886 ft | 425 kts | 223° |
| 2026-04-29 08:29 | 55.14958 | -67.11623 | 37894 ft | 427 kts | 223° |
| 2026-04-29 08:29 | 55.10617 | -67.18699 | 37896 ft | 427 kts | 223° |
| 2026-04-29 08:30 | 55.04096 | -67.29288 | 37894 ft | 427 kts | 223° |
| 2026-04-29 08:31 | 54.99744 | -67.36327 | 37892 ft | 427 kts | 223° |
| 2026-04-29 08:31 | 54.95414 | -67.43310 | 37892 ft | 428 kts | 222° |
| 2026-04-29 08:32 | 54.91031 | -67.50357 | 37892 ft | 429 kts | 222° |
| 2026-04-29 08:32 | 54.86641 | -67.57392 | 37891 ft | 429 kts | 222° |
| 2026-04-29 08:33 | 54.82247 | -67.64411 | 37895 ft | 429 kts | 222° |
| 2026-04-29 08:33 | 54.77849 | -67.71415 | 37895 ft | 429 kts | 222° |
| 2026-04-29 08:34 | 54.73471 | -67.78367 | 37892 ft | 430 kts | 222° |
| 2026-04-29 08:34 | 54.69054 | -67.85359 | 37894 ft | 431 kts | 222° |
| 2026-04-29 08:35 | 54.64628 | -67.92341 | 37873 ft | 431 kts | 221° |
| 2026-04-29 08:35 | 54.60202 | -67.99303 | 37874 ft | 430 kts | 221° |
| 2026-04-29 08:36 | 54.55807 | -68.06196 | 37873 ft | 430 kts | 221° |
| 2026-04-29 08:36 | 54.51379 | -68.13122 | 37873 ft | 430 kts | 221° |
| 2026-04-29 08:37 | 54.46941 | -68.20039 | 37882 ft | 430 kts | 221° |
| 2026-04-29 08:37 | 54.42501 | -68.26939 | 37875 ft | 430 kts | 221° |
| 2026-04-29 08:38 | 54.38091 | -68.33770 | 37878 ft | 430 kts | 221° |
| 2026-04-29 08:38 | 54.33641 | -68.40645 | 37885 ft | 430 kts | 221° |
| 2026-04-29 08:39 | 54.29194 | -68.47493 | 37868 ft | 430 kts | 221° |
| 2026-04-29 08:39 | 54.24742 | -68.54328 | 37865 ft | 430 kts | 221° |
| 2026-04-29 08:40 | 54.20316 | -68.61103 | 37865 ft | 430 kts | 221° |
| 2026-04-29 08:40 | 54.15856 | -68.67909 | 37866 ft | 430 kts | 221° |
| 2026-04-29 08:41 | 54.11394 | -68.74697 | 37864 ft | 430 kts | 221° |
| 2026-04-29 08:41 | 54.06926 | -68.81474 | 37866 ft | 430 kts | 221° |
| 2026-04-29 08:42 | 54.02486 | -68.88188 | 37862 ft | 430 kts | 221° |
| 2026-04-29 08:42 | 53.98010 | -68.94937 | 37851 ft | 430 kts | 221° |
| 2026-04-29 08:43 | 53.93533 | -69.01667 | 37851 ft | 430 kts | 221° |
| 2026-04-29 08:43 | 53.89052 | -69.08384 | 37855 ft | 430 kts | 221° |
| 2026-04-29 08:44 | 53.84571 | -69.15080 | 37857 ft | 429 kts | 220° |
| 2026-04-29 08:44 | 53.80112 | -69.21726 | 37857 ft | 431 kts | 220° |
| 2026-04-29 08:45 | 53.75609 | -69.28415 | 37853 ft | 431 kts | 220° |
| 2026-04-29 08:45 | 53.71098 | -69.35094 | 37854 ft | 432 kts | 220° |
| 2026-04-29 08:46 | 53.66568 | -69.41785 | 37841 ft | 433 kts | 220° |
| 2026-04-29 08:46 | 53.62030 | -69.48466 | 37843 ft | 433 kts | 220° |
| 2026-04-29 08:47 | 53.57516 | -69.55093 | 37841 ft | 434 kts | 220° |
| 2026-04-29 08:47 | 53.52966 | -69.61753 | 37841 ft | 434 kts | 220° |
| 2026-04-29 08:48 | 53.48407 | -69.68407 | 37840 ft | 435 kts | 220° |
| 2026-04-29 08:48 | 53.43834 | -69.75060 | 37838 ft | 436 kts | 220° |
| 2026-04-29 08:49 | 53.39251 | -69.81708 | 37842 ft | 436 kts | 220° |
| 2026-04-29 08:49 | 53.34695 | -69.88297 | 37829 ft | 436 kts | 220° |
| 2026-04-29 08:50 | 53.30103 | -69.94919 | 37825 ft | 436 kts | 220° |
| 2026-04-29 08:50 | 53.25499 | -70.01540 | 37826 ft | 437 kts | 220° |
| 2026-04-29 08:51 | 53.20880 | -70.08163 | 37826 ft | 438 kts | 220° |
| 2026-04-29 08:51 | 53.16260 | -70.14768 | 37832 ft | 438 kts | 220° |
| 2026-04-29 08:52 | 53.11665 | -70.21317 | 37828 ft | 438 kts | 220° |
| 2026-04-29 08:52 | 53.07033 | -70.27899 | 37835 ft | 438 kts | 219° |
| 2026-04-29 08:53 | 53.02398 | -70.34468 | 37842 ft | 438 kts | 219° |
| 2026-04-29 08:53 | 52.97762 | -70.41018 | 37819 ft | 437 kts | 219° |
| 2026-04-29 08:54 | 52.93160 | -70.47500 | 37814 ft | 437 kts | 219° |
| 2026-04-29 08:54 | 52.88528 | -70.54007 | 37817 ft | 437 kts | 219° |
| 2026-04-29 08:55 | 52.83891 | -70.60502 | 37808 ft | 437 kts | 219° |
| 2026-04-29 08:55 | 52.79249 | -70.66984 | 37806 ft | 437 kts | 219° |
| 2026-04-29 08:56 | 52.74635 | -70.73409 | 37802 ft | 437 kts | 219° |
| 2026-04-29 08:56 | 52.69989 | -70.79859 | 37787 ft | 437 kts | 218° |
| 2026-04-29 08:57 | 52.65337 | -70.86301 | 37789 ft | 437 kts | 218° |
| 2026-04-29 08:57 | 52.60685 | -70.92723 | 37788 ft | 436 kts | 218° |
| 2026-04-29 08:58 | 52.56034 | -70.99125 | 37791 ft | 436 kts | 218° |
| 2026-04-29 08:58 | 52.51405 | -71.05478 | 37793 ft | 436 kts | 218° |
| 2026-04-29 08:59 | 52.46744 | -71.11857 | 37781 ft | 436 kts | 218° |
| 2026-04-29 08:59 | 52.42056 | -71.18253 | 37791 ft | 440 kts | 218° |
| 2026-04-29 09:00 | 52.37338 | -71.24674 | 37789 ft | 441 kts | 218° |
| 2026-04-29 09:00 | 52.32648 | -71.31041 | 37782 ft | 441 kts | 218° |
| 2026-04-29 09:01 | 52.27924 | -71.37435 | 37778 ft | 441 kts | 218° |
| 2026-04-29 09:01 | 52.23187 | -71.43824 | 37831 ft | 443 kts | 218° |
| 2026-04-29 09:02 | 52.18423 | -71.50234 | 37789 ft | 444 kts | 218° |
| 2026-04-29 09:02 | 52.13653 | -71.56633 | 37792 ft | 444 kts | 218° |
| 2026-04-29 09:03 | 52.08918 | -71.62968 | 37794 ft | 444 kts | 218° |
| 2026-04-29 09:03 | 52.04141 | -71.69341 | 37787 ft | 444 kts | 218° |
| 2026-04-29 09:04 | 51.99360 | -71.75699 | 37793 ft | 444 kts | 218° |
| 2026-04-29 09:04 | 51.94580 | -71.82040 | 37790 ft | 444 kts | 218° |
| 2026-04-29 09:05 | 51.89827 | -71.88325 | 37782 ft | 444 kts | 218° |
| 2026-04-29 09:05 | 51.85039 | -71.94639 | 37785 ft | 444 kts | 218° |
| 2026-04-29 09:06 | 51.80249 | -72.00940 | 37789 ft | 444 kts | 218° |
| 2026-04-29 09:06 | 51.75457 | -72.07224 | 37775 ft | 444 kts | 218° |
| 2026-04-29 09:07 | 51.70660 | -72.13497 | 37775 ft | 444 kts | 218° |
| 2026-04-29 09:07 | 51.65893 | -72.19714 | 37781 ft | 444 kts | 218° |
| 2026-04-29 09:08 | 51.61089 | -72.25960 | 37775 ft | 444 kts | 218° |
| 2026-04-29 09:08 | 51.56285 | -72.32190 | 37778 ft | 444 kts | 218° |
| 2026-04-29 09:09 | 51.51478 | -72.38406 | 37786 ft | 444 kts | 218° |
| 2026-04-29 09:09 | 51.46668 | -72.44609 | 37775 ft | 444 kts | 218° |
| 2026-04-29 09:10 | 51.41883 | -72.50762 | 37776 ft | 445 kts | 218° |
| 2026-04-29 09:10 | 51.37042 | -72.56969 | 37773 ft | 446 kts | 218° |
| 2026-04-29 09:11 | 51.32191 | -72.63172 | 37774 ft | 446 kts | 218° |
| 2026-04-29 09:11 | 51.27338 | -72.69361 | 37777 ft | 447 kts | 218° |
| 2026-04-29 09:12 | 51.22511 | -72.75499 | 37778 ft | 446 kts | 218° |
| 2026-04-29 09:12 | 51.17657 | -72.81655 | 37780 ft | 445 kts | 218° |
| 2026-04-29 09:13 | 51.12805 | -72.87791 | 37774 ft | 445 kts | 218° |
| 2026-04-29 09:13 | 51.07951 | -72.93912 | 37776 ft | 445 kts | 218° |
| 2026-04-29 09:14 | 51.03090 | -73.00026 | 37774 ft | 445 kts | 218° |
| 2026-04-29 09:14 | 50.98260 | -73.06084 | 37782 ft | 445 kts | 218° |
| 2026-04-29 09:15 | 50.93394 | -73.12171 | 37785 ft | 446 kts | 218° |
| 2026-04-29 09:15 | 50.88524 | -73.18246 | 37787 ft | 445 kts | 218° |
| 2026-04-29 09:16 | 50.83653 | -73.24306 | 37786 ft | 445 kts | 218° |
| 2026-04-29 09:16 | 50.78774 | -73.30359 | 37784 ft | 446 kts | 218° |
| 2026-04-29 09:17 | 50.73923 | -73.36361 | 37784 ft | 446 kts | 218° |
| 2026-04-29 09:17 | 50.69035 | -73.42393 | 37790 ft | 446 kts | 218° |
| 2026-04-29 09:18 | 50.64145 | -73.48412 | 37800 ft | 446 kts | 217° |
| 2026-04-29 09:18 | 50.59230 | -73.54443 | 37793 ft | 450 kts | 217° |
| 2026-04-29 09:19 | 50.54313 | -73.60460 | 37798 ft | 451 kts | 217° |
| 2026-04-29 09:19 | 50.49352 | -73.66513 | 37793 ft | 451 kts | 217° |
| 2026-04-29 09:20 | 50.44387 | -73.72557 | 37800 ft | 451 kts | 217° |
| 2026-04-29 09:20 | 50.39416 | -73.78591 | 37799 ft | 453 kts | 217° |
| 2026-04-29 09:21 | 50.34420 | -73.84639 | 37801 ft | 454 kts | 217° |
| 2026-04-29 09:21 | 50.29414 | -73.90683 | 37807 ft | 455 kts | 217° |
| 2026-04-29 09:22 | 50.24437 | -73.96675 | 37804 ft | 455 kts | 217° |
| 2026-04-29 09:22 | 50.19419 | -74.02699 | 37807 ft | 456 kts | 218° |
| 2026-04-29 09:23 | 50.14384 | -74.08729 | 37807 ft | 457 kts | 217° |
| 2026-04-29 09:23 | 50.09345 | -74.14748 | 37807 ft | 457 kts | 217° |
| 2026-04-29 09:24 | 50.04335 | -74.20715 | 37815 ft | 457 kts | 217° |
| 2026-04-29 09:24 | 49.99284 | -74.26714 | 37814 ft | 457 kts | 217° |
| 2026-04-29 09:25 | 49.94230 | -74.32701 | 37817 ft | 457 kts | 217° |
| 2026-04-29 09:25 | 49.89176 | -74.38672 | 37801 ft | 457 kts | 217° |
| 2026-04-29 09:26 | 49.84148 | -74.44589 | 37796 ft | 457 kts | 218° |
| 2026-04-29 09:26 | 49.78815 | -74.49893 | 37803 ft | 460 kts | 202° |
| 2026-04-29 09:27 | 49.72623 | -74.52450 | 37794 ft | 463 kts | 193° |
| 2026-04-29 09:27 | 49.66273 | -74.54196 | 37797 ft | 464 kts | 193° |
| 2026-04-29 09:28 | 49.59977 | -74.55987 | 37803 ft | 463 kts | 194° |
| 2026-04-29 09:28 | 49.53652 | -74.57945 | 37822 ft | 464 kts | 194° |
| 2026-04-29 09:29 | 49.47335 | -74.59959 | 37835 ft | 464 kts | 194° |
| 2026-04-29 09:29 | 49.37848 | -74.62982 | 37841 ft | 464 kts | 194° |
| 2026-04-29 09:30 | 49.31523 | -74.64983 | 37850 ft | 464 kts | 194° |
| 2026-04-29 09:30 | 49.25242 | -74.66964 | 37853 ft | 464 kts | 194° |
| 2026-04-29 09:31 | 49.18917 | -74.68953 | 37854 ft | 464 kts | 194° |
| 2026-04-29 09:31 | 49.12588 | -74.70938 | 37861 ft | 464 kts | 194° |
| 2026-04-29 09:32 | 49.06266 | -74.72916 | 37859 ft | 464 kts | 194° |
| 2026-04-29 09:32 | 48.99981 | -74.74878 | 37860 ft | 464 kts | 194° |
| 2026-04-29 09:33 | 48.93655 | -74.76847 | 37857 ft | 464 kts | 194° |
| 2026-04-29 09:33 | 48.87332 | -74.78810 | 37861 ft | 464 kts | 194° |
| 2026-04-29 09:34 | 48.81012 | -74.80766 | 37872 ft | 464 kts | 194° |
| 2026-04-29 09:34 | 48.74692 | -74.82718 | 37875 ft | 464 kts | 194° |
| 2026-04-29 09:35 | 48.68410 | -74.84653 | 37875 ft | 464 kts | 194° |
| 2026-04-29 09:35 | 48.62092 | -74.86595 | 37876 ft | 464 kts | 194° |
| 2026-04-29 09:36 | 48.55769 | -74.88532 | 37881 ft | 464 kts | 194° |
| 2026-04-29 09:36 | 48.49445 | -74.90466 | 37883 ft | 464 kts | 194° |
| 2026-04-29 09:37 | 48.43160 | -74.92382 | 37887 ft | 464 kts | 194° |
| 2026-04-29 09:37 | 48.36833 | -74.94307 | 37886 ft | 464 kts | 194° |
| 2026-04-29 09:38 | 48.30504 | -74.96227 | 37881 ft | 464 kts | 194° |
| 2026-04-29 09:38 | 48.24165 | -74.98145 | 37896 ft | 465 kts | 194° |
| 2026-04-29 09:39 | 48.17828 | -75.00058 | 37903 ft | 465 kts | 194° |
| 2026-04-29 09:39 | 48.11528 | -75.01955 | 37897 ft | 465 kts | 194° |
| 2026-04-29 09:40 | 48.05183 | -75.03861 | 37900 ft | 465 kts | 194° |
| 2026-04-29 09:40 | 47.98836 | -75.05762 | 37898 ft | 465 kts | 194° |
| 2026-04-29 09:41 | 47.92488 | -75.07659 | 37905 ft | 465 kts | 194° |
| 2026-04-29 09:41 | 47.86134 | -75.09553 | 37905 ft | 465 kts | 194° |
| 2026-04-29 09:42 | 47.79826 | -75.11429 | 37909 ft | 466 kts | 194° |
| 2026-04-29 09:42 | 47.73475 | -75.13313 | 37912 ft | 465 kts | 194° |
| 2026-04-29 09:43 | 47.67121 | -75.15191 | 37893 ft | 465 kts | 194° |
| 2026-04-29 09:43 | 47.60771 | -75.17065 | 37917 ft | 465 kts | 194° |
| 2026-04-29 09:44 | 47.54469 | -75.18921 | 37919 ft | 465 kts | 194° |
| 2026-04-29 09:44 | 47.48121 | -75.20787 | 37921 ft | 465 kts | 194° |
| 2026-04-29 09:45 | 47.41774 | -75.22647 | 37925 ft | 465 kts | 194° |
| 2026-04-29 09:45 | 47.35418 | -75.24504 | 37926 ft | 465 kts | 194° |
| 2026-04-29 09:46 | 47.29063 | -75.26357 | 37927 ft | 465 kts | 194° |
| 2026-04-29 09:46 | 47.22751 | -75.28192 | 37925 ft | 466 kts | 194° |
| 2026-04-29 09:47 | 47.16384 | -75.30040 | 37935 ft | 466 kts | 194° |
| 2026-04-29 09:47 | 47.10016 | -75.31882 | 37927 ft | 466 kts | 194° |
| 2026-04-29 09:48 | 47.03642 | -75.33722 | 37931 ft | 467 kts | 194° |
| 2026-04-29 09:48 | 46.97305 | -75.35548 | 37944 ft | 468 kts | 194° |
| 2026-04-29 09:49 | 46.90921 | -75.37382 | 37942 ft | 468 kts | 194° |
| 2026-04-29 09:49 | 46.84533 | -75.39213 | 37939 ft | 468 kts | 194° |
| 2026-04-29 09:50 | 46.78133 | -75.41043 | 37939 ft | 469 kts | 194° |
| 2026-04-29 09:50 | 46.71723 | -75.42871 | 37939 ft | 469 kts | 194° |
| 2026-04-29 09:51 | 46.65313 | -75.44695 | 37923 ft | 469 kts | 194° |
| 2026-04-29 09:51 | 46.58934 | -75.46506 | 37941 ft | 470 kts | 194° |
| 2026-04-29 09:52 | 46.52508 | -75.48326 | 37939 ft | 471 kts | 194° |
| 2026-04-29 09:52 | 46.46077 | -75.50142 | 37933 ft | 471 kts | 194° |
| 2026-04-29 09:53 | 46.39641 | -75.51955 | 37942 ft | 471 kts | 194° |
| 2026-04-29 09:53 | 46.33244 | -75.53753 | 37941 ft | 471 kts | 194° |
| 2026-04-29 09:54 | 46.26802 | -75.55560 | 37940 ft | 472 kts | 194° |
| 2026-04-29 09:54 | 46.20355 | -75.57364 | 37941 ft | 473 kts | 194° |
| 2026-04-29 09:55 | 46.13893 | -75.59168 | 37942 ft | 473 kts | 194° |
| 2026-04-29 09:55 | 46.07431 | -75.60967 | 37942 ft | 473 kts | 194° |
| 2026-04-29 09:56 | 46.01006 | -75.62752 | 37941 ft | 474 kts | 194° |
| 2026-04-29 09:56 | 45.94527 | -75.64547 | 37942 ft | 474 kts | 194° |
| 2026-04-29 09:57 | 45.88049 | -75.66338 | 37938 ft | 474 kts | 194° |
| 2026-04-29 09:57 | 45.81584 | -75.68121 | 37942 ft | 473 kts | 194° |
| 2026-04-29 09:58 | 45.75167 | -75.69886 | 37941 ft | 473 kts | 194° |
| 2026-04-29 09:58 | 45.68711 | -75.71659 | 37943 ft | 473 kts | 194° |
| 2026-04-29 09:59 | 45.62248 | -75.73430 | 37947 ft | 473 kts | 194° |
| 2026-04-29 09:59 | 45.55769 | -75.75200 | 37951 ft | 474 kts | 194° |
| 2026-04-29 10:00 | 45.50388 | -75.76668 | 37960 ft | 474 kts | 194° |
| 2026-04-29 10:00 | 45.42862 | -75.78714 | 37961 ft | 474 kts | 195° |
| 2026-04-29 10:01 | 45.36383 | -75.80473 | 37962 ft | 474 kts | 194° |
| 2026-04-29 10:01 | 45.30990 | -75.81933 | 37962 ft | 474 kts | 194° |
| 2026-04-29 10:02 | 45.23409 | -75.83981 | 37960 ft | 475 kts | 195° |
| 2026-04-29 10:02 | 45.18017 | -75.85434 | 37960 ft | 475 kts | 195° |
| 2026-04-29 10:03 | 45.11527 | -75.87180 | 37961 ft | 475 kts | 195° |
| 2026-04-29 10:03 | 45.05028 | -75.88922 | 37959 ft | 475 kts | 195° |
| 2026-04-29 10:04 | 44.98574 | -75.90650 | 37958 ft | 476 kts | 195° |
| 2026-04-29 10:04 | 44.92070 | -75.92386 | 37961 ft | 476 kts | 195° |
| 2026-04-29 10:05 | 44.85560 | -75.94120 | 37953 ft | 476 kts | 195° |
| 2026-04-29 10:05 | 44.79044 | -75.95854 | 37960 ft | 477 kts | 195° |
| 2026-04-29 10:06 | 44.72562 | -75.97573 | 37956 ft | 477 kts | 195° |
| 2026-04-29 10:06 | 44.65934 | -75.98679 | 37962 ft | 482 kts | 190° |
| 2026-04-29 10:07 | 44.59241 | -75.99451 | 37964 ft | 483 kts | 189° |
| 2026-04-29 10:07 | 44.52537 | -76.00171 | 37959 ft | 483 kts | 189° |
| 2026-04-29 10:08 | 44.45836 | -76.00900 | 37963 ft | 483 kts | 190° |
| 2026-04-29 10:08 | 44.39174 | -76.01636 | 37956 ft | 484 kts | 190° |
| 2026-04-29 10:09 | 44.32461 | -76.02386 | 37949 ft | 484 kts | 191° |
| 2026-04-29 10:09 | 44.25775 | -76.03380 | 37971 ft | 483 kts | 192° |
| 2026-04-29 10:10 | 44.19107 | -76.04502 | 37971 ft | 483 kts | 192° |
| 2026-04-29 10:10 | 44.12476 | -76.05585 | 37962 ft | 483 kts | 193° |
| 2026-04-29 10:11 | 44.05798 | -76.06639 | 37981 ft | 483 kts | 193° |
| 2026-04-29 10:11 | 43.99121 | -76.07680 | 37981 ft | 483 kts | 193° |
| 2026-04-29 10:12 | 43.92444 | -76.08718 | 37981 ft | 483 kts | 193° |
| 2026-04-29 10:12 | 43.85767 | -76.09755 | 37978 ft | 483 kts | 193° |
| 2026-04-29 10:13 | 43.79138 | -76.10783 | 37971 ft | 483 kts | 193° |
| 2026-04-29 10:13 | 43.72458 | -76.11816 | 37976 ft | 483 kts | 193° |
| 2026-04-29 10:14 | 43.65774 | -76.12848 | 37973 ft | 483 kts | 193° |
| 2026-04-29 10:14 | 43.59086 | -76.13879 | 37978 ft | 484 kts | 193° |
| 2026-04-29 10:15 | 43.52437 | -76.14901 | 37988 ft | 484 kts | 194° |
| 2026-04-29 10:15 | 43.45733 | -76.15929 | 37991 ft | 485 kts | 194° |
| 2026-04-29 10:16 | 43.39029 | -76.16954 | 37993 ft | 485 kts | 194° |
| 2026-04-29 10:16 | 43.32323 | -76.17977 | 37995 ft | 485 kts | 194° |
| 2026-04-29 10:17 | 43.25620 | -76.18998 | 38002 ft | 485 kts | 194° |
| 2026-04-29 10:17 | 43.18976 | -76.20101 | 37980 ft | 480 kts | 199° |
| 2026-04-29 10:18 | 43.15800 | -76.21287 | 38007 ft | 467 kts | 209° |
| 2026-04-29 10:18 | 43.12892 | -76.23135 | 38012 ft | 457 kts | 217° |
| 2026-04-29 10:18 | 43.07414 | -76.27463 | 38005 ft | 454 kts | 219° |
| 2026-04-29 10:19 | 43.02033 | -76.31986 | 38004 ft | 454 kts | 219° |
| 2026-04-29 10:19 | 42.96650 | -76.36494 | 38004 ft | 453 kts | 220° |
| 2026-04-29 10:20 | 42.91302 | -76.40920 | 38001 ft | 453 kts | 220° |
| 2026-04-29 10:20 | 42.85910 | -76.45357 | 38005 ft | 452 kts | 220° |
| 2026-04-29 10:21 | 42.80517 | -76.49785 | 38001 ft | 453 kts | 220° |
| 2026-04-29 10:21 | 42.75132 | -76.54185 | 38012 ft | 450 kts | 220° |
| 2026-04-29 10:22 | 42.69820 | -76.58520 | 38010 ft | 448 kts | 220° |
| 2026-04-29 10:22 | 42.64468 | -76.62891 | 37985 ft | 448 kts | 220° |
| 2026-04-29 10:23 | 42.59129 | -76.67240 | 38012 ft | 446 kts | 220° |
| 2026-04-29 10:23 | 42.53811 | -76.71554 | 38019 ft | 445 kts | 220° |
| 2026-04-29 10:24 | 42.48489 | -76.75867 | 38011 ft | 445 kts | 220° |
| 2026-04-29 10:24 | 42.43210 | -76.80137 | 38009 ft | 445 kts | 221° |
| 2026-04-29 10:25 | 42.37904 | -76.84419 | 38005 ft | 443 kts | 221° |
| 2026-04-29 10:25 | 42.32609 | -76.88686 | 38003 ft | 442 kts | 221° |
| 2026-04-29 10:26 | 42.27341 | -76.92919 | 37991 ft | 440 kts | 221° |
| 2026-04-29 10:26 | 42.22077 | -76.97147 | 37998 ft | 441 kts | 222° |
| 2026-04-29 10:27 | 42.14195 | -77.03468 | 38002 ft | 442 kts | 221° |
| 2026-04-29 10:28 | 42.08901 | -77.07685 | 38013 ft | 442 kts | 221° |
| 2026-04-29 10:28 | 42.03616 | -77.11896 | 38009 ft | 442 kts | 221° |
| 2026-04-29 10:29 | 41.98328 | -77.16104 | 38008 ft | 442 kts | 221° |
| 2026-04-29 10:29 | 41.93065 | -77.20281 | 38010 ft | 442 kts | 221° |
| 2026-04-29 10:30 | 41.87770 | -77.24474 | 38007 ft | 441 kts | 221° |
| 2026-04-29 10:30 | 41.82525 | -77.28614 | 38009 ft | 435 kts | 222° |
| 2026-04-29 10:31 | 41.77316 | -77.32728 | 38014 ft | 435 kts | 222° |
| 2026-04-29 10:31 | 41.72105 | -77.36838 | 38009 ft | 435 kts | 222° |
| 2026-04-29 10:32 | 41.66925 | -77.40916 | 38013 ft | 435 kts | 222° |
| 2026-04-29 10:32 | 41.61707 | -77.45011 | 38009 ft | 435 kts | 222° |
| 2026-04-29 10:33 | 41.56495 | -77.49092 | 38017 ft | 435 kts | 222° |
| 2026-04-29 10:33 | 41.51267 | -77.53174 | 37986 ft | 434 kts | 223° |
| 2026-04-29 10:34 | 41.46047 | -77.57245 | 38011 ft | 435 kts | 223° |
| 2026-04-29 10:34 | 41.40825 | -77.61316 | 38011 ft | 433 kts | 222° |
| 2026-04-29 10:35 | 41.35682 | -77.65314 | 38009 ft | 429 kts | 223° |
| 2026-04-29 10:35 | 41.30524 | -77.69317 | 38000 ft | 429 kts | 223° |
| 2026-04-29 10:36 | 41.25368 | -77.73311 | 38000 ft | 429 kts | 223° |
| 2026-04-29 10:36 | 41.20208 | -77.77302 | 38002 ft | 429 kts | 223° |
| 2026-04-29 10:37 | 41.15086 | -77.81256 | 38002 ft | 429 kts | 223° |
| 2026-04-29 10:37 | 41.09929 | -77.85230 | 37996 ft | 428 kts | 223° |
| 2026-04-29 10:38 | 41.04787 | -77.89178 | 38007 ft | 427 kts | 223° |
| 2026-04-29 10:38 | 40.99649 | -77.93122 | 38005 ft | 427 kts | 223° |
| 2026-04-29 10:39 | 40.94521 | -77.97069 | 38004 ft | 424 kts | 223° |
| 2026-04-29 10:39 | 40.92140 | -77.99261 | 37994 ft | 411 kts | 230° |
| 2026-04-29 10:39 | 40.90096 | -78.01737 | 38004 ft | 399 kts | 237° |
| 2026-04-29 10:40 | 40.86398 | -78.07134 | 38003 ft | 395 kts | 239° |
| 2026-04-29 10:40 | 40.82825 | -78.12635 | 37990 ft | 394 kts | 239° |
| 2026-04-29 10:41 | 40.79254 | -78.18142 | 38002 ft | 395 kts | 239° |
| 2026-04-29 10:41 | 40.75662 | -78.23629 | 37992 ft | 395 kts | 239° |
| 2026-04-29 10:42 | 40.72080 | -78.29063 | 37987 ft | 395 kts | 239° |
| 2026-04-29 10:42 | 40.68473 | -78.34528 | 37980 ft | 395 kts | 238° |
| 2026-04-29 10:43 | 40.64859 | -78.39994 | 37990 ft | 396 kts | 239° |
| 2026-04-29 10:43 | 40.61241 | -78.45450 | 37987 ft | 396 kts | 239° |
| 2026-04-29 10:44 | 40.57621 | -78.50901 | 37986 ft | 395 kts | 239° |
| 2026-04-29 10:44 | 40.54033 | -78.56301 | 37983 ft | 395 kts | 239° |
| 2026-04-29 10:45 | 40.50417 | -78.61733 | 37987 ft | 395 kts | 238° |
| 2026-04-29 10:45 | 40.46801 | -78.67154 | 37985 ft | 394 kts | 238° |
| 2026-04-29 10:46 | 40.43188 | -78.72560 | 37976 ft | 392 kts | 237° |
| 2026-04-29 10:46 | 40.39622 | -78.77882 | 37981 ft | 390 kts | 237° |
| 2026-04-29 10:47 | 40.36033 | -78.83233 | 37954 ft | 390 kts | 237° |
| 2026-04-29 10:47 | 40.32441 | -78.88587 | 37972 ft | 391 kts | 237° |
| 2026-04-29 10:48 | 40.28845 | -78.93939 | 37973 ft | 391 kts | 237° |
| 2026-04-29 10:48 | 40.25260 | -78.99248 | 37962 ft | 392 kts | 237° |
| 2026-04-29 10:49 | 40.21648 | -79.04592 | 37959 ft | 392 kts | 237° |
| 2026-04-29 10:49 | 40.18040 | -79.09925 | 37958 ft | 392 kts | 237° |
| 2026-04-29 10:50 | 40.14426 | -79.15259 | 37955 ft | 392 kts | 237° |
| 2026-04-29 10:50 | 40.10838 | -79.20625 | 37956 ft | 391 kts | 237° |
| 2026-04-29 10:51 | 40.07302 | -79.25970 | 37950 ft | 391 kts | 237° |
| 2026-04-29 10:51 | 40.03739 | -79.31343 | 37942 ft | 391 kts | 237° |
| 2026-04-29 10:52 | 40.00168 | -79.36707 | 37941 ft | 392 kts | 237° |
| 2026-04-29 10:52 | 39.96592 | -79.42062 | 37937 ft | 392 kts | 237° |
| 2026-04-29 10:53 | 39.93012 | -79.47413 | 37933 ft | 391 kts | 237° |
| 2026-04-29 10:53 | 39.89456 | -79.52714 | 37934 ft | 391 kts | 237° |
| 2026-04-29 10:54 | 39.85877 | -79.58045 | 37934 ft | 391 kts | 237° |
| 2026-04-29 10:54 | 39.82294 | -79.63373 | 37933 ft | 391 kts | 237° |
| 2026-04-29 10:55 | 39.78708 | -79.68697 | 37895 ft | 391 kts | 237° |
| 2026-04-29 10:55 | 39.75109 | -79.74031 | 37945 ft | 393 kts | 236° |
| 2026-04-29 10:56 | 39.71529 | -79.79326 | 37950 ft | 392 kts | 236° |
| 2026-04-29 10:56 | 39.67923 | -79.84654 | 37954 ft | 392 kts | 236° |
| 2026-04-29 10:57 | 39.64316 | -79.89971 | 37939 ft | 393 kts | 236° |
| 2026-04-29 10:57 | 39.60705 | -79.95284 | 37942 ft | 392 kts | 236° |
| 2026-04-29 10:58 | 39.57091 | -80.00595 | 37958 ft | 394 kts | 236° |
| 2026-04-29 10:58 | 39.53488 | -80.05885 | 37934 ft | 394 kts | 236° |
| 2026-04-29 10:59 | 39.49861 | -80.11205 | 37926 ft | 394 kts | 236° |
| 2026-04-29 10:59 | 39.46228 | -80.16518 | 37924 ft | 394 kts | 236° |
| 2026-04-29 11:00 | 39.42591 | -80.21825 | 37911 ft | 393 kts | 235° |
| 2026-04-29 11:00 | 39.38991 | -80.27068 | 37898 ft | 392 kts | 236° |
| 2026-04-29 11:01 | 39.35356 | -80.32359 | 37937 ft | 395 kts | 236° |
| 2026-04-29 11:01 | 39.31701 | -80.37672 | 37932 ft | 396 kts | 235° |
| 2026-04-29 11:02 | 39.28040 | -80.42985 | 37927 ft | 396 kts | 235° |
| 2026-04-29 11:02 | 39.24399 | -80.48258 | 37918 ft | 396 kts | 235° |
| 2026-04-29 11:03 | 39.20733 | -80.53554 | 37910 ft | 396 kts | 235° |
| 2026-04-29 11:03 | 39.17065 | -80.58843 | 37903 ft | 397 kts | 235° |
| 2026-04-29 11:04 | 39.13366 | -80.64169 | 37895 ft | 399 kts | 235° |
| 2026-04-29 11:04 | 39.09697 | -80.69451 | 37899 ft | 398 kts | 235° |
| 2026-04-29 11:05 | 39.06002 | -80.74760 | 37902 ft | 399 kts | 235° |
| 2026-04-29 11:05 | 39.02264 | -80.80037 | 37906 ft | 402 kts | 232° |
| 2026-04-29 11:06 | 38.97846 | -80.84601 | 37890 ft | 410 kts | 225° |
| 2026-04-29 11:06 | 38.93158 | -80.88853 | 37917 ft | 414 kts | 224° |
| 2026-04-29 11:07 | 38.88453 | -80.93026 | 37917 ft | 414 kts | 223° |
| 2026-04-29 11:07 | 38.83726 | -80.97227 | 37924 ft | 413 kts | 224° |
| 2026-04-29 11:08 | 38.79008 | -81.01435 | 37915 ft | 413 kts | 224° |
| 2026-04-29 11:08 | 38.74295 | -81.05639 | 37918 ft | 414 kts | 223° |
| 2026-04-29 11:09 | 38.69559 | -81.09860 | 37921 ft | 415 kts | 223° |
| 2026-04-29 11:09 | 38.64820 | -81.14077 | 37920 ft | 415 kts | 223° |
| 2026-04-29 11:10 | 38.60106 | -81.18262 | 37915 ft | 415 kts | 223° |
| 2026-04-29 11:10 | 38.55358 | -81.22471 | 37903 ft | 415 kts | 223° |
| 2026-04-29 11:11 | 38.50602 | -81.26683 | 37912 ft | 417 kts | 223° |
| 2026-04-29 11:11 | 38.45836 | -81.30901 | 37915 ft | 417 kts | 223° |
| 2026-04-29 11:12 | 38.41102 | -81.35076 | 37913 ft | 416 kts | 223° |
| 2026-04-29 11:12 | 38.36339 | -81.39267 | 37914 ft | 416 kts | 223° |
| 2026-04-29 11:13 | 38.31568 | -81.43460 | 37905 ft | 418 kts | 223° |
| 2026-04-29 11:13 | 38.26782 | -81.47668 | 37913 ft | 418 kts | 223° |
| 2026-04-29 11:14 | 38.22029 | -81.51839 | 37913 ft | 418 kts | 223° |
| 2026-04-29 11:14 | 38.17239 | -81.56025 | 37913 ft | 418 kts | 223° |
| 2026-04-29 11:15 | 38.12442 | -81.60210 | 37924 ft | 418 kts | 223° |
| 2026-04-29 11:15 | 38.07641 | -81.64388 | 37905 ft | 419 kts | 223° |
| 2026-04-29 11:16 | 38.02835 | -81.68551 | 37913 ft | 418 kts | 223° |
| 2026-04-29 11:16 | 37.98071 | -81.72714 | 37898 ft | 419 kts | 222° |
| 2026-04-29 11:17 | 37.93270 | -81.76899 | 37912 ft | 418 kts | 223° |
| 2026-04-29 11:17 | 37.88460 | -81.81058 | 37908 ft | 419 kts | 222° |
| 2026-04-29 11:18 | 37.83648 | -81.85217 | 37908 ft | 420 kts | 222° |
| 2026-04-29 11:18 | 37.78857 | -81.89353 | 37907 ft | 419 kts | 222° |
| 2026-04-29 11:19 | 37.74047 | -81.93504 | 37915 ft | 419 kts | 222° |
| 2026-04-29 11:19 | 37.69229 | -81.97650 | 37918 ft | 419 kts | 222° |
| 2026-04-29 11:20 | 37.64415 | -82.01789 | 37907 ft | 420 kts | 223° |
| 2026-04-29 11:20 | 37.59569 | -82.05952 | 37918 ft | 422 kts | 223° |
| 2026-04-29 11:21 | 37.54761 | -82.10075 | 37918 ft | 420 kts | 223° |
| 2026-04-29 11:21 | 37.49698 | -82.13876 | 37916 ft | 433 kts | 212° |
| 2026-04-29 11:22 | 37.44013 | -82.16569 | 37896 ft | 438 kts | 209° |
| 2026-04-29 11:22 | 37.38230 | -82.19017 | 37912 ft | 439 kts | 208° |
| 2026-04-29 11:23 | 37.32432 | -82.21433 | 37920 ft | 439 kts | 208° |
| 2026-04-29 11:23 | 37.26681 | -82.23863 | 37914 ft | 439 kts | 208° |
| 2026-04-29 11:24 | 37.20904 | -82.26318 | 37893 ft | 438 kts | 208° |
| 2026-04-29 11:24 | 37.15118 | -82.28780 | 37922 ft | 440 kts | 208° |
| 2026-04-29 11:24 | 37.12122 | -82.29753 | 37926 ft | 452 kts | 199° |
| 2026-04-29 11:25 | 37.08929 | -82.30011 | 37922 ft | 470 kts | 187° |
| 2026-04-29 11:25 | 37.05683 | -82.29339 | 37923 ft | 492 kts | 173° |
| 2026-04-29 11:25 | 37.02487 | -82.27567 | 37933 ft | 515 kts | 158° |
| 2026-04-29 11:25 | 36.99629 | -82.24742 | 37929 ft | 535 kts | 142° |
| 2026-04-29 11:26 | 36.95720 | -82.16585 | 37951 ft | 565 kts | 111° |
| 2026-04-29 11:26 | 36.94960 | -82.11746 | 37970 ft | 571 kts | 96° |
| 2026-04-29 11:26 | 36.95103 | -82.06786 | 37971 ft | 572 kts | 80° |
| 2026-04-29 11:27 | 36.96143 | -82.02004 | 37982 ft | 569 kts | 65° |
| 2026-04-29 11:27 | 36.98007 | -81.97688 | 38014 ft | 560 kts | 49° |
| 2026-04-29 11:27 | 37.02953 | -81.90329 | 38023 ft | 559 kts | 44° |
| 2026-04-29 11:28 | 37.05127 | -81.86237 | 38029 ft | 570 kts | 60° |
| 2026-04-29 11:28 | 37.06517 | -81.81582 | 38029 ft | 574 kts | 75° |
| 2026-04-29 11:28 | 37.07033 | -81.76626 | 38025 ft | 574 kts | 91° |
| 2026-04-29 11:28 | 37.06784 | -81.71656 | 38026 ft | 572 kts | 98° |
| 2026-04-29 11:29 | 37.06084 | -81.61713 | 38006 ft | 575 kts | 96° |
| 2026-04-29 11:29 | 37.05785 | -81.54985 | 37992 ft | 575 kts | 94° |